PWSweather.com
Personal Weather Stations
Station Observations
DL5ARK
SonnebergDE

SonnebergDE

Lat: 50.34904861, Lon: 11.18112087

Elevation: 1214

Station Type: Selfmade

http://www.sumbarg.de

High Low Average
Temperature 90.3°F32.4°C 48.5°F9.2°C 68.5°F20.3°C
Dew Point 70.0°F21.1°C 51.7°F10.9°C 62.3°F16.8°C
Winds 7.3 mph 11.7 kmh Calm Calm 1.0 mph SW1.6 kmh SW
Wind Gusts 7.3 mph11.7 kmh -- 1.0 mph1.6 kmh
Humidity 81% 35% 58%
Pressure 30.13 in1020.3 mb 29.97 in1014.9 mb -
Precipitation 0.00 in0.0 mm - -
Hour Temp Dew Point Humidity Winds Wind Gusts Pressure Precip Precip Rate Daily Precip Total
12:00 AM 53.8°F12.1°C 57.0°F13.9°C 73% Calm Calm -- 30.13 in1020.3 mb 0.00 in0.0 mm 0.00 in0.0 mm 0.00 in0.0 mm
12:02 AM 53.8°F12.1°C 57.0°F13.9°C 73% Calm Calm -- 30.13 in1020.3 mb 0.00 in0.0 mm 0.00 in0.0 mm 0.00 in0.0 mm
12:03 AM 53.8°F12.1°C 56.9°F13.8°C 73% Calm Calm -- 30.13 in1020.3 mb 0.00 in0.0 mm 0.00 in0.0 mm 0.00 in0.0 mm
12:05 AM 53.6°F12.0°C 57.0°F13.9°C 73% Calm Calm -- 30.12 in1020.0 mb 0.00 in0.0 mm 0.00 in0.0 mm 0.00 in0.0 mm
12:06 AM 53.7°F12.1°C 56.7°F13.7°C 73% Calm Calm -- 30.13 in1020.3 mb 0.00 in0.0 mm 0.00 in0.0 mm 0.00 in0.0 mm
12:08 AM 53.6°F12.0°C 56.9°F13.8°C 73% Calm Calm -- 30.13 in1020.3 mb 0.00 in0.0 mm 0.00 in0.0 mm 0.00 in0.0 mm
12:09 AM 53.5°F11.9°C 56.8°F13.8°C 73% Calm Calm -- 30.13 in1020.3 mb 0.00 in0.0 mm 0.00 in0.0 mm 0.00 in0.0 mm
12:11 AM 53.3°F11.8°C 56.8°F13.8°C 74% Calm Calm -- 30.13 in1020.3 mb 0.00 in0.0 mm 0.00 in0.0 mm 0.00 in0.0 mm
12:12 AM 53.3°F11.8°C 56.7°F13.7°C 73% Calm Calm -- 30.12 in1020.0 mb 0.00 in0.0 mm 0.00 in0.0 mm 0.00 in0.0 mm
12:14 AM 53.3°F11.8°C 56.5°F13.6°C 73% Calm Calm -- 30.13 in1020.3 mb 0.00 in0.0 mm 0.00 in0.0 mm 0.00 in0.0 mm
12:15 AM 53.3°F11.8°C 56.4°F13.6°C 73% Calm Calm -- 30.12 in1020.0 mb 0.00 in0.0 mm 0.00 in0.0 mm 0.00 in0.0 mm
12:17 AM 53.3°F11.8°C 56.1°F13.4°C 73% Calm Calm -- 30.12 in1020.0 mb 0.00 in0.0 mm 0.00 in0.0 mm 0.00 in0.0 mm
12:18 AM 53.3°F11.8°C 56.2°F13.4°C 72% Calm Calm -- 30.12 in1020.0 mb 0.00 in0.0 mm 0.00 in0.0 mm 0.00 in0.0 mm
12:20 AM 53.4°F11.9°C 55.9°F13.3°C 72% Calm Calm -- 30.12 in1020.0 mb 0.00 in0.0 mm 0.00 in0.0 mm 0.00 in0.0 mm
12:21 AM 53.2°F11.8°C 55.9°F13.3°C 72% Calm Calm -- 30.12 in1020.0 mb 0.00 in0.0 mm 0.00 in0.0 mm 0.00 in0.0 mm
12:23 AM 53.2°F11.8°C 56.0°F13.3°C 73% Calm Calm -- 30.12 in1020.0 mb 0.00 in0.0 mm 0.00 in0.0 mm 0.00 in0.0 mm
12:24 AM 53.0°F11.7°C 55.7°F13.2°C 73% Calm Calm -- 30.12 in1020.0 mb 0.00 in0.0 mm 0.00 in0.0 mm 0.00 in0.0 mm
12:26 AM 53.0°F11.7°C 56.4°F13.6°C 73% Calm Calm -- 30.12 in1020.0 mb 0.00 in0.0 mm 0.00 in0.0 mm 0.00 in0.0 mm
12:27 AM 52.9°F11.6°C 56.0°F13.3°C 73% Calm Calm -- 30.12 in1020.0 mb 0.00 in0.0 mm 0.00 in0.0 mm 0.00 in0.0 mm
12:29 AM 53.3°F11.8°C 55.9°F13.3°C 73% Calm Calm -- 30.12 in1020.0 mb 0.00 in0.0 mm 0.00 in0.0 mm 0.00 in0.0 mm
12:30 AM 53.2°F11.8°C 55.8°F13.2°C 73% Calm Calm -- 30.12 in1020.0 mb 0.00 in0.0 mm 0.00 in0.0 mm 0.00 in0.0 mm
12:32 AM 52.9°F11.6°C 55.7°F13.2°C 72% Calm Calm -- 30.12 in1020.0 mb 0.00 in0.0 mm 0.00 in0.0 mm 0.00 in0.0 mm
12:33 AM 52.6°F11.4°C 55.8°F13.2°C 72% Calm Calm -- 30.12 in1020.0 mb 0.00 in0.0 mm 0.00 in0.0 mm 0.00 in0.0 mm
12:35 AM 53.2°F11.8°C 55.7°F13.2°C 73% Calm Calm -- 30.12 in1020.0 mb 0.00 in0.0 mm 0.00 in0.0 mm 0.00 in0.0 mm
12:36 AM 52.9°F11.6°C 55.5°F13.1°C 72% Calm Calm -- 30.12 in1020.0 mb 0.00 in0.0 mm 0.00 in0.0 mm 0.00 in0.0 mm
12:38 AM 52.8°F11.6°C 55.8°F13.2°C 73% Calm Calm -- 30.12 in1020.0 mb 0.00 in0.0 mm 0.00 in0.0 mm 0.00 in0.0 mm
12:39 AM 52.8°F11.6°C 56.1°F13.4°C 73% Calm Calm -- 30.12 in1020.0 mb 0.00 in0.0 mm 0.00 in0.0 mm 0.00 in0.0 mm
12:41 AM 53.0°F11.7°C 56.1°F13.4°C 73% Calm Calm -- 30.12 in1020.0 mb 0.00 in0.0 mm 0.00 in0.0 mm 0.00 in0.0 mm
12:42 AM 52.8°F11.6°C 55.5°F13.1°C 73% Calm Calm -- 30.12 in1020.0 mb 0.00 in0.0 mm 0.00 in0.0 mm 0.00 in0.0 mm
12:47 AM 52.4°F11.3°C 55.6°F13.1°C 74% Calm Calm -- 30.12 in1020.0 mb 0.00 in0.0 mm 0.00 in0.0 mm 0.00 in0.0 mm
12:48 AM 52.5°F11.4°C 55.7°F13.2°C 74% Calm Calm -- 30.12 in1020.0 mb 0.00 in0.0 mm 0.00 in0.0 mm 0.00 in0.0 mm
12:50 AM 52.5°F11.4°C 56.0°F13.3°C 74% Calm Calm -- 30.12 in1020.0 mb 0.00 in0.0 mm 0.00 in0.0 mm 0.00 in0.0 mm
12:51 AM 52.5°F11.4°C 55.9°F13.3°C 74% Calm Calm -- 30.12 in1020.0 mb 0.00 in0.0 mm 0.00 in0.0 mm 0.00 in0.0 mm
12:53 AM 52.5°F11.4°C 55.6°F13.1°C 74% Calm Calm -- 30.12 in1020.0 mb 0.00 in0.0 mm 0.00 in0.0 mm 0.00 in0.0 mm
12:54 AM 52.4°F11.3°C 55.5°F13.1°C 74% Calm Calm -- 30.12 in1020.0 mb 0.00 in0.0 mm 0.00 in0.0 mm 0.00 in0.0 mm
12:56 AM 52.1°F11.2°C 55.6°F13.1°C 74% Calm Calm -- 30.12 in1020.0 mb 0.00 in0.0 mm 0.00 in0.0 mm 0.00 in0.0 mm
12:57 AM 52.1°F11.2°C 55.8°F13.2°C 75% Calm Calm -- 30.12 in1020.0 mb 0.00 in0.0 mm 0.00 in0.0 mm 0.00 in0.0 mm
12:59 AM 52.4°F11.3°C 55.3°F12.9°C 74% Calm Calm -- 30.12 in1020.0 mb 0.00 in0.0 mm 0.00 in0.0 mm 0.00 in0.0 mm
01:02 AM 52.3°F11.3°C 55.3°F12.9°C 74% Calm Calm -- 30.12 in1020.0 mb 0.00 in0.0 mm 0.00 in0.0 mm 0.00 in0.0 mm
01:03 AM 52.1°F11.2°C 55.3°F12.9°C 74% Calm Calm -- 30.12 in1020.0 mb 0.00 in0.0 mm 0.00 in0.0 mm 0.00 in0.0 mm
01:05 AM 52.3°F11.3°C 55.5°F13.1°C 74% Calm Calm -- 30.11 in1019.6 mb 0.00 in0.0 mm 0.00 in0.0 mm 0.00 in0.0 mm
01:06 AM 52.1°F11.2°C 55.4°F13.0°C 74% Calm Calm -- 30.12 in1020.0 mb 0.00 in0.0 mm 0.00 in0.0 mm 0.00 in0.0 mm
01:08 AM 52.1°F11.2°C 55.4°F13.0°C 75% Calm Calm -- 30.11 in1019.6 mb 0.00 in0.0 mm 0.00 in0.0 mm 0.00 in0.0 mm
01:09 AM 52.1°F11.2°C 55.5°F13.1°C 75% Calm Calm -- 30.11 in1019.6 mb 0.00 in0.0 mm 0.00 in0.0 mm 0.00 in0.0 mm
01:11 AM 51.9°F11.1°C 55.1°F12.8°C 74% Calm Calm -- 30.12 in1020.0 mb 0.00 in0.0 mm 0.00 in0.0 mm 0.00 in0.0 mm
01:12 AM 51.9°F11.1°C 55.2°F12.9°C 74% Calm Calm -- 30.12 in1020.0 mb 0.00 in0.0 mm 0.00 in0.0 mm 0.00 in0.0 mm
01:14 AM 52.0°F11.1°C 55.1°F12.8°C 74% Calm Calm -- 30.11 in1019.6 mb 0.00 in0.0 mm 0.00 in0.0 mm 0.00 in0.0 mm
01:15 AM 52.1°F11.2°C 55.2°F12.9°C 74% Calm Calm -- 30.12 in1020.0 mb 0.00 in0.0 mm 0.00 in0.0 mm 0.00 in0.0 mm
01:17 AM 51.8°F11.0°C 55.2°F12.9°C 74% Calm Calm -- 30.11 in1019.6 mb 0.00 in0.0 mm 0.00 in0.0 mm 0.00 in0.0 mm
01:18 AM 51.8°F11.0°C 55.0°F12.8°C 74% Calm Calm -- 30.12 in1020.0 mb 0.00 in0.0 mm 0.00 in0.0 mm 0.00 in0.0 mm
01:20 AM 51.8°F11.0°C 54.9°F12.7°C 74% Calm Calm -- 30.11 in1019.6 mb 0.00 in0.0 mm 0.00 in0.0 mm 0.00 in0.0 mm
01:21 AM 51.9°F11.1°C 54.8°F12.7°C 74% Calm Calm -- 30.11 in1019.6 mb 0.00 in0.0 mm 0.00 in0.0 mm 0.00 in0.0 mm
01:23 AM 51.8°F11.0°C 54.9°F12.7°C 75% Calm Calm -- 30.12 in1020.0 mb 0.00 in0.0 mm 0.00 in0.0 mm 0.00 in0.0 mm
01:24 AM 51.8°F11.0°C 54.8°F12.7°C 74% Calm Calm -- 30.11 in1019.6 mb 0.00 in0.0 mm 0.00 in0.0 mm 0.00 in0.0 mm
01:26 AM 51.7°F10.9°C 55.1°F12.8°C 75% Calm Calm -- 30.12 in1020.0 mb 0.00 in0.0 mm 0.00 in0.0 mm 0.00 in0.0 mm
01:27 AM 51.7°F10.9°C 55.0°F12.8°C 75% Calm Calm -- 30.11 in1019.6 mb 0.00 in0.0 mm 0.00 in0.0 mm 0.00 in0.0 mm
01:29 AM 51.4°F10.8°C 54.7°F12.6°C 75% Calm Calm -- 30.12 in1020.0 mb 0.00 in0.0 mm 0.00 in0.0 mm 0.00 in0.0 mm
01:32 AM 51.6°F10.9°C 54.6°F12.6°C 75% Calm Calm -- 30.12 in1020.0 mb 0.00 in0.0 mm 0.00 in0.0 mm 0.00 in0.0 mm
01:33 AM 51.6°F10.9°C 54.4°F12.4°C 74% Calm Calm -- 30.12 in1020.0 mb 0.00 in0.0 mm 0.00 in0.0 mm 0.00 in0.0 mm
01:35 AM 51.6°F10.9°C 54.5°F12.5°C 74% Calm Calm -- 30.12 in1020.0 mb 0.00 in0.0 mm 0.00 in0.0 mm 0.00 in0.0 mm
01:36 AM 51.6°F10.9°C 54.4°F12.4°C 74% Calm Calm -- 30.11 in1019.6 mb 0.00 in0.0 mm 0.00 in0.0 mm 0.00 in0.0 mm
01:38 AM 51.5°F10.8°C 54.6°F12.6°C 75% Calm Calm -- 30.11 in1019.6 mb 0.00 in0.0 mm 0.00 in0.0 mm 0.00 in0.0 mm
01:39 AM 51.5°F10.8°C 54.7°F12.6°C 75% Calm Calm -- 30.11 in1019.6 mb 0.00 in0.0 mm 0.00 in0.0 mm 0.00 in0.0 mm
01:41 AM 51.4°F10.8°C 54.6°F12.6°C 75% Calm Calm -- 30.12 in1020.0 mb 0.00 in0.0 mm 0.00 in0.0 mm 0.00 in0.0 mm
01:42 AM 51.2°F10.7°C 54.5°F12.5°C 75% Calm Calm -- 30.11 in1019.6 mb 0.00 in0.0 mm 0.00 in0.0 mm 0.00 in0.0 mm
01:44 AM 51.4°F10.8°C 54.4°F12.4°C 75% Calm Calm -- 30.11 in1019.6 mb 0.00 in0.0 mm 0.00 in0.0 mm 0.00 in0.0 mm
01:47 AM 51.0°F10.6°C 54.6°F12.6°C 76% Calm Calm -- 30.11 in1019.6 mb 0.00 in0.0 mm 0.00 in0.0 mm 0.00 in0.0 mm
01:48 AM 51.1°F10.6°C 54.4°F12.4°C 76% Calm Calm -- 30.11 in1019.6 mb 0.00 in0.0 mm 0.00 in0.0 mm 0.00 in0.0 mm
01:50 AM 51.1°F10.6°C 54.3°F12.4°C 76% Calm Calm -- 30.11 in1019.6 mb 0.00 in0.0 mm 0.00 in0.0 mm 0.00 in0.0 mm
01:51 AM 51.2°F10.7°C 54.3°F12.4°C 76% Calm Calm -- 30.11 in1019.6 mb 0.00 in0.0 mm 0.00 in0.0 mm 0.00 in0.0 mm
01:53 AM 51.0°F10.6°C 54.1°F12.3°C 75% Calm Calm -- 30.11 in1019.6 mb 0.00 in0.0 mm 0.00 in0.0 mm 0.00 in0.0 mm
01:54 AM 51.0°F10.6°C 54.0°F12.2°C 75% Calm Calm -- 30.11 in1019.6 mb 0.00 in0.0 mm 0.00 in0.0 mm 0.00 in0.0 mm
01:56 AM 50.9°F10.5°C 53.9°F12.2°C 75% Calm Calm -- 30.11 in1019.6 mb 0.00 in0.0 mm 0.00 in0.0 mm 0.00 in0.0 mm
01:57 AM 50.9°F10.5°C 53.8°F12.1°C 74% Calm Calm -- 30.11 in1019.6 mb 0.00 in0.0 mm 0.00 in0.0 mm 0.00 in0.0 mm
01:59 AM 50.8°F10.4°C 54.1°F12.3°C 76% Calm Calm -- 30.11 in1019.6 mb 0.00 in0.0 mm 0.00 in0.0 mm 0.00 in0.0 mm
02:00 AM 50.8°F10.4°C 54.2°F12.3°C 76% Calm Calm -- 30.11 in1019.6 mb 0.00 in0.0 mm 0.00 in0.0 mm 0.00 in0.0 mm
02:02 AM 50.8°F10.4°C 54.0°F12.2°C 76% Calm Calm -- 30.11 in1019.6 mb 0.00 in0.0 mm 0.00 in0.0 mm 0.00 in0.0 mm
02:03 AM 50.8°F10.4°C 54.0°F12.2°C 76% Calm Calm -- 30.11 in1019.6 mb 0.00 in0.0 mm 0.00 in0.0 mm 0.00 in0.0 mm
02:05 AM 50.8°F10.4°C 54.0°F12.2°C 76% Calm Calm -- 30.11 in1019.6 mb 0.00 in0.0 mm 0.00 in0.0 mm 0.00 in0.0 mm
02:06 AM 50.8°F10.4°C 53.8°F12.1°C 75% Calm Calm -- 30.11 in1019.6 mb 0.00 in0.0 mm 0.00 in0.0 mm 0.00 in0.0 mm
02:08 AM 50.8°F10.4°C 53.9°F12.2°C 76% Calm Calm -- 30.11 in1019.6 mb 0.00 in0.0 mm 0.00 in0.0 mm 0.00 in0.0 mm
02:09 AM 50.8°F10.4°C 54.1°F12.3°C 76% Calm Calm -- 30.11 in1019.6 mb 0.00 in0.0 mm 0.00 in0.0 mm 0.00 in0.0 mm
02:11 AM 50.7°F10.4°C 54.3°F12.4°C 76% Calm Calm -- 30.11 in1019.6 mb 0.00 in0.0 mm 0.00 in0.0 mm 0.00 in0.0 mm
02:12 AM 50.8°F10.4°C 54.1°F12.3°C 76% Calm Calm -- 30.11 in1019.6 mb 0.00 in0.0 mm 0.00 in0.0 mm 0.00 in0.0 mm
02:14 AM 50.7°F10.4°C 54.1°F12.3°C 76% Calm Calm -- 30.11 in1019.6 mb 0.00 in0.0 mm 0.00 in0.0 mm 0.00 in0.0 mm
02:15 AM 50.7°F10.4°C 54.2°F12.3°C 76% Calm Calm -- 30.11 in1019.6 mb 0.00 in0.0 mm 0.00 in0.0 mm 0.00 in0.0 mm
02:17 AM 50.1°F10.1°C 53.8°F12.1°C 75% Calm Calm -- 30.11 in1019.6 mb 0.00 in0.0 mm 0.00 in0.0 mm 0.00 in0.0 mm
02:18 AM 50.1°F10.1°C 53.8°F12.1°C 75% Calm Calm -- 30.11 in1019.6 mb 0.00 in0.0 mm 0.00 in0.0 mm 0.00 in0.0 mm
02:20 AM 50.0°F10.0°C 53.6°F12.0°C 75% Calm Calm -- 30.11 in1019.6 mb 0.00 in0.0 mm 0.00 in0.0 mm 0.00 in0.0 mm
02:21 AM 50.0°F10.0°C 53.6°F12.0°C 75% Calm Calm -- 30.11 in1019.6 mb 0.00 in0.0 mm 0.00 in0.0 mm 0.00 in0.0 mm
02:23 AM 50.5°F10.3°C 53.5°F11.9°C 75% Calm Calm -- 30.11 in1019.6 mb 0.00 in0.0 mm 0.00 in0.0 mm 0.00 in0.0 mm
02:24 AM 50.6°F10.3°C 53.7°F12.1°C 75% Calm Calm -- 30.11 in1019.6 mb 0.00 in0.0 mm 0.00 in0.0 mm 0.00 in0.0 mm
02:26 AM 51.1°F10.6°C 53.7°F12.1°C 76% Calm Calm -- 30.11 in1019.6 mb 0.00 in0.0 mm 0.00 in0.0 mm 0.00 in0.0 mm
02:27 AM 51.1°F10.6°C 53.7°F12.1°C 76% Calm Calm -- 30.11 in1019.6 mb 0.00 in0.0 mm 0.00 in0.0 mm 0.00 in0.0 mm
02:29 AM 51.1°F10.6°C 53.9°F12.2°C 77% Calm Calm -- 30.11 in1019.6 mb 0.00 in0.0 mm 0.00 in0.0 mm 0.00 in0.0 mm
02:32 AM 50.8°F10.4°C 53.8°F12.1°C 76% Calm Calm -- 30.11 in1019.6 mb 0.00 in0.0 mm 0.00 in0.0 mm 0.00 in0.0 mm
02:33 AM 50.9°F10.5°C 53.7°F12.1°C 77% Calm Calm -- 30.11 in1019.6 mb 0.00 in0.0 mm 0.00 in0.0 mm 0.00 in0.0 mm
02:35 AM 50.6°F10.3°C 54.1°F12.3°C 77% Calm Calm -- 30.11 in1019.6 mb 0.00 in0.0 mm 0.00 in0.0 mm 0.00 in0.0 mm
02:36 AM 50.6°F10.3°C 53.9°F12.2°C 77% Calm Calm -- 30.11 in1019.6 mb 0.00 in0.0 mm 0.00 in0.0 mm 0.00 in0.0 mm
02:38 AM 50.5°F10.3°C 54.0°F12.2°C 77% Calm Calm -- 30.11 in1019.6 mb 0.00 in0.0 mm 0.00 in0.0 mm 0.00 in0.0 mm
02:39 AM 50.5°F10.3°C 53.9°F12.2°C 77% Calm Calm -- 30.11 in1019.6 mb 0.00 in0.0 mm 0.00 in0.0 mm 0.00 in0.0 mm
02:41 AM 50.2°F10.1°C 53.6°F12.0°C 76% Calm Calm -- 30.11 in1019.6 mb 0.00 in0.0 mm 0.00 in0.0 mm 0.00 in0.0 mm
02:42 AM 50.2°F10.1°C 53.4°F11.9°C 76% Calm Calm -- 30.11 in1019.6 mb 0.00 in0.0 mm 0.00 in0.0 mm 0.00 in0.0 mm
02:44 AM 50.5°F10.3°C 53.1°F11.7°C 75% Calm Calm -- 30.11 in1019.6 mb 0.00 in0.0 mm 0.00 in0.0 mm 0.00 in0.0 mm
02:45 AM 50.6°F10.3°C 53.4°F11.9°C 76% Calm Calm -- 30.11 in1019.6 mb 0.00 in0.0 mm 0.00 in0.0 mm 0.00 in0.0 mm
02:47 AM 50.3°F10.2°C 53.5°F11.9°C 76% Calm Calm -- 30.11 in1019.6 mb 0.00 in0.0 mm 0.00 in0.0 mm 0.00 in0.0 mm
02:48 AM 50.5°F10.3°C 53.4°F11.9°C 76% Calm Calm -- 30.11 in1019.6 mb 0.00 in0.0 mm 0.00 in0.0 mm 0.00 in0.0 mm
02:53 AM 50.2°F10.1°C 53.9°F12.2°C 78% Calm Calm -- 30.11 in1019.6 mb 0.00 in0.0 mm 0.00 in0.0 mm 0.00 in0.0 mm
02:54 AM 50.2°F10.1°C 53.7°F12.1°C 77% Calm Calm -- 30.11 in1019.6 mb 0.00 in0.0 mm 0.00 in0.0 mm 0.00 in0.0 mm
02:56 AM 50.1°F10.1°C 53.5°F11.9°C 77% Calm Calm -- 30.11 in1019.6 mb 0.00 in0.0 mm 0.00 in0.0 mm 0.00 in0.0 mm
02:57 AM 50.1°F10.1°C 53.5°F11.9°C 76% Calm Calm -- 30.11 in1019.6 mb 0.00 in0.0 mm 0.00 in0.0 mm 0.00 in0.0 mm
02:59 AM 50.1°F10.1°C 53.9°F12.2°C 78% Calm Calm -- 30.11 in1019.6 mb 0.00 in0.0 mm 0.00 in0.0 mm 0.00 in0.0 mm
03:02 AM 49.9°F9.9°C 53.4°F11.9°C 77% Calm Calm -- 30.11 in1019.6 mb 0.00 in0.0 mm 0.00 in0.0 mm 0.00 in0.0 mm
03:03 AM 49.9°F9.9°C 53.5°F11.9°C 78% Calm Calm -- 30.11 in1019.6 mb 0.00 in0.0 mm 0.00 in0.0 mm 0.00 in0.0 mm
03:05 AM 49.8°F9.9°C 53.3°F11.8°C 77% Calm Calm -- 30.11 in1019.6 mb 0.00 in0.0 mm 0.00 in0.0 mm 0.00 in0.0 mm
03:06 AM 49.7°F9.8°C 53.3°F11.8°C 77% Calm Calm -- 30.11 in1019.6 mb 0.00 in0.0 mm 0.00 in0.0 mm 0.00 in0.0 mm
03:08 AM 49.7°F9.8°C 53.0°F11.7°C 77% Calm Calm -- 30.11 in1019.6 mb 0.00 in0.0 mm 0.00 in0.0 mm 0.00 in0.0 mm
03:09 AM 49.7°F9.8°C 53.1°F11.7°C 77% Calm Calm -- 30.11 in1019.6 mb 0.00 in0.0 mm 0.00 in0.0 mm 0.00 in0.0 mm
03:14 AM 49.7°F9.8°C 52.6°F11.4°C 76% Calm Calm -- 30.10 in1019.3 mb 0.00 in0.0 mm 0.00 in0.0 mm 0.00 in0.0 mm
03:15 AM 49.7°F9.8°C 52.7°F11.5°C 76% Calm Calm -- 30.11 in1019.6 mb 0.00 in0.0 mm 0.00 in0.0 mm 0.00 in0.0 mm
03:17 AM 49.7°F9.8°C 52.7°F11.5°C 76% Calm Calm -- 30.10 in1019.3 mb 0.00 in0.0 mm 0.00 in0.0 mm 0.00 in0.0 mm
03:18 AM 49.7°F9.8°C 52.6°F11.4°C 76% Calm Calm -- 30.10 in1019.3 mb 0.00 in0.0 mm 0.00 in0.0 mm 0.00 in0.0 mm
03:20 AM 49.9°F9.9°C 52.5°F11.4°C 76% Calm Calm -- 30.10 in1019.3 mb 0.00 in0.0 mm 0.00 in0.0 mm 0.00 in0.0 mm
03:21 AM 49.9°F9.9°C 52.6°F11.4°C 76% Calm Calm -- 30.11 in1019.6 mb 0.00 in0.0 mm 0.00 in0.0 mm 0.00 in0.0 mm
03:23 AM 49.9°F9.9°C 52.7°F11.5°C 76% Calm Calm -- 30.10 in1019.3 mb 0.00 in0.0 mm 0.00 in0.0 mm 0.00 in0.0 mm
03:24 AM 49.9°F9.9°C 52.6°F11.4°C 76% Calm Calm -- 30.10 in1019.3 mb 0.00 in0.0 mm 0.00 in0.0 mm 0.00 in0.0 mm
03:26 AM 49.9°F9.9°C 52.8°F11.6°C 77% Calm Calm -- 30.10 in1019.3 mb 0.00 in0.0 mm 0.00 in0.0 mm 0.00 in0.0 mm
03:27 AM 49.9°F9.9°C 52.8°F11.6°C 76% Calm Calm -- 30.10 in1019.3 mb 0.00 in0.0 mm 0.00 in0.0 mm 0.00 in0.0 mm
03:29 AM 50.5°F10.3°C 53.1°F11.7°C 77% Calm Calm -- 30.10 in1019.3 mb 0.00 in0.0 mm 0.00 in0.0 mm 0.00 in0.0 mm
03:30 AM 50.5°F10.3°C 53.1°F11.7°C 77% Calm Calm -- 30.10 in1019.3 mb 0.00 in0.0 mm 0.00 in0.0 mm 0.00 in0.0 mm
03:32 AM 49.8°F9.9°C 53.1°F11.7°C 78% Calm Calm -- 30.10 in1019.3 mb 0.00 in0.0 mm 0.00 in0.0 mm 0.00 in0.0 mm
03:33 AM 49.9°F9.9°C 52.9°F11.6°C 77% Calm Calm -- 30.10 in1019.3 mb 0.00 in0.0 mm 0.00 in0.0 mm 0.00 in0.0 mm
03:35 AM 49.6°F9.8°C 52.9°F11.6°C 78% Calm Calm -- 30.11 in1019.6 mb 0.00 in0.0 mm 0.00 in0.0 mm 0.00 in0.0 mm
03:36 AM 49.7°F9.8°C 52.8°F11.6°C 77% Calm Calm -- 30.10 in1019.3 mb 0.00 in0.0 mm 0.00 in0.0 mm 0.00 in0.0 mm
03:38 AM 49.7°F9.8°C 53.0°F11.7°C 78% Calm Calm -- 30.11 in1019.6 mb 0.00 in0.0 mm 0.00 in0.0 mm 0.00 in0.0 mm
03:39 AM 49.7°F9.8°C 52.8°F11.6°C 78% Calm Calm -- 30.10 in1019.3 mb 0.00 in0.0 mm 0.00 in0.0 mm 0.00 in0.0 mm
03:41 AM 49.9°F9.9°C 53.0°F11.7°C 78% Calm Calm -- 30.10 in1019.3 mb 0.00 in0.0 mm 0.00 in0.0 mm 0.00 in0.0 mm
03:42 AM 49.9°F9.9°C 52.9°F11.6°C 78% Calm Calm -- 30.10 in1019.3 mb 0.00 in0.0 mm 0.00 in0.0 mm 0.00 in0.0 mm
03:44 AM 49.3°F9.6°C 52.7°F11.5°C 77% Calm Calm -- 30.10 in1019.3 mb 0.00 in0.0 mm 0.00 in0.0 mm 0.00 in0.0 mm
03:45 AM 49.3°F9.6°C 52.7°F11.5°C 78% Calm Calm -- 30.10 in1019.3 mb 0.00 in0.0 mm 0.00 in0.0 mm 0.00 in0.0 mm
03:47 AM 49.3°F9.6°C 52.9°F11.6°C 78% Calm Calm -- 30.10 in1019.3 mb 0.00 in0.0 mm 0.00 in0.0 mm 0.00 in0.0 mm
03:48 AM 49.3°F9.6°C 52.9°F11.6°C 79% Calm Calm -- 30.10 in1019.3 mb 0.00 in0.0 mm 0.00 in0.0 mm 0.00 in0.0 mm
03:50 AM 48.8°F9.3°C 52.5°F11.4°C 78% Calm Calm -- 30.10 in1019.3 mb 0.00 in0.0 mm 0.00 in0.0 mm 0.00 in0.0 mm
03:51 AM 48.8°F9.3°C 52.7°F11.5°C 78% Calm Calm -- 30.10 in1019.3 mb 0.00 in0.0 mm 0.00 in0.0 mm 0.00 in0.0 mm
03:53 AM 48.9°F9.4°C 52.2°F11.2°C 77% Calm Calm -- 30.10 in1019.3 mb 0.00 in0.0 mm 0.00 in0.0 mm 0.00 in0.0 mm
03:54 AM 48.9°F9.4°C 52.3°F11.3°C 78% Calm Calm -- 30.11 in1019.6 mb 0.00 in0.0 mm 0.00 in0.0 mm 0.00 in0.0 mm
03:56 AM 48.8°F9.3°C 52.1°F11.2°C 77% Calm Calm -- 30.10 in1019.3 mb 0.00 in0.0 mm 0.00 in0.0 mm 0.00 in0.0 mm
03:57 AM 48.8°F9.3°C 52.6°F11.4°C 79% Calm Calm -- 30.10 in1019.3 mb 0.00 in0.0 mm 0.00 in0.0 mm 0.00 in0.0 mm
03:59 AM 48.5°F9.2°C 52.2°F11.2°C 78% Calm Calm -- 30.10 in1019.3 mb 0.00 in0.0 mm 0.00 in0.0 mm 0.00 in0.0 mm
04:00 AM 48.5°F9.2°C 52.3°F11.3°C 78% Calm Calm -- 30.10 in1019.3 mb 0.00 in0.0 mm 0.00 in0.0 mm 0.00 in0.0 mm
04:02 AM 49.1°F9.5°C 52.3°F11.3°C 78% Calm Calm -- 30.10 in1019.3 mb 0.00 in0.0 mm 0.00 in0.0 mm 0.00 in0.0 mm
04:03 AM 49.0°F9.4°C 52.4°F11.3°C 78% Calm Calm -- 30.10 in1019.3 mb 0.00 in0.0 mm 0.00 in0.0 mm 0.00 in0.0 mm
04:05 AM 48.7°F9.3°C 51.9°F11.1°C 77% Calm Calm -- 30.10 in1019.3 mb 0.00 in0.0 mm 0.00 in0.0 mm 0.00 in0.0 mm
04:06 AM 48.8°F9.3°C 51.8°F11.0°C 77% Calm Calm -- 30.10 in1019.3 mb 0.00 in0.0 mm 0.00 in0.0 mm 0.00 in0.0 mm
04:08 AM 49.8°F9.9°C 51.8°F11.0°C 77% Calm Calm -- 30.10 in1019.3 mb 0.00 in0.0 mm 0.00 in0.0 mm 0.00 in0.0 mm
04:09 AM 49.8°F9.9°C 51.7°F10.9°C 77% Calm Calm -- 30.10 in1019.3 mb 0.00 in0.0 mm 0.00 in0.0 mm 0.00 in0.0 mm
04:11 AM 49.2°F9.6°C 51.9°F11.1°C 77% Calm Calm -- 30.10 in1019.3 mb 0.00 in0.0 mm 0.00 in0.0 mm 0.00 in0.0 mm
04:12 AM 49.1°F9.5°C 51.7°F10.9°C 76% Calm Calm -- 30.10 in1019.3 mb 0.00 in0.0 mm 0.00 in0.0 mm 0.00 in0.0 mm
04:14 AM 49.0°F9.4°C 51.9°F11.1°C 77% Calm Calm -- 30.10 in1019.3 mb 0.00 in0.0 mm 0.00 in0.0 mm 0.00 in0.0 mm
04:15 AM 49.0°F9.4°C 52.0°F11.1°C 77% Calm Calm -- 30.10 in1019.3 mb 0.00 in0.0 mm 0.00 in0.0 mm 0.00 in0.0 mm
04:17 AM 49.0°F9.4°C 51.8°F11.0°C 77% Calm Calm -- 30.10 in1019.3 mb 0.00 in0.0 mm 0.00 in0.0 mm 0.00 in0.0 mm
04:18 AM 49.0°F9.4°C 51.9°F11.1°C 77% Calm Calm -- 30.10 in1019.3 mb 0.00 in0.0 mm 0.00 in0.0 mm 0.00 in0.0 mm
04:20 AM 49.0°F9.4°C 52.1°F11.2°C 77% Calm Calm -- 30.09 in1019.0 mb 0.00 in0.0 mm 0.00 in0.0 mm 0.00 in0.0 mm
04:21 AM 49.0°F9.4°C 52.0°F11.1°C 77% Calm Calm -- 30.09 in1019.0 mb 0.00 in0.0 mm 0.00 in0.0 mm 0.00 in0.0 mm
04:23 AM 48.7°F9.3°C 52.0°F11.1°C 78% Calm Calm -- 30.09 in1019.0 mb 0.00 in0.0 mm 0.00 in0.0 mm 0.00 in0.0 mm
04:24 AM 48.7°F9.3°C 51.9°F11.1°C 77% Calm Calm -- 30.10 in1019.3 mb 0.00 in0.0 mm 0.00 in0.0 mm 0.00 in0.0 mm
04:26 AM 48.8°F9.3°C 51.8°F11.0°C 77% Calm Calm -- 30.09 in1019.0 mb 0.00 in0.0 mm 0.00 in0.0 mm 0.00 in0.0 mm
04:27 AM 48.8°F9.3°C 51.8°F11.0°C 77% Calm Calm -- 30.10 in1019.3 mb 0.00 in0.0 mm 0.00 in0.0 mm 0.00 in0.0 mm
04:29 AM 48.8°F9.3°C 52.1°F11.2°C 78% Calm Calm -- 30.10 in1019.3 mb 0.00 in0.0 mm 0.00 in0.0 mm 0.00 in0.0 mm
04:30 AM 48.8°F9.3°C 52.0°F11.1°C 78% Calm Calm -- 30.10 in1019.3 mb 0.00 in0.0 mm 0.00 in0.0 mm 0.00 in0.0 mm
04:32 AM 48.8°F9.3°C 52.1°F11.2°C 78% Calm Calm -- 30.10 in1019.3 mb 0.00 in0.0 mm 0.00 in0.0 mm 0.00 in0.0 mm
04:33 AM 48.8°F9.3°C 51.9°F11.1°C 78% Calm Calm -- 30.10 in1019.3 mb 0.00 in0.0 mm 0.00 in0.0 mm 0.00 in0.0 mm
04:35 AM 49.2°F9.6°C 52.2°F11.2°C 79% Calm Calm -- 30.10 in1019.3 mb 0.00 in0.0 mm 0.00 in0.0 mm 0.00 in0.0 mm
04:36 AM 49.1°F9.5°C 51.9°F11.1°C 78% Calm Calm -- 30.10 in1019.3 mb 0.00 in0.0 mm 0.00 in0.0 mm 0.00 in0.0 mm
04:38 AM 49.3°F9.6°C 52.4°F11.3°C 79% Calm Calm -- 30.10 in1019.3 mb 0.00 in0.0 mm 0.00 in0.0 mm 0.00 in0.0 mm
04:39 AM 49.3°F9.6°C 52.2°F11.2°C 79% Calm Calm -- 30.10 in1019.3 mb 0.00 in0.0 mm 0.00 in0.0 mm 0.00 in0.0 mm
04:41 AM 49.2°F9.6°C 51.9°F11.1°C 78% Calm Calm -- 30.10 in1019.3 mb 0.00 in0.0 mm 0.00 in0.0 mm 0.00 in0.0 mm
04:42 AM 49.2°F9.6°C 51.9°F11.1°C 78% Calm Calm -- 30.10 in1019.3 mb 0.00 in0.0 mm 0.00 in0.0 mm 0.00 in0.0 mm
04:44 AM 49.3°F9.6°C 52.0°F11.1°C 79% Calm Calm -- 30.09 in1019.0 mb 0.00 in0.0 mm 0.00 in0.0 mm 0.00 in0.0 mm
04:45 AM 49.3°F9.6°C 52.1°F11.2°C 79% Calm Calm -- 30.10 in1019.3 mb 0.00 in0.0 mm 0.00 in0.0 mm 0.00 in0.0 mm
04:47 AM 49.4°F9.7°C 52.4°F11.3°C 79% Calm Calm -- 30.10 in1019.3 mb 0.00 in0.0 mm 0.00 in0.0 mm 0.00 in0.0 mm
04:48 AM 49.4°F9.7°C 52.3°F11.3°C 79% Calm Calm -- 30.10 in1019.3 mb 0.00 in0.0 mm 0.00 in0.0 mm 0.00 in0.0 mm
04:50 AM 49.6°F9.8°C 52.4°F11.3°C 79% Calm Calm -- 30.10 in1019.3 mb 0.00 in0.0 mm 0.00 in0.0 mm 0.00 in0.0 mm
04:51 AM 49.6°F9.8°C 52.4°F11.3°C 79% Calm Calm -- 30.10 in1019.3 mb 0.00 in0.0 mm 0.00 in0.0 mm 0.00 in0.0 mm
04:53 AM 49.6°F9.8°C 53.2°F11.8°C 81% Calm Calm -- 30.10 in1019.3 mb 0.00 in0.0 mm 0.00 in0.0 mm 0.00 in0.0 mm
04:54 AM 49.6°F9.8°C 52.9°F11.6°C 80% Calm Calm -- 30.10 in1019.3 mb 0.00 in0.0 mm 0.00 in0.0 mm 0.00 in0.0 mm
04:56 AM 49.9°F9.9°C 53.5°F11.9°C 81% Calm Calm -- 30.10 in1019.3 mb 0.00 in0.0 mm 0.00 in0.0 mm 0.00 in0.0 mm
04:57 AM 49.9°F9.9°C 53.7°F12.1°C 81% Calm Calm -- 30.10 in1019.3 mb 0.00 in0.0 mm 0.00 in0.0 mm 0.00 in0.0 mm
04:59 AM 50.0°F10.0°C 53.5°F11.9°C 79% Calm Calm -- 30.10 in1019.3 mb 0.00 in0.0 mm 0.00 in0.0 mm 0.00 in0.0 mm
05:00 AM 50.0°F10.0°C 53.3°F11.8°C 79% Calm Calm -- 30.10 in1019.3 mb 0.00 in0.0 mm 0.00 in0.0 mm 0.00 in0.0 mm
05:02 AM 50.7°F10.4°C 53.4°F11.9°C 79% Calm Calm -- 30.10 in1019.3 mb 0.00 in0.0 mm 0.00 in0.0 mm 0.00 in0.0 mm
05:03 AM 50.7°F10.4°C 53.6°F12.0°C 79% Calm Calm -- 30.10 in1019.3 mb 0.00 in0.0 mm 0.00 in0.0 mm 0.00 in0.0 mm
05:05 AM 50.9°F10.5°C 53.6°F12.0°C 78% Calm Calm -- 30.10 in1019.3 mb 0.00 in0.0 mm 0.00 in0.0 mm 0.00 in0.0 mm
05:06 AM 50.9°F10.5°C 53.5°F11.9°C 78% Calm Calm -- 30.10 in1019.3 mb 0.00 in0.0 mm 0.00 in0.0 mm 0.00 in0.0 mm
05:08 AM 51.2°F10.7°C 53.3°F11.8°C 78% Calm Calm -- 30.10 in1019.3 mb 0.00 in0.0 mm 0.00 in0.0 mm 0.00 in0.0 mm
05:09 AM 51.2°F10.7°C 53.6°F12.0°C 78% Calm Calm -- 30.10 in1019.3 mb 0.00 in0.0 mm 0.00 in0.0 mm 0.00 in0.0 mm
05:11 AM 51.7°F10.9°C 53.6°F12.0°C 78% Calm Calm -- 30.10 in1019.3 mb 0.00 in0.0 mm 0.00 in0.0 mm 0.00 in0.0 mm
05:12 AM 51.7°F10.9°C 53.6°F12.0°C 77% Calm Calm -- 30.10 in1019.3 mb 0.00 in0.0 mm 0.00 in0.0 mm 0.00 in0.0 mm
05:14 AM 51.9°F11.1°C 53.7°F12.1°C 78% Calm Calm -- 30.10 in1019.3 mb 0.00 in0.0 mm 0.00 in0.0 mm 0.00 in0.0 mm
05:15 AM 51.9°F11.1°C 53.7°F12.1°C 78% Calm Calm -- 30.10 in1019.3 mb 0.00 in0.0 mm 0.00 in0.0 mm 0.00 in0.0 mm
05:17 AM 51.9°F11.1°C 53.7°F12.1°C 77% Calm Calm -- 30.10 in1019.3 mb 0.00 in0.0 mm 0.00 in0.0 mm 0.00 in0.0 mm
05:20 AM 52.4°F11.3°C 54.0°F12.2°C 78% Calm Calm -- 30.10 in1019.3 mb 0.00 in0.0 mm 0.00 in0.0 mm 0.00 in0.0 mm
05:21 AM 52.4°F11.3°C 53.7°F12.1°C 77% Calm Calm -- 30.10 in1019.3 mb 0.00 in0.0 mm 0.00 in0.0 mm 0.00 in0.0 mm
05:23 AM 52.4°F11.3°C 54.3°F12.4°C 78% Calm Calm -- 30.10 in1019.3 mb 0.00 in0.0 mm 0.00 in0.0 mm 0.00 in0.0 mm
05:24 AM 52.4°F11.3°C 54.1°F12.3°C 78% Calm Calm -- 30.11 in1019.6 mb 0.00 in0.0 mm 0.00 in0.0 mm 0.00 in0.0 mm
05:26 AM 53.0°F11.7°C 54.7°F12.6°C 79% Calm Calm -- 30.10 in1019.3 mb 0.00 in0.0 mm 0.00 in0.0 mm 0.00 in0.0 mm
05:27 AM 53.0°F11.7°C 54.7°F12.6°C 79% Calm Calm -- 30.10 in1019.3 mb 0.00 in0.0 mm 0.00 in0.0 mm 0.00 in0.0 mm
05:29 AM 53.8°F12.1°C 55.3°F12.9°C 79% Calm Calm -- 30.11 in1019.6 mb 0.00 in0.0 mm 0.00 in0.0 mm 0.00 in0.0 mm
05:32 AM 54.4°F12.4°C 55.7°F13.2°C 79% Calm Calm -- 30.10 in1019.3 mb 0.00 in0.0 mm 0.00 in0.0 mm 0.00 in0.0 mm
05:33 AM 54.5°F12.5°C 55.5°F13.1°C 78% Calm Calm -- 30.10 in1019.3 mb 0.00 in0.0 mm 0.00 in0.0 mm 0.00 in0.0 mm
05:35 AM 55.6°F13.1°C 56.0°F13.3°C 78% Calm Calm -- 30.10 in1019.3 mb 0.00 in0.0 mm 0.00 in0.0 mm 0.00 in0.0 mm
05:36 AM 55.9°F13.3°C 55.6°F13.1°C 78% Calm Calm -- 30.10 in1019.3 mb 0.00 in0.0 mm 0.00 in0.0 mm 0.00 in0.0 mm
05:38 AM 56.4°F13.6°C 56.6°F13.7°C 78% Calm Calm -- 30.10 in1019.3 mb 0.00 in0.0 mm 0.00 in0.0 mm 0.00 in0.0 mm
05:39 AM 56.4°F13.6°C 56.7°F13.7°C 78% Calm Calm -- 30.10 in1019.3 mb 0.00 in0.0 mm 0.00 in0.0 mm 0.00 in0.0 mm
05:41 AM 57.5°F14.2°C 57.0°F13.9°C 77% Calm Calm -- 30.10 in1019.3 mb 0.00 in0.0 mm 0.00 in0.0 mm 0.00 in0.0 mm
05:42 AM 57.5°F14.2°C 56.9°F13.8°C 77% Calm Calm -- 30.11 in1019.6 mb 0.00 in0.0 mm 0.00 in0.0 mm 0.00 in0.0 mm
05:44 AM 58.0°F14.4°C 57.3°F14.1°C 77% Calm Calm -- 30.10 in1019.3 mb 0.00 in0.0 mm 0.00 in0.0 mm 0.00 in0.0 mm
05:45 AM 58.0°F14.4°C 57.2°F14.0°C 76% Calm Calm -- 30.10 in1019.3 mb 0.00 in0.0 mm 0.00 in0.0 mm 0.00 in0.0 mm
05:47 AM 59.7°F15.4°C 57.6°F14.2°C 76% Calm Calm -- 30.10 in1019.3 mb 0.00 in0.0 mm 0.00 in0.0 mm 0.00 in0.0 mm
05:48 AM 59.6°F15.3°C 57.6°F14.2°C 76% Calm Calm -- 30.10 in1019.3 mb 0.00 in0.0 mm 0.00 in0.0 mm 0.00 in0.0 mm
05:50 AM 60.1°F15.6°C 58.2°F14.6°C 75% Calm Calm -- 30.10 in1019.3 mb 0.00 in0.0 mm 0.00 in0.0 mm 0.00 in0.0 mm
05:51 AM 60.0°F15.6°C 58.1°F14.5°C 75% Calm Calm -- 30.10 in1019.3 mb 0.00 in0.0 mm 0.00 in0.0 mm 0.00 in0.0 mm
05:53 AM 61.3°F16.3°C 58.2°F14.6°C 73% Calm Calm -- 30.10 in1019.3 mb 0.00 in0.0 mm 0.00 in0.0 mm 0.00 in0.0 mm
05:54 AM 61.3°F16.3°C 58.1°F14.5°C 73% Calm Calm -- 30.09 in1019.0 mb 0.00 in0.0 mm 0.00 in0.0 mm 0.00 in0.0 mm
05:56 AM 60.8°F16.0°C 58.6°F14.8°C 72% Calm Calm -- 30.10 in1019.3 mb 0.00 in0.0 mm 0.00 in0.0 mm 0.00 in0.0 mm
05:57 AM 60.9°F16.1°C 58.5°F14.7°C 72% Calm Calm -- 30.10 in1019.3 mb 0.00 in0.0 mm 0.00 in0.0 mm 0.00 in0.0 mm
05:59 AM 60.7°F15.9°C 59.2°F15.1°C 70% Calm Calm -- 30.10 in1019.3 mb 0.00 in0.0 mm 0.00 in0.0 mm 0.00 in0.0 mm
06:00 AM 60.7°F15.9°C 59.4°F15.2°C 71% Calm Calm -- 30.10 in1019.3 mb 0.00 in0.0 mm 0.00 in0.0 mm 0.00 in0.0 mm
06:02 AM 61.3°F16.3°C 59.4°F15.2°C 69% Calm Calm -- 30.10 in1019.3 mb 0.00 in0.0 mm 0.00 in0.0 mm 0.00 in0.0 mm
06:03 AM 61.1°F16.2°C 59.7°F15.4°C 69% Calm Calm -- 30.10 in1019.3 mb 0.00 in0.0 mm 0.00 in0.0 mm 0.00 in0.0 mm
06:05 AM 62.6°F17.0°C 60.0°F15.6°C 68% Calm Calm -- 30.10 in1019.3 mb 0.00 in0.0 mm 0.00 in0.0 mm 0.00 in0.0 mm
06:06 AM 62.6°F17.0°C 59.9°F15.5°C 68% Calm Calm -- 30.10 in1019.3 mb 0.00 in0.0 mm 0.00 in0.0 mm 0.00 in0.0 mm
06:08 AM 63.3°F17.4°C 60.1°F15.6°C 68% Calm Calm -- 30.10 in1019.3 mb 0.00 in0.0 mm 0.00 in0.0 mm 0.00 in0.0 mm
06:09 AM 63.4°F17.4°C 60.4°F15.8°C 68% Calm Calm -- 30.10 in1019.3 mb 0.00 in0.0 mm 0.00 in0.0 mm 0.00 in0.0 mm
06:11 AM 63.6°F17.6°C 60.4°F15.8°C 67% Calm Calm -- 30.10 in1019.3 mb 0.00 in0.0 mm 0.00 in0.0 mm 0.00 in0.0 mm
06:12 AM 64.0°F17.8°C 60.5°F15.8°C 68% Calm Calm -- 30.10 in1019.3 mb 0.00 in0.0 mm 0.00 in0.0 mm 0.00 in0.0 mm
06:14 AM 63.5°F17.5°C 60.9°F16.1°C 67% Calm Calm -- 30.09 in1019.0 mb 0.00 in0.0 mm 0.00 in0.0 mm 0.00 in0.0 mm
06:15 AM 63.6°F17.6°C 60.9°F16.1°C 68% Calm Calm -- 30.10 in1019.3 mb 0.00 in0.0 mm 0.00 in0.0 mm 0.00 in0.0 mm
06:17 AM 65.0°F18.3°C 60.7°F15.9°C 66% Calm Calm -- 30.10 in1019.3 mb 0.00 in0.0 mm 0.00 in0.0 mm 0.00 in0.0 mm
06:18 AM 65.1°F18.4°C 60.5°F15.8°C 66% Calm Calm -- 30.09 in1019.0 mb 0.00 in0.0 mm 0.00 in0.0 mm 0.00 in0.0 mm
06:20 AM 64.7°F18.2°C 61.3°F16.3°C 66% Calm Calm -- 30.10 in1019.3 mb 0.00 in0.0 mm 0.00 in0.0 mm 0.00 in0.0 mm
06:21 AM 65.0°F18.3°C 61.1°F16.2°C 66% Calm Calm -- 30.10 in1019.3 mb 0.00 in0.0 mm 0.00 in0.0 mm 0.00 in0.0 mm
06:23 AM 64.6°F18.1°C 61.1°F16.2°C 65% Calm Calm -- 30.10 in1019.3 mb 0.00 in0.0 mm 0.00 in0.0 mm 0.00 in0.0 mm
06:24 AM 64.6°F18.1°C 61.3°F16.3°C 64% Calm Calm -- 30.10 in1019.3 mb 0.00 in0.0 mm 0.00 in0.0 mm 0.00 in0.0 mm
06:26 AM 64.3°F17.9°C 61.3°F16.3°C 64% Calm Calm -- 30.10 in1019.3 mb 0.00 in0.0 mm 0.00 in0.0 mm 0.00 in0.0 mm
06:27 AM 64.5°F18.1°C 61.5°F16.4°C 64% Calm Calm -- 30.10 in1019.3 mb 0.00 in0.0 mm 0.00 in0.0 mm 0.00 in0.0 mm
06:29 AM 65.2°F18.4°C 62.3°F16.8°C 65% Calm Calm -- 30.10 in1019.3 mb 0.00 in0.0 mm 0.00 in0.0 mm 0.00 in0.0 mm
06:30 AM 65.3°F18.5°C 62.0°F16.7°C 65% Calm Calm -- 30.10 in1019.3 mb 0.00 in0.0 mm 0.00 in0.0 mm 0.00 in0.0 mm
06:32 AM 66.1°F18.9°C 61.9°F16.6°C 65% Calm Calm -- 30.10 in1019.3 mb 0.00 in0.0 mm 0.00 in0.0 mm 0.00 in0.0 mm
06:33 AM 66.1°F18.9°C 61.9°F16.6°C 65% Calm Calm -- 30.11 in1019.6 mb 0.00 in0.0 mm 0.00 in0.0 mm 0.00 in0.0 mm
06:35 AM 66.1°F18.9°C 62.1°F16.7°C 65% Calm Calm -- 30.10 in1019.3 mb 0.00 in0.0 mm 0.00 in0.0 mm 0.00 in0.0 mm
06:36 AM 66.1°F18.9°C 62.2°F16.8°C 65% Calm Calm -- 30.10 in1019.3 mb 0.00 in0.0 mm 0.00 in0.0 mm 0.00 in0.0 mm
06:38 AM 66.9°F19.4°C 63.1°F17.3°C 66% Calm Calm -- 30.10 in1019.3 mb 0.00 in0.0 mm 0.00 in0.0 mm 0.00 in0.0 mm
06:39 AM 67.0°F19.4°C 63.2°F17.3°C 66% Calm Calm -- 30.10 in1019.3 mb 0.00 in0.0 mm 0.00 in0.0 mm 0.00 in0.0 mm
06:41 AM 67.3°F19.6°C 62.0°F16.7°C 63% Calm Calm -- 30.10 in1019.3 mb 0.00 in0.0 mm 0.00 in0.0 mm 0.00 in0.0 mm
06:42 AM 67.4°F19.7°C 62.1°F16.7°C 64% Calm Calm -- 30.10 in1019.3 mb 0.00 in0.0 mm 0.00 in0.0 mm 0.00 in0.0 mm
06:44 AM 67.2°F19.6°C 62.5°F16.9°C 64% Calm Calm -- 30.10 in1019.3 mb 0.00 in0.0 mm 0.00 in0.0 mm 0.00 in0.0 mm
06:45 AM 67.3°F19.6°C 62.6°F17.0°C 64% Calm Calm -- 30.10 in1019.3 mb 0.00 in0.0 mm 0.00 in0.0 mm 0.00 in0.0 mm
06:47 AM 67.7°F19.8°C 62.7°F17.1°C 63% Calm Calm -- 30.10 in1019.3 mb 0.00 in0.0 mm 0.00 in0.0 mm 0.00 in0.0 mm
06:48 AM 67.6°F19.8°C 62.4°F16.9°C 63% Calm Calm -- 30.10 in1019.3 mb 0.00 in0.0 mm 0.00 in0.0 mm 0.00 in0.0 mm
06:50 AM 67.3°F19.6°C 62.7°F17.1°C 64% Calm Calm -- 30.10 in1019.3 mb 0.00 in0.0 mm 0.00 in0.0 mm 0.00 in0.0 mm
06:51 AM 67.3°F19.6°C 62.5°F16.9°C 63% Calm Calm -- 30.10 in1019.3 mb 0.00 in0.0 mm 0.00 in0.0 mm 0.00 in0.0 mm
06:53 AM 68.0°F20.0°C 62.3°F16.8°C 62% Calm Calm -- 30.10 in1019.3 mb 0.00 in0.0 mm 0.00 in0.0 mm 0.00 in0.0 mm
06:54 AM 67.9°F19.9°C 61.8°F16.6°C 62% Calm Calm -- 30.10 in1019.3 mb 0.00 in0.0 mm 0.00 in0.0 mm 0.00 in0.0 mm
06:56 AM 68.6°F20.3°C 62.5°F16.9°C 62% Calm Calm -- 30.10 in1019.3 mb 0.00 in0.0 mm 0.00 in0.0 mm 0.00 in0.0 mm
06:57 AM 68.7°F20.4°C 62.3°F16.8°C 62% Calm Calm -- 30.11 in1019.6 mb 0.00 in0.0 mm 0.00 in0.0 mm 0.00 in0.0 mm
06:59 AM 68.6°F20.3°C 62.3°F16.8°C 61% Calm Calm -- 30.11 in1019.6 mb 0.00 in0.0 mm 0.00 in0.0 mm 0.00 in0.0 mm
07:00 AM 68.6°F20.3°C 62.5°F16.9°C 61% Calm Calm -- 30.11 in1019.6 mb 0.00 in0.0 mm 0.00 in0.0 mm 0.00 in0.0 mm
07:02 AM 68.1°F20.1°C 62.7°F17.1°C 61% Calm Calm -- 30.11 in1019.6 mb 0.00 in0.0 mm 0.00 in0.0 mm 0.00 in0.0 mm
07:03 AM 68.1°F20.1°C 62.7°F17.1°C 61% Calm Calm -- 30.11 in1019.6 mb 0.00 in0.0 mm 0.00 in0.0 mm 0.00 in0.0 mm
07:05 AM 68.3°F20.2°C 63.1°F17.3°C 62% Calm Calm -- 30.11 in1019.6 mb 0.00 in0.0 mm 0.00 in0.0 mm 0.00 in0.0 mm
07:06 AM 68.3°F20.2°C 63.1°F17.3°C 62% Calm Calm -- 30.10 in1019.3 mb 0.00 in0.0 mm 0.00 in0.0 mm 0.00 in0.0 mm
07:08 AM 68.6°F20.3°C 63.9°F17.7°C 63% Calm Calm -- 30.11 in1019.6 mb 0.00 in0.0 mm 0.00 in0.0 mm 0.00 in0.0 mm
07:09 AM 68.6°F20.3°C 63.7°F17.6°C 63% Calm Calm -- 30.10 in1019.3 mb 0.00 in0.0 mm 0.00 in0.0 mm 0.00 in0.0 mm
07:11 AM 68.8°F20.4°C 63.0°F17.2°C 62% 0.4 mph NNW0.6 kmh NNW 0.4 mph0.6 kmh 30.11 in1019.6 mb 0.00 in0.0 mm 0.00 in0.0 mm 0.00 in0.0 mm
07:12 AM 68.8°F20.4°C 63.4°F17.4°C 62% 0.9 mph NNW1.4 kmh NNW 1.0 mph1.6 kmh 30.11 in1019.6 mb 0.00 in0.0 mm 0.00 in0.0 mm 0.00 in0.0 mm
07:14 AM 68.9°F20.5°C 64.0°F17.8°C 63% Calm Calm -- 30.10 in1019.3 mb 0.00 in0.0 mm 0.00 in0.0 mm 0.00 in0.0 mm
07:15 AM 68.9°F20.5°C 63.9°F17.7°C 63% Calm Calm -- 30.11 in1019.6 mb 0.00 in0.0 mm 0.00 in0.0 mm 0.00 in0.0 mm
07:17 AM 69.1°F20.6°C 63.0°F17.2°C 61% Calm Calm -- 30.11 in1019.6 mb 0.00 in0.0 mm 0.00 in0.0 mm 0.00 in0.0 mm
07:18 AM 69.1°F20.6°C 62.8°F17.1°C 61% Calm Calm -- 30.10 in1019.3 mb 0.00 in0.0 mm 0.00 in0.0 mm 0.00 in0.0 mm
07:20 AM 69.2°F20.7°C 63.8°F17.7°C 63% Calm Calm -- 30.11 in1019.6 mb 0.00 in0.0 mm 0.00 in0.0 mm 0.00 in0.0 mm
07:21 AM 69.2°F20.7°C 63.3°F17.4°C 63% Calm Calm -- 30.11 in1019.6 mb 0.00 in0.0 mm 0.00 in0.0 mm 0.00 in0.0 mm
07:23 AM 69.5°F20.8°C 64.0°F17.8°C 64% Calm Calm -- 30.10 in1019.3 mb 0.00 in0.0 mm 0.00 in0.0 mm 0.00 in0.0 mm
07:24 AM 69.6°F20.9°C 63.8°F17.7°C 64% Calm Calm -- 30.10 in1019.3 mb 0.00 in0.0 mm 0.00 in0.0 mm 0.00 in0.0 mm
07:26 AM 69.0°F20.6°C 63.7°F17.6°C 63% Calm Calm -- 30.10 in1019.3 mb 0.00 in0.0 mm 0.00 in0.0 mm 0.00 in0.0 mm
07:27 AM 69.0°F20.6°C 63.7°F17.6°C 63% Calm Calm -- 30.11 in1019.6 mb 0.00 in0.0 mm 0.00 in0.0 mm 0.00 in0.0 mm
07:29 AM 69.1°F20.6°C 64.0°F17.8°C 64% Calm Calm -- 30.11 in1019.6 mb 0.00 in0.0 mm 0.00 in0.0 mm 0.00 in0.0 mm
07:30 AM 69.1°F20.6°C 63.9°F17.7°C 64% Calm Calm -- 30.11 in1019.6 mb 0.00 in0.0 mm 0.00 in0.0 mm 0.00 in0.0 mm
07:32 AM 69.5°F20.8°C 63.5°F17.5°C 64% Calm Calm -- 30.10 in1019.3 mb 0.00 in0.0 mm 0.00 in0.0 mm 0.00 in0.0 mm
07:33 AM 69.5°F20.8°C 63.5°F17.5°C 64% Calm Calm -- 30.11 in1019.6 mb 0.00 in0.0 mm 0.00 in0.0 mm 0.00 in0.0 mm
07:35 AM 69.1°F20.6°C 63.7°F17.6°C 64% Calm Calm -- 30.11 in1019.6 mb 0.00 in0.0 mm 0.00 in0.0 mm 0.00 in0.0 mm
07:36 AM 69.1°F20.6°C 63.6°F17.6°C 64% Calm Calm -- 30.11 in1019.6 mb 0.00 in0.0 mm 0.00 in0.0 mm 0.00 in0.0 mm
07:38 AM 69.5°F20.8°C 63.7°F17.6°C 64% Calm Calm -- 30.11 in1019.6 mb 0.00 in0.0 mm 0.00 in0.0 mm 0.00 in0.0 mm
07:39 AM 69.5°F20.8°C 63.5°F17.5°C 64% Calm Calm -- 30.10 in1019.3 mb 0.00 in0.0 mm 0.00 in0.0 mm 0.00 in0.0 mm
07:44 AM 68.9°F20.5°C 63.8°F17.7°C 64% Calm Calm -- 30.10 in1019.3 mb 0.00 in0.0 mm 0.00 in0.0 mm 0.00 in0.0 mm
07:45 AM 68.9°F20.5°C 63.6°F17.6°C 64% Calm Calm -- 30.11 in1019.6 mb 0.00 in0.0 mm 0.00 in0.0 mm 0.00 in0.0 mm
07:47 AM 69.4°F20.8°C 64.0°F17.8°C 65% Calm Calm -- 30.11 in1019.6 mb 0.00 in0.0 mm 0.00 in0.0 mm 0.00 in0.0 mm
07:48 AM 69.5°F20.8°C 63.9°F17.7°C 65% Calm Calm -- 30.11 in1019.6 mb 0.00 in0.0 mm 0.00 in0.0 mm 0.00 in0.0 mm
07:50 AM 69.1°F20.6°C 63.6°F17.6°C 65% Calm Calm -- 30.11 in1019.6 mb 0.00 in0.0 mm 0.00 in0.0 mm 0.00 in0.0 mm
07:51 AM 69.1°F20.6°C 63.9°F17.7°C 65% Calm Calm -- 30.11 in1019.6 mb 0.00 in0.0 mm 0.00 in0.0 mm 0.00 in0.0 mm
07:53 AM 69.1°F20.6°C 63.8°F17.7°C 65% Calm Calm -- 30.10 in1019.3 mb 0.00 in0.0 mm 0.00 in0.0 mm 0.00 in0.0 mm
07:54 AM 69.1°F20.6°C 64.0°F17.8°C 65% Calm Calm -- 30.11 in1019.6 mb 0.00 in0.0 mm 0.00 in0.0 mm 0.00 in0.0 mm
07:56 AM 68.9°F20.5°C 63.3°F17.4°C 64% Calm Calm -- 30.11 in1019.6 mb 0.00 in0.0 mm 0.00 in0.0 mm 0.00 in0.0 mm
07:57 AM 68.9°F20.5°C 63.6°F17.6°C 64% Calm Calm -- 30.10 in1019.3 mb 0.00 in0.0 mm 0.00 in0.0 mm 0.00 in0.0 mm
07:59 AM 69.2°F20.7°C 63.6°F17.6°C 65% Calm Calm -- 30.11 in1019.6 mb 0.00 in0.0 mm 0.00 in0.0 mm 0.00 in0.0 mm
08:00 AM 69.2°F20.7°C 63.4°F17.4°C 65% Calm Calm -- 30.10 in1019.3 mb 0.00 in0.0 mm 0.00 in0.0 mm 0.00 in0.0 mm
08:02 AM 68.9°F20.5°C 63.4°F17.4°C 65% 0.4 mph SE0.6 kmh SE 0.4 mph0.6 kmh 30.11 in1019.6 mb 0.00 in0.0 mm 0.00 in0.0 mm 0.00 in0.0 mm
08:03 AM 68.9°F20.5°C 63.9°F17.7°C 65% Calm Calm -- 30.11 in1019.6 mb 0.00 in0.0 mm 0.00 in0.0 mm 0.00 in0.0 mm
08:05 AM 69.4°F20.8°C 64.1°F17.8°C 66% 0.4 mph SE0.6 kmh SE 0.4 mph0.6 kmh 30.10 in1019.3 mb 0.00 in0.0 mm 0.00 in0.0 mm 0.00 in0.0 mm
08:06 AM 69.4°F20.8°C 64.1°F17.8°C 66% 0.9 mph SE1.4 kmh SE 0.9 mph1.4 kmh 30.11 in1019.6 mb 0.00 in0.0 mm 0.00 in0.0 mm 0.00 in0.0 mm
08:08 AM 69.2°F20.7°C 63.7°F17.6°C 65% 1.2 mph ESE1.9 kmh ESE 1.2 mph1.9 kmh 30.10 in1019.3 mb 0.00 in0.0 mm 0.00 in0.0 mm 0.00 in0.0 mm
08:09 AM 69.4°F20.8°C 63.7°F17.6°C 65% 2.0 mph ESE3.2 kmh ESE 2.0 mph3.2 kmh 30.10 in1019.3 mb 0.00 in0.0 mm 0.00 in0.0 mm 0.00 in0.0 mm
08:11 AM 69.4°F20.8°C 63.5°F17.5°C 65% Calm Calm -- 30.10 in1019.3 mb 0.00 in0.0 mm 0.00 in0.0 mm 0.00 in0.0 mm
08:12 AM 69.2°F20.7°C 63.9°F17.7°C 65% Calm Calm -- 30.11 in1019.6 mb 0.00 in0.0 mm 0.00 in0.0 mm 0.00 in0.0 mm
08:14 AM 69.2°F20.7°C 63.9°F17.7°C 66% 0.8 mph SE1.3 kmh SE 0.8 mph1.3 kmh 30.11 in1019.6 mb 0.00 in0.0 mm 0.00 in0.0 mm 0.00 in0.0 mm
08:15 AM 69.2°F20.7°C 63.7°F17.6°C 65% 0.9 mph SE1.4 kmh SE 1.1 mph1.8 kmh 30.10 in1019.3 mb 0.00 in0.0 mm 0.00 in0.0 mm 0.00 in0.0 mm
08:17 AM 69.2°F20.7°C 63.0°F17.2°C 65% Calm Calm -- 30.10 in1019.3 mb 0.00 in0.0 mm 0.00 in0.0 mm 0.00 in0.0 mm
08:18 AM 69.4°F20.8°C 63.0°F17.2°C 64% Calm Calm -- 30.10 in1019.3 mb 0.00 in0.0 mm 0.00 in0.0 mm 0.00 in0.0 mm
08:20 AM 69.4°F20.8°C 63.4°F17.4°C 65% 1.1 mph SE1.8 kmh SE 1.2 mph1.9 kmh 30.10 in1019.3 mb 0.00 in0.0 mm 0.00 in0.0 mm 0.00 in0.0 mm
08:21 AM 69.5°F20.8°C 62.8°F17.1°C 65% 1.3 mph SE2.1 kmh SE 1.3 mph2.1 kmh 30.11 in1019.6 mb 0.00 in0.0 mm 0.00 in0.0 mm 0.00 in0.0 mm
08:23 AM 69.6°F20.9°C 63.4°F17.4°C 66% 1.6 mph ESE2.6 kmh ESE 1.6 mph2.6 kmh 30.10 in1019.3 mb 0.00 in0.0 mm 0.00 in0.0 mm 0.00 in0.0 mm
08:24 AM 69.6°F20.9°C 63.3°F17.4°C 65% 2.2 mph ESE3.5 kmh ESE 2.2 mph3.5 kmh 30.10 in1019.3 mb 0.00 in0.0 mm 0.00 in0.0 mm 0.00 in0.0 mm
08:26 AM 69.4°F20.8°C 63.1°F17.3°C 65% Calm Calm -- 30.10 in1019.3 mb 0.00 in0.0 mm 0.00 in0.0 mm 0.00 in0.0 mm
08:27 AM 69.4°F20.8°C 63.3°F17.4°C 65% Calm Calm -- 30.10 in1019.3 mb 0.00 in0.0 mm 0.00 in0.0 mm 0.00 in0.0 mm
08:29 AM 69.0°F20.6°C 62.8°F17.1°C 65% Calm Calm -- 30.10 in1019.3 mb 0.00 in0.0 mm 0.00 in0.0 mm 0.00 in0.0 mm
08:30 AM 68.9°F20.5°C 62.9°F17.2°C 65% Calm Calm -- 30.10 in1019.3 mb 0.00 in0.0 mm 0.00 in0.0 mm 0.00 in0.0 mm
08:32 AM 68.5°F20.3°C 62.5°F16.9°C 64% 0.8 mph NNW1.3 kmh NNW 0.8 mph1.3 kmh 30.10 in1019.3 mb 0.00 in0.0 mm 0.00 in0.0 mm 0.00 in0.0 mm
08:33 AM 68.6°F20.3°C 62.4°F16.9°C 64% 0.7 mph SW1.1 kmh SW 0.7 mph1.1 kmh 30.10 in1019.3 mb 0.00 in0.0 mm 0.00 in0.0 mm 0.00 in0.0 mm
08:35 AM 68.6°F20.3°C 62.5°F16.9°C 64% 1.2 mph SW1.9 kmh SW 1.2 mph1.9 kmh 30.10 in1019.3 mb 0.00 in0.0 mm 0.00 in0.0 mm 0.00 in0.0 mm
08:36 AM 68.6°F20.3°C 62.5°F16.9°C 64% 1.1 mph SW1.8 kmh SW 1.1 mph1.8 kmh 30.10 in1019.3 mb 0.00 in0.0 mm 0.00 in0.0 mm 0.00 in0.0 mm
08:38 AM 68.6°F20.3°C 62.6°F17.0°C 65% Calm Calm -- 30.10 in1019.3 mb 0.00 in0.0 mm 0.00 in0.0 mm 0.00 in0.0 mm
08:39 AM 68.7°F20.4°C 62.5°F16.9°C 64% Calm Calm -- 30.10 in1019.3 mb 0.00 in0.0 mm 0.00 in0.0 mm 0.00 in0.0 mm
08:41 AM 68.8°F20.4°C 62.8°F17.1°C 65% 2.8 mph W4.5 kmh W 2.9 mph4.7 kmh 30.10 in1019.3 mb 0.00 in0.0 mm 0.00 in0.0 mm 0.00 in0.0 mm
08:42 AM 68.8°F20.4°C 62.9°F17.2°C 65% 2.9 mph W4.7 kmh W 2.9 mph4.7 kmh 30.10 in1019.3 mb 0.00 in0.0 mm 0.00 in0.0 mm 0.00 in0.0 mm
08:44 AM 69.4°F20.8°C 63.0°F17.2°C 65% 2.0 mph NNW3.2 kmh NNW 2.0 mph3.2 kmh 30.10 in1019.3 mb 0.00 in0.0 mm 0.00 in0.0 mm 0.00 in0.0 mm
08:45 AM 69.4°F20.8°C 62.8°F17.1°C 65% 1.8 mph NW2.9 kmh NW 1.9 mph3.1 kmh 30.10 in1019.3 mb 0.00 in0.0 mm 0.00 in0.0 mm 0.00 in0.0 mm
08:47 AM 70.1°F21.2°C 63.0°F17.2°C 66% 1.6 mph NNW2.6 kmh NNW 1.6 mph2.6 kmh 30.10 in1019.3 mb 0.00 in0.0 mm 0.00 in0.0 mm 0.00 in0.0 mm
08:48 AM 70.1°F21.2°C 62.8°F17.1°C 65% 2.1 mph NW3.4 kmh NW 2.1 mph3.4 kmh 30.10 in1019.3 mb 0.00 in0.0 mm 0.00 in0.0 mm 0.00 in0.0 mm
08:50 AM 69.2°F20.7°C 63.5°F17.5°C 66% 1.6 mph SW2.6 kmh SW 1.6 mph2.6 kmh 30.10 in1019.3 mb 0.00 in0.0 mm 0.00 in0.0 mm 0.00 in0.0 mm
08:51 AM 69.2°F20.7°C 63.1°F17.3°C 66% 1.6 mph WSW2.6 kmh WSW 1.7 mph2.7 kmh 30.10 in1019.3 mb 0.00 in0.0 mm 0.00 in0.0 mm 0.00 in0.0 mm
08:53 AM 69.6°F20.9°C 63.3°F17.4°C 66% Calm Calm -- 30.10 in1019.3 mb 0.00 in0.0 mm 0.00 in0.0 mm 0.00 in0.0 mm
08:54 AM 69.6°F20.9°C 63.4°F17.4°C 66% Calm Calm -- 30.10 in1019.3 mb 0.00 in0.0 mm 0.00 in0.0 mm 0.00 in0.0 mm
08:56 AM 69.6°F20.9°C 63.3°F17.4°C 66% 0.4 mph WSW0.6 kmh WSW 0.4 mph0.6 kmh 30.10 in1019.3 mb 0.00 in0.0 mm 0.00 in0.0 mm 0.00 in0.0 mm
08:57 AM 69.5°F20.8°C 63.5°F17.5°C 66% Calm Calm -- 30.10 in1019.3 mb 0.00 in0.0 mm 0.00 in0.0 mm 0.00 in0.0 mm
08:59 AM 69.5°F20.8°C 63.6°F17.6°C 66% 1.2 mph WSW1.9 kmh WSW 1.2 mph1.9 kmh 30.11 in1019.6 mb 0.00 in0.0 mm 0.00 in0.0 mm 0.00 in0.0 mm
09:00 AM 69.6°F20.9°C 63.6°F17.6°C 66% 0.9 mph WSW1.4 kmh WSW 1.0 mph1.6 kmh 30.10 in1019.3 mb 0.00 in0.0 mm 0.00 in0.0 mm 0.00 in0.0 mm
09:02 AM 69.9°F21.1°C 63.7°F17.6°C 67% Calm Calm -- 30.10 in1019.3 mb 0.00 in0.0 mm 0.00 in0.0 mm 0.00 in0.0 mm
09:03 AM 70.0°F21.1°C 64.1°F17.8°C 67% 0.8 mph WSW1.3 kmh WSW 0.8 mph1.3 kmh 30.10 in1019.3 mb 0.00 in0.0 mm 0.00 in0.0 mm 0.00 in0.0 mm
09:05 AM 70.5°F21.4°C 63.9°F17.7°C 67% 1.9 mph NNW3.1 kmh NNW 2.0 mph3.2 kmh 30.10 in1019.3 mb 0.00 in0.0 mm 0.00 in0.0 mm 0.00 in0.0 mm
09:06 AM 70.5°F21.4°C 64.1°F17.8°C 67% 2.1 mph WSW3.4 kmh WSW 2.3 mph3.7 kmh 30.10 in1019.3 mb 0.00 in0.0 mm 0.00 in0.0 mm 0.00 in0.0 mm
09:08 AM 70.0°F21.1°C 63.8°F17.7°C 66% 0.8 mph WSW1.3 kmh WSW 0.8 mph1.3 kmh 30.10 in1019.3 mb 0.00 in0.0 mm 0.00 in0.0 mm 0.00 in0.0 mm
09:09 AM 70.0°F21.1°C 63.5°F17.5°C 66% 2.0 mph WSW3.2 kmh WSW 2.1 mph3.4 kmh 30.10 in1019.3 mb 0.00 in0.0 mm 0.00 in0.0 mm 0.00 in0.0 mm
09:11 AM 69.9°F21.1°C 63.6°F17.6°C 66% 2.8 mph WSW4.5 kmh WSW 2.8 mph4.5 kmh 30.10 in1019.3 mb 0.00 in0.0 mm 0.00 in0.0 mm 0.00 in0.0 mm
09:12 AM 69.9°F21.1°C 63.4°F17.4°C 65% 2.8 mph WSW4.5 kmh WSW 2.8 mph4.5 kmh 30.10 in1019.3 mb 0.00 in0.0 mm 0.00 in0.0 mm 0.00 in0.0 mm
09:14 AM 70.1°F21.2°C 63.8°F17.7°C 66% 0.8 mph SW1.3 kmh SW 0.8 mph1.3 kmh 30.10 in1019.3 mb 0.00 in0.0 mm 0.00 in0.0 mm 0.00 in0.0 mm
09:15 AM 70.0°F21.1°C 63.6°F17.6°C 66% 1.9 mph SW3.1 kmh SW 1.9 mph3.1 kmh 30.10 in1019.3 mb 0.00 in0.0 mm 0.00 in0.0 mm 0.00 in0.0 mm
09:17 AM 70.1°F21.2°C 63.3°F17.4°C 65% 1.6 mph WSW2.6 kmh WSW 1.6 mph2.6 kmh 30.10 in1019.3 mb 0.00 in0.0 mm 0.00 in0.0 mm 0.00 in0.0 mm
09:18 AM 70.1°F21.2°C 63.3°F17.4°C 65% 2.0 mph WSW3.2 kmh WSW 2.0 mph3.2 kmh 30.10 in1019.3 mb 0.00 in0.0 mm 0.00 in0.0 mm 0.00 in0.0 mm
09:20 AM 71.0°F21.7°C 63.4°F17.4°C 66% Calm Calm -- 30.10 in1019.3 mb 0.00 in0.0 mm 0.00 in0.0 mm 0.00 in0.0 mm
09:21 AM 71.2°F21.8°C 63.2°F17.3°C 65% Calm Calm -- 30.10 in1019.3 mb 0.00 in0.0 mm 0.00 in0.0 mm 0.00 in0.0 mm
09:23 AM 71.3°F21.8°C 64.3°F17.9°C 67% 1.6 mph SE2.6 kmh SE 1.6 mph2.6 kmh 30.10 in1019.3 mb 0.00 in0.0 mm 0.00 in0.0 mm 0.00 in0.0 mm
09:26 AM 71.5°F21.9°C 63.9°F17.7°C 66% Calm Calm -- 30.10 in1019.3 mb 0.00 in0.0 mm 0.00 in0.0 mm 0.00 in0.0 mm
09:27 AM 71.5°F21.9°C 63.9°F17.7°C 66% 1.2 mph SSW1.9 kmh SSW 1.2 mph1.9 kmh 30.10 in1019.3 mb 0.00 in0.0 mm 0.00 in0.0 mm 0.00 in0.0 mm
09:29 AM 71.4°F21.9°C 64.0°F17.8°C 66% 1.6 mph SSW2.6 kmh SSW 1.6 mph2.6 kmh 30.10 in1019.3 mb 0.00 in0.0 mm 0.00 in0.0 mm 0.00 in0.0 mm
09:30 AM 71.4°F21.9°C 64.3°F17.9°C 66% 1.6 mph SSW2.6 kmh SSW 1.6 mph2.6 kmh 30.10 in1019.3 mb 0.00 in0.0 mm 0.00 in0.0 mm 0.00 in0.0 mm
09:32 AM 71.5°F21.9°C 63.9°F17.7°C 65% 0.4 mph SSW0.6 kmh SSW 0.4 mph0.6 kmh 30.11 in1019.6 mb 0.00 in0.0 mm 0.00 in0.0 mm 0.00 in0.0 mm
09:33 AM 71.5°F21.9°C 64.0°F17.8°C 65% Calm Calm -- 30.10 in1019.3 mb 0.00 in0.0 mm 0.00 in0.0 mm 0.00 in0.0 mm
09:35 AM 72.3°F22.4°C 64.4°F18.0°C 66% 2.0 mph SE3.2 kmh SE 2.0 mph3.2 kmh 30.10 in1019.3 mb 0.00 in0.0 mm 0.00 in0.0 mm 0.00 in0.0 mm
09:36 AM 72.3°F22.4°C 64.3°F17.9°C 65% 2.5 mph ESE4.0 kmh ESE 2.5 mph4.0 kmh 30.10 in1019.3 mb 0.00 in0.0 mm 0.00 in0.0 mm 0.00 in0.0 mm
09:38 AM 73.2°F22.9°C 64.9°F18.3°C 66% 0.8 mph E1.3 kmh E 0.8 mph1.3 kmh 30.10 in1019.3 mb 0.00 in0.0 mm 0.00 in0.0 mm 0.00 in0.0 mm
09:39 AM 73.3°F22.9°C 64.7°F18.2°C 66% 0.7 mph E1.1 kmh E 0.8 mph1.3 kmh 30.10 in1019.3 mb 0.00 in0.0 mm 0.00 in0.0 mm 0.00 in0.0 mm
09:41 AM 73.5°F23.1°C 63.6°F17.6°C 63% 0.4 mph NE0.6 kmh NE 0.4 mph0.6 kmh 30.10 in1019.3 mb 0.00 in0.0 mm 0.00 in0.0 mm 0.00 in0.0 mm
09:42 AM 73.6°F23.1°C 63.6°F17.6°C 63% Calm Calm -- 30.10 in1019.3 mb 0.00 in0.0 mm 0.00 in0.0 mm 0.00 in0.0 mm
09:44 AM 74.4°F23.6°C 64.2°F17.9°C 63% 4.6 mph NNW7.4 kmh NNW 4.6 mph7.4 kmh 30.09 in1019.0 mb 0.00 in0.0 mm 0.00 in0.0 mm 0.00 in0.0 mm
09:45 AM 74.4°F23.6°C 64.1°F17.8°C 63% 3.5 mph W5.6 kmh W 3.5 mph5.6 kmh 30.10 in1019.3 mb 0.00 in0.0 mm 0.00 in0.0 mm 0.00 in0.0 mm
09:47 AM 74.4°F23.6°C 64.0°F17.8°C 62% 2.0 mph SW3.2 kmh SW 2.0 mph3.2 kmh 30.10 in1019.3 mb 0.00 in0.0 mm 0.00 in0.0 mm 0.00 in0.0 mm
09:48 AM 74.5°F23.6°C 63.8°F17.7°C 62% 2.1 mph SW3.4 kmh SW 2.3 mph3.7 kmh 30.10 in1019.3 mb 0.00 in0.0 mm 0.00 in0.0 mm 0.00 in0.0 mm
09:50 AM 74.8°F23.8°C 63.5°F17.5°C 61% Calm Calm -- 30.09 in1019.0 mb 0.00 in0.0 mm 0.00 in0.0 mm 0.00 in0.0 mm
09:51 AM 74.6°F23.7°C 63.4°F17.4°C 60% Calm Calm -- 30.10 in1019.3 mb 0.00 in0.0 mm 0.00 in0.0 mm 0.00 in0.0 mm
09:53 AM 75.5°F24.2°C 64.4°F18.0°C 62% 0.8 mph SW1.3 kmh SW 0.8 mph1.3 kmh 30.10 in1019.3 mb 0.00 in0.0 mm 0.00 in0.0 mm 0.00 in0.0 mm
09:54 AM 75.5°F24.2°C 64.4°F18.0°C 62% 0.9 mph SW1.4 kmh SW 1.1 mph1.8 kmh 30.10 in1019.3 mb 0.00 in0.0 mm 0.00 in0.0 mm 0.00 in0.0 mm
09:56 AM 75.1°F23.9°C 64.6°F18.1°C 61% 0.4 mph S0.6 kmh S 0.4 mph0.6 kmh 30.10 in1019.3 mb 0.00 in0.0 mm 0.00 in0.0 mm 0.00 in0.0 mm
09:57 AM 75.1°F23.9°C 64.3°F17.9°C 61% 0.5 mph S0.8 kmh S 0.5 mph0.8 kmh 30.10 in1019.3 mb 0.00 in0.0 mm 0.00 in0.0 mm 0.00 in0.0 mm
09:59 AM 75.2°F24.0°C 64.7°F18.2°C 61% 0.4 mph SW0.6 kmh SW 0.4 mph0.6 kmh 30.09 in1019.0 mb 0.00 in0.0 mm 0.00 in0.0 mm 0.00 in0.0 mm
10:00 AM 75.1°F23.9°C 64.2°F17.9°C 60% Calm Calm -- 30.09 in1019.0 mb 0.00 in0.0 mm 0.00 in0.0 mm 0.00 in0.0 mm
10:02 AM 75.3°F24.1°C 64.3°F17.9°C 59% 4.6 mph SW7.4 kmh SW 4.6 mph7.4 kmh 30.09 in1019.0 mb 0.00 in0.0 mm 0.00 in0.0 mm 0.00 in0.0 mm
10:05 AM 75.4°F24.1°C 64.5°F18.1°C 59% 2.0 mph SSW3.2 kmh SSW 2.0 mph3.2 kmh 30.09 in1019.0 mb 0.00 in0.0 mm 0.00 in0.0 mm 0.00 in0.0 mm
10:06 AM 75.4°F24.1°C 64.9°F18.3°C 60% 1.0 mph SSW1.6 kmh SSW 1.0 mph1.6 kmh 30.09 in1019.0 mb 0.00 in0.0 mm 0.00 in0.0 mm 0.00 in0.0 mm
10:08 AM 75.2°F24.0°C 64.5°F18.1°C 59% Calm Calm -- 30.10 in1019.3 mb 0.00 in0.0 mm 0.00 in0.0 mm 0.00 in0.0 mm
10:09 AM 75.2°F24.0°C 64.7°F18.2°C 59% Calm Calm -- 30.09 in1019.0 mb 0.00 in0.0 mm 0.00 in0.0 mm 0.00 in0.0 mm
10:11 AM 75.5°F24.2°C 64.9°F18.3°C 58% Calm Calm -- 30.09 in1019.0 mb 0.00 in0.0 mm 0.00 in0.0 mm 0.00 in0.0 mm
10:12 AM 75.7°F24.3°C 64.9°F18.3°C 58% 0.9 mph SW1.4 kmh SW 0.9 mph1.4 kmh 30.09 in1019.0 mb 0.00 in0.0 mm 0.00 in0.0 mm 0.00 in0.0 mm
10:14 AM 76.1°F24.5°C 66.0°F18.9°C 59% 4.0 mph SW6.4 kmh SW 4.1 mph6.6 kmh 30.09 in1019.0 mb 0.00 in0.0 mm 0.00 in0.0 mm 0.00 in0.0 mm
10:15 AM 76.0°F24.4°C 66.4°F19.1°C 59% 5.0 mph SW8.0 kmh SW 5.1 mph8.2 kmh 30.09 in1019.0 mb 0.00 in0.0 mm 0.00 in0.0 mm 0.00 in0.0 mm
10:17 AM 75.9°F24.4°C 65.0°F18.3°C 58% 1.9 mph NNW3.1 kmh NNW 2.0 mph3.2 kmh 30.09 in1019.0 mb 0.00 in0.0 mm 0.00 in0.0 mm 0.00 in0.0 mm
10:18 AM 75.9°F24.4°C 65.8°F18.8°C 57% 1.8 mph SW2.9 kmh SW 1.9 mph3.1 kmh 30.09 in1019.0 mb 0.00 in0.0 mm 0.00 in0.0 mm 0.00 in0.0 mm
10:20 AM 75.5°F24.2°C 65.9°F18.8°C 57% 3.2 mph SW5.1 kmh SW 3.3 mph5.3 kmh 30.09 in1019.0 mb 0.00 in0.0 mm 0.00 in0.0 mm 0.00 in0.0 mm
10:21 AM 75.4°F24.1°C 65.7°F18.7°C 57% 4.7 mph WSW7.6 kmh WSW 4.7 mph7.6 kmh 30.09 in1019.0 mb 0.00 in0.0 mm 0.00 in0.0 mm 0.00 in0.0 mm
10:23 AM 76.2°F24.6°C 67.4°F19.7°C 58% 2.0 mph SW3.2 kmh SW 2.0 mph3.2 kmh 30.09 in1019.0 mb 0.00 in0.0 mm 0.00 in0.0 mm 0.00 in0.0 mm
10:24 AM 76.2°F24.6°C 66.9°F19.4°C 58% 1.9 mph SW3.1 kmh SW 1.9 mph3.1 kmh 30.09 in1019.0 mb 0.00 in0.0 mm 0.00 in0.0 mm 0.00 in0.0 mm
10:26 AM 77.0°F25.0°C 67.5°F19.7°C 57% 2.0 mph WSW3.2 kmh WSW 2.0 mph3.2 kmh 30.09 in1019.0 mb 0.00 in0.0 mm 0.00 in0.0 mm 0.00 in0.0 mm
10:27 AM 77.0°F25.0°C 66.7°F19.3°C 57% 2.4 mph WNW3.9 kmh WNW 2.4 mph3.9 kmh 30.09 in1019.0 mb 0.00 in0.0 mm 0.00 in0.0 mm 0.00 in0.0 mm
10:29 AM 77.3°F25.2°C 67.4°F19.7°C 57% 2.0 mph NW3.2 kmh NW 2.0 mph3.2 kmh 30.09 in1019.0 mb 0.00 in0.0 mm 0.00 in0.0 mm 0.00 in0.0 mm
10:30 AM 77.3°F25.2°C 67.9°F19.9°C 58% 1.9 mph NW3.1 kmh NW 1.9 mph3.1 kmh 30.09 in1019.0 mb 0.00 in0.0 mm 0.00 in0.0 mm 0.00 in0.0 mm
10:32 AM 77.1°F25.1°C 66.9°F19.4°C 55% 3.6 mph SW5.8 kmh SW 3.6 mph5.8 kmh 30.09 in1019.0 mb 0.00 in0.0 mm 0.00 in0.0 mm 0.00 in0.0 mm
10:33 AM 77.2°F25.1°C 66.8°F19.3°C 56% 4.2 mph W6.8 kmh W 4.3 mph6.9 kmh 30.09 in1019.0 mb 0.00 in0.0 mm 0.00 in0.0 mm 0.00 in0.0 mm
10:35 AM 76.7°F24.8°C 66.4°F19.1°C 53% 2.8 mph SW4.5 kmh SW 2.9 mph4.7 kmh 30.09 in1019.0 mb 0.00 in0.0 mm 0.00 in0.0 mm 0.00 in0.0 mm
10:36 AM 76.7°F24.8°C 65.9°F18.8°C 53% 1.6 mph SW2.6 kmh SW 1.6 mph2.6 kmh 30.09 in1019.0 mb 0.00 in0.0 mm 0.00 in0.0 mm 0.00 in0.0 mm
10:38 AM 76.7°F24.8°C 65.7°F18.7°C 52% 4.4 mph W7.1 kmh W 4.5 mph7.2 kmh 30.09 in1019.0 mb 0.00 in0.0 mm 0.00 in0.0 mm 0.00 in0.0 mm
10:39 AM 76.7°F24.8°C 66.3°F19.1°C 52% 4.0 mph WSW6.4 kmh WSW 4.1 mph6.6 kmh 30.09 in1019.0 mb 0.00 in0.0 mm 0.00 in0.0 mm 0.00 in0.0 mm
10:41 AM 77.1°F25.1°C 66.2°F19.0°C 52% 2.8 mph SW4.5 kmh SW 2.9 mph4.7 kmh 30.09 in1019.0 mb 0.00 in0.0 mm 0.00 in0.0 mm 0.00 in0.0 mm
10:42 AM 77.0°F25.0°C 66.1°F18.9°C 52% 3.0 mph SW4.8 kmh SW 3.0 mph4.8 kmh 30.09 in1019.0 mb 0.00 in0.0 mm 0.00 in0.0 mm 0.00 in0.0 mm
10:44 AM 77.3°F25.2°C 66.5°F19.2°C 52% 1.2 mph NNW1.9 kmh NNW 1.2 mph1.9 kmh 30.09 in1019.0 mb 0.00 in0.0 mm 0.00 in0.0 mm 0.00 in0.0 mm
10:45 AM 77.3°F25.2°C 66.5°F19.2°C 52% 1.8 mph SW2.9 kmh SW 1.8 mph2.9 kmh 30.09 in1019.0 mb 0.00 in0.0 mm 0.00 in0.0 mm 0.00 in0.0 mm
10:47 AM 77.6°F25.3°C 66.5°F19.2°C 51% 4.1 mph WNW6.6 kmh WNW 4.1 mph6.6 kmh 30.09 in1019.0 mb 0.00 in0.0 mm 0.00 in0.0 mm 0.00 in0.0 mm
10:48 AM 77.6°F25.3°C 66.4°F19.1°C 51% 4.4 mph W7.1 kmh W 4.7 mph7.6 kmh 30.09 in1019.0 mb 0.00 in0.0 mm 0.00 in0.0 mm 0.00 in0.0 mm
10:50 AM 77.5°F25.3°C 65.2°F18.4°C 50% 1.6 mph WSW2.6 kmh WSW 1.6 mph2.6 kmh 30.09 in1019.0 mb 0.00 in0.0 mm 0.00 in0.0 mm 0.00 in0.0 mm
10:51 AM 77.6°F25.3°C 66.3°F19.1°C 50% 2.6 mph SW4.2 kmh SW 2.6 mph4.2 kmh 30.09 in1019.0 mb 0.00 in0.0 mm 0.00 in0.0 mm 0.00 in0.0 mm
10:53 AM 78.2°F25.7°C 67.9°F19.9°C 52% 1.6 mph NW2.6 kmh NW 1.6 mph2.6 kmh 30.09 in1019.0 mb 0.00 in0.0 mm 0.00 in0.0 mm 0.00 in0.0 mm
10:54 AM 78.2°F25.7°C 67.0°F19.4°C 51% 1.4 mph NW2.3 kmh NW 1.5 mph2.4 kmh 30.09 in1019.0 mb 0.00 in0.0 mm 0.00 in0.0 mm 0.00 in0.0 mm
10:56 AM 78.1°F25.6°C 66.6°F19.2°C 49% 1.6 mph SW2.6 kmh SW 1.6 mph2.6 kmh 30.09 in1019.0 mb 0.00 in0.0 mm 0.00 in0.0 mm 0.00 in0.0 mm
10:57 AM 78.2°F25.7°C 66.1°F18.9°C 49% 2.5 mph SSW4.0 kmh SSW 2.5 mph4.0 kmh 30.09 in1019.0 mb 0.00 in0.0 mm 0.00 in0.0 mm 0.00 in0.0 mm
10:59 AM 78.1°F25.6°C 68.2°F20.1°C 50% 2.4 mph SW3.9 kmh SW 2.5 mph4.0 kmh 30.09 in1019.0 mb 0.00 in0.0 mm 0.00 in0.0 mm 0.00 in0.0 mm
11:00 AM 78.2°F25.7°C 67.7°F19.8°C 50% 2.8 mph SW4.5 kmh SW 2.8 mph4.5 kmh 30.09 in1019.0 mb 0.00 in0.0 mm 0.00 in0.0 mm 0.00 in0.0 mm
11:02 AM 78.1°F25.6°C 66.7°F19.3°C 48% 1.2 mph SSW1.9 kmh SSW 1.2 mph1.9 kmh 30.09 in1019.0 mb 0.00 in0.0 mm 0.00 in0.0 mm 0.00 in0.0 mm
11:03 AM 78.0°F25.6°C 66.1°F18.9°C 48% 1.8 mph S2.9 kmh S 1.9 mph3.1 kmh 30.09 in1019.0 mb 0.00 in0.0 mm 0.00 in0.0 mm 0.00 in0.0 mm
11:05 AM 77.5°F25.3°C 66.4°F19.1°C 48% 0.8 mph NNW1.3 kmh NNW 0.8 mph1.3 kmh 30.09 in1019.0 mb 0.00 in0.0 mm 0.00 in0.0 mm 0.00 in0.0 mm
11:06 AM 77.5°F25.3°C 66.0°F18.9°C 48% 1.0 mph S1.6 kmh S 1.0 mph1.6 kmh 30.09 in1019.0 mb 0.00 in0.0 mm 0.00 in0.0 mm 0.00 in0.0 mm
11:08 AM 78.0°F25.6°C 67.4°F19.7°C 51% 2.8 mph WNW4.5 kmh WNW 2.8 mph4.5 kmh 30.09 in1019.0 mb 0.00 in0.0 mm 0.00 in0.0 mm 0.00 in0.0 mm
11:09 AM 78.0°F25.6°C 67.6°F19.8°C 50% 2.8 mph NW4.5 kmh NW 2.8 mph4.5 kmh 30.09 in1019.0 mb 0.00 in0.0 mm 0.00 in0.0 mm 0.00 in0.0 mm
11:11 AM 77.7°F25.4°C 65.9°F18.8°C 48% 2.4 mph NE3.9 kmh NE 2.5 mph4.0 kmh 30.09 in1019.0 mb 0.00 in0.0 mm 0.00 in0.0 mm 0.00 in0.0 mm
11:12 AM 77.7°F25.4°C 66.1°F18.9°C 48% 2.5 mph NE4.0 kmh NE 2.5 mph4.0 kmh 30.09 in1019.0 mb 0.00 in0.0 mm 0.00 in0.0 mm 0.00 in0.0 mm
11:14 AM 78.8°F26.0°C 68.3°F20.2°C 50% 2.4 mph SW3.9 kmh SW 2.4 mph3.9 kmh 30.09 in1019.0 mb 0.00 in0.0 mm 0.00 in0.0 mm 0.00 in0.0 mm
11:15 AM 78.8°F26.0°C 68.3°F20.2°C 49% 1.1 mph SW1.8 kmh SW 1.1 mph1.8 kmh 30.09 in1019.0 mb 0.00 in0.0 mm 0.00 in0.0 mm 0.00 in0.0 mm
11:17 AM 78.6°F25.9°C 66.5°F19.2°C 47% 0.4 mph S0.6 kmh S 0.4 mph0.6 kmh 30.09 in1019.0 mb 0.00 in0.0 mm 0.00 in0.0 mm 0.00 in0.0 mm
11:18 AM 78.6°F25.9°C 66.9°F19.4°C 46% 1.6 mph WSW2.6 kmh WSW 1.6 mph2.6 kmh 30.09 in1019.0 mb 0.00 in0.0 mm 0.00 in0.0 mm 0.00 in0.0 mm
11:20 AM 78.5°F25.8°C 67.8°F19.9°C 48% 3.2 mph SW5.1 kmh SW 3.3 mph5.3 kmh 30.09 in1019.0 mb 0.00 in0.0 mm 0.00 in0.0 mm 0.00 in0.0 mm
11:21 AM 78.6°F25.9°C 68.2°F20.1°C 48% 2.6 mph SW4.2 kmh SW 2.6 mph4.2 kmh 30.09 in1019.0 mb 0.00 in0.0 mm 0.00 in0.0 mm 0.00 in0.0 mm
11:23 AM 78.7°F25.9°C 67.9°F19.9°C 49% 2.8 mph WSW4.5 kmh WSW 2.8 mph4.5 kmh 30.09 in1019.0 mb 0.00 in0.0 mm 0.00 in0.0 mm 0.00 in0.0 mm
11:24 AM 78.7°F25.9°C 67.9°F19.9°C 49% 2.8 mph WSW4.5 kmh WSW 2.8 mph4.5 kmh 30.09 in1019.0 mb 0.00 in0.0 mm 0.00 in0.0 mm 0.00 in0.0 mm
11:26 AM 79.6°F26.4°C 69.0°F20.6°C 50% 1.2 mph NNW1.9 kmh NNW 1.2 mph1.9 kmh 30.08 in1018.6 mb 0.00 in0.0 mm 0.00 in0.0 mm 0.00 in0.0 mm
11:27 AM 79.6°F26.4°C 68.5°F20.3°C 50% 0.9 mph W1.4 kmh W 1.1 mph1.8 kmh 30.09 in1019.0 mb 0.00 in0.0 mm 0.00 in0.0 mm 0.00 in0.0 mm
11:29 AM 79.1°F26.2°C 66.7°F19.3°C 45% 1.2 mph E1.9 kmh E 1.2 mph1.9 kmh 30.08 in1018.6 mb 0.00 in0.0 mm 0.00 in0.0 mm 0.00 in0.0 mm
11:30 AM 79.3°F26.3°C 67.1°F19.5°C 45% 0.9 mph SSE1.4 kmh SSE 0.9 mph1.4 kmh 30.08 in1018.6 mb 0.00 in0.0 mm 0.00 in0.0 mm 0.00 in0.0 mm
11:32 AM 79.4°F26.3°C 67.7°F19.8°C 46% 3.6 mph W5.8 kmh W 3.7 mph6.0 kmh 30.09 in1019.0 mb 0.00 in0.0 mm 0.00 in0.0 mm 0.00 in0.0 mm
11:33 AM 79.5°F26.4°C 68.1°F20.1°C 46% 4.4 mph W7.1 kmh W 4.4 mph7.1 kmh 30.09 in1019.0 mb 0.00 in0.0 mm 0.00 in0.0 mm 0.00 in0.0 mm
11:35 AM 78.8°F26.0°C 66.8°F19.3°C 44% Calm Calm -- 30.08 in1018.6 mb 0.00 in0.0 mm 0.00 in0.0 mm 0.00 in0.0 mm
11:36 AM 78.9°F26.1°C 66.9°F19.4°C 44% Calm Calm -- 30.08 in1018.6 mb 0.00 in0.0 mm 0.00 in0.0 mm 0.00 in0.0 mm
11:38 AM 79.9°F26.6°C 68.4°F20.2°C 47% Calm Calm -- 30.08 in1018.6 mb 0.00 in0.0 mm 0.00 in0.0 mm 0.00 in0.0 mm
11:39 AM 79.9°F26.6°C 68.3°F20.2°C 47% Calm Calm -- 30.08 in1018.6 mb 0.00 in0.0 mm 0.00 in0.0 mm 0.00 in0.0 mm
11:41 AM 79.9°F26.6°C 68.3°F20.2°C 46% Calm Calm -- 30.08 in1018.6 mb 0.00 in0.0 mm 0.00 in0.0 mm 0.00 in0.0 mm
11:42 AM 80.0°F26.7°C 68.5°F20.3°C 46% Calm Calm -- 30.08 in1018.6 mb 0.00 in0.0 mm 0.00 in0.0 mm 0.00 in0.0 mm
11:44 AM 78.9°F26.1°C 67.9°F19.9°C 44% 4.9 mph WSW7.9 kmh WSW 4.9 mph7.9 kmh 30.08 in1018.6 mb 0.00 in0.0 mm 0.00 in0.0 mm 0.00 in0.0 mm
11:45 AM 79.0°F26.1°C 67.7°F19.8°C 44% 4.9 mph W7.9 kmh W 4.9 mph7.9 kmh 30.08 in1018.6 mb 0.00 in0.0 mm 0.00 in0.0 mm 0.00 in0.0 mm
11:47 AM 79.4°F26.3°C 68.0°F20.0°C 44% 0.4 mph SW0.6 kmh SW 0.4 mph0.6 kmh 30.08 in1018.6 mb 0.00 in0.0 mm 0.00 in0.0 mm 0.00 in0.0 mm
11:48 AM 79.3°F26.3°C 67.1°F19.5°C 44% 3.0 mph SW4.8 kmh SW 3.0 mph4.8 kmh 30.08 in1018.6 mb 0.00 in0.0 mm 0.00 in0.0 mm 0.00 in0.0 mm
11:50 AM 79.9°F26.6°C 66.8°F19.3°C 43% 0.4 mph SE0.6 kmh SE 0.4 mph0.6 kmh 30.08 in1018.6 mb 0.00 in0.0 mm 0.00 in0.0 mm 0.00 in0.0 mm
11:51 AM 79.8°F26.6°C 66.9°F19.4°C 43% 0.7 mph SSE1.1 kmh SSE 0.7 mph1.1 kmh 30.08 in1018.6 mb 0.00 in0.0 mm 0.00 in0.0 mm 0.00 in0.0 mm
11:53 AM 79.9°F26.6°C 68.6°F20.3°C 46% 4.9 mph NNW7.9 kmh NNW 4.9 mph7.9 kmh 30.08 in1018.6 mb 0.00 in0.0 mm 0.00 in0.0 mm 0.00 in0.0 mm
11:54 AM 79.9°F26.6°C 68.8°F20.4°C 46% 4.7 mph NNW7.6 kmh NNW 4.7 mph7.6 kmh 30.08 in1018.6 mb 0.00 in0.0 mm 0.00 in0.0 mm 0.00 in0.0 mm
11:56 AM 79.4°F26.3°C 68.0°F20.0°C 44% 2.0 mph W3.2 kmh W 2.0 mph3.2 kmh 30.08 in1018.6 mb 0.00 in0.0 mm 0.00 in0.0 mm 0.00 in0.0 mm
11:57 AM 79.5°F26.4°C 67.9°F19.9°C 44% 1.4 mph W2.3 kmh W 1.5 mph2.4 kmh 30.08 in1018.6 mb 0.00 in0.0 mm 0.00 in0.0 mm 0.00 in0.0 mm
11:59 AM 79.8°F26.6°C 69.2°F20.7°C 45% 0.8 mph SE1.3 kmh SE 0.8 mph1.3 kmh 30.08 in1018.6 mb 0.00 in0.0 mm 0.00 in0.0 mm 0.00 in0.0 mm
12:00 PM 79.8°F26.6°C 68.5°F20.3°C 45% 1.1 mph SE1.8 kmh SE 1.2 mph1.9 kmh 30.08 in1018.6 mb 0.00 in0.0 mm 0.00 in0.0 mm 0.00 in0.0 mm
12:02 PM 80.0°F26.7°C 67.2°F19.6°C 43% Calm Calm -- 30.08 in1018.6 mb 0.00 in0.0 mm 0.00 in0.0 mm 0.00 in0.0 mm
12:03 PM 80.2°F26.8°C 67.6°F19.8°C 42% 0.2 mph SW0.3 kmh SW 0.2 mph0.3 kmh 30.08 in1018.6 mb 0.00 in0.0 mm 0.00 in0.0 mm 0.00 in0.0 mm
12:05 PM 80.6°F27.0°C 68.2°F20.1°C 43% Calm Calm -- 30.08 in1018.6 mb 0.00 in0.0 mm 0.00 in0.0 mm 0.00 in0.0 mm
12:06 PM 80.7°F27.1°C 68.3°F20.2°C 43% Calm Calm -- 30.07 in1018.3 mb 0.00 in0.0 mm 0.00 in0.0 mm 0.00 in0.0 mm
12:11 PM 80.4°F26.9°C 67.7°F19.8°C 42% 1.2 mph SSE1.9 kmh SSE 1.2 mph1.9 kmh 30.07 in1018.3 mb 0.00 in0.0 mm 0.00 in0.0 mm 0.00 in0.0 mm
12:12 PM 80.4°F26.9°C 67.3°F19.6°C 41% 0.7 mph SSE1.1 kmh SSE 0.7 mph1.1 kmh 30.07 in1018.3 mb 0.00 in0.0 mm 0.00 in0.0 mm 0.00 in0.0 mm
12:14 PM 80.5°F26.9°C 67.1°F19.5°C 41% 4.0 mph NNW6.4 kmh NNW 4.0 mph6.4 kmh 30.07 in1018.3 mb 0.00 in0.0 mm 0.00 in0.0 mm 0.00 in0.0 mm
12:15 PM 80.6°F27.0°C 67.5°F19.7°C 41% 3.0 mph SW4.8 kmh SW 3.0 mph4.8 kmh 30.07 in1018.3 mb 0.00 in0.0 mm 0.00 in0.0 mm 0.00 in0.0 mm
12:17 PM 79.9°F26.6°C 67.6°F19.8°C 42% 1.1 mph SSW1.8 kmh SSW 1.2 mph1.9 kmh 30.07 in1018.3 mb 0.00 in0.0 mm 0.00 in0.0 mm 0.00 in0.0 mm
12:18 PM 79.9°F26.6°C 67.3°F19.6°C 42% 1.2 mph SSW1.9 kmh SSW 1.4 mph2.3 kmh 30.07 in1018.3 mb 0.00 in0.0 mm 0.00 in0.0 mm 0.00 in0.0 mm
12:20 PM 81.2°F27.3°C 68.3°F20.2°C 43% 5.3 mph SW8.5 kmh SW 5.3 mph8.5 kmh 30.07 in1018.3 mb 0.00 in0.0 mm 0.00 in0.0 mm 0.00 in0.0 mm
12:21 PM 81.2°F27.3°C 67.5°F19.7°C 42% 6.6 mph WSW10.6 kmh WSW 6.7 mph10.8 kmh 30.07 in1018.3 mb 0.00 in0.0 mm 0.00 in0.0 mm 0.00 in0.0 mm
12:23 PM 81.2°F27.3°C 68.3°F20.2°C 43% 2.0 mph SW3.2 kmh SW 2.0 mph3.2 kmh 30.07 in1018.3 mb 0.00 in0.0 mm 0.00 in0.0 mm 0.00 in0.0 mm
12:24 PM 81.1°F27.3°C 68.7°F20.4°C 43% 1.6 mph SW2.6 kmh SW 1.6 mph2.6 kmh 30.07 in1018.3 mb 0.00 in0.0 mm 0.00 in0.0 mm 0.00 in0.0 mm
12:26 PM 81.3°F27.4°C 67.6°F19.8°C 42% 0.8 mph W1.3 kmh W 0.8 mph1.3 kmh 30.07 in1018.3 mb 0.00 in0.0 mm 0.00 in0.0 mm 0.00 in0.0 mm
12:27 PM 81.3°F27.4°C 67.9°F19.9°C 42% 0.9 mph W1.4 kmh W 1.0 mph1.6 kmh 30.07 in1018.3 mb 0.00 in0.0 mm 0.00 in0.0 mm 0.00 in0.0 mm
12:29 PM 81.1°F27.3°C 65.9°F18.8°C 39% 1.2 mph SW1.9 kmh SW 1.2 mph1.9 kmh 30.07 in1018.3 mb 0.00 in0.0 mm 0.00 in0.0 mm 0.00 in0.0 mm
12:30 PM 81.1°F27.3°C 66.2°F19.0°C 39% 1.2 mph SW1.9 kmh SW 1.2 mph1.9 kmh 30.07 in1018.3 mb 0.00 in0.0 mm 0.00 in0.0 mm 0.00 in0.0 mm
12:32 PM 80.9°F27.2°C 66.7°F19.3°C 40% 2.8 mph W4.5 kmh W 2.9 mph4.7 kmh 30.07 in1018.3 mb 0.00 in0.0 mm 0.00 in0.0 mm 0.00 in0.0 mm
12:33 PM 81.1°F27.3°C 66.9°F19.4°C 40% 2.3 mph W3.7 kmh W 2.5 mph4.0 kmh 30.07 in1018.3 mb 0.00 in0.0 mm 0.00 in0.0 mm 0.00 in0.0 mm
12:35 PM 80.7°F27.1°C 65.8°F18.8°C 39% 1.2 mph E1.9 kmh E 1.2 mph1.9 kmh 30.06 in1017.9 mb 0.00 in0.0 mm 0.00 in0.0 mm 0.00 in0.0 mm
12:36 PM 80.7°F27.1°C 66.0°F18.9°C 39% 1.2 mph E1.9 kmh E 1.2 mph1.9 kmh 30.07 in1018.3 mb 0.00 in0.0 mm 0.00 in0.0 mm 0.00 in0.0 mm
12:38 PM 80.0°F26.7°C 63.6°F17.6°C 36% 0.4 mph SE0.6 kmh SE 0.4 mph0.6 kmh 30.07 in1018.3 mb 0.00 in0.0 mm 0.00 in0.0 mm 0.00 in0.0 mm
12:39 PM 80.0°F26.7°C 64.3°F17.9°C 36% 0.5 mph SE0.8 kmh SE 0.5 mph0.8 kmh 30.07 in1018.3 mb 0.00 in0.0 mm 0.00 in0.0 mm 0.00 in0.0 mm
12:41 PM 80.5°F26.9°C 64.2°F17.9°C 37% 2.4 mph SE3.9 kmh SE 2.4 mph3.9 kmh 30.06 in1017.9 mb 0.00 in0.0 mm 0.00 in0.0 mm 0.00 in0.0 mm
12:42 PM 80.6°F27.0°C 64.1°F17.8°C 37% 2.6 mph SE4.2 kmh SE 2.6 mph4.2 kmh 30.06 in1017.9 mb 0.00 in0.0 mm 0.00 in0.0 mm 0.00 in0.0 mm
12:44 PM 80.7°F27.1°C 66.1°F18.9°C 40% 1.2 mph SW1.9 kmh SW 1.2 mph1.9 kmh 30.07 in1018.3 mb 0.00 in0.0 mm 0.00 in0.0 mm 0.00 in0.0 mm
12:45 PM 80.7°F27.1°C 66.2°F19.0°C 40% 1.6 mph SW2.6 kmh SW 1.6 mph2.6 kmh 30.07 in1018.3 mb 0.00 in0.0 mm 0.00 in0.0 mm 0.00 in0.0 mm
12:47 PM 79.9°F26.6°C 68.2°F20.1°C 42% 2.0 mph SSW3.2 kmh SSW 2.0 mph3.2 kmh 30.06 in1017.9 mb 0.00 in0.0 mm 0.00 in0.0 mm 0.00 in0.0 mm
12:48 PM 80.0°F26.7°C 67.7°F19.8°C 42% 4.3 mph S6.9 kmh S 4.3 mph6.9 kmh 30.06 in1017.9 mb 0.00 in0.0 mm 0.00 in0.0 mm 0.00 in0.0 mm
12:50 PM 79.1°F26.2°C 64.8°F18.2°C 38% 1.2 mph SSE1.9 kmh SSE 1.2 mph1.9 kmh 30.06 in1017.9 mb 0.00 in0.0 mm 0.00 in0.0 mm 0.00 in0.0 mm
12:51 PM 79.1°F26.2°C 64.9°F18.3°C 38% 1.4 mph SSE2.3 kmh SSE 1.4 mph2.3 kmh 30.06 in1017.9 mb 0.00 in0.0 mm 0.00 in0.0 mm 0.00 in0.0 mm
12:53 PM 79.8°F26.6°C 64.4°F18.0°C 38% 3.2 mph ESE5.1 kmh ESE 3.2 mph5.1 kmh 30.06 in1017.9 mb 0.00 in0.0 mm 0.00 in0.0 mm 0.00 in0.0 mm
12:54 PM 79.8°F26.6°C 64.5°F18.1°C 38% 3.6 mph ESE5.8 kmh ESE 3.6 mph5.8 kmh 30.06 in1017.9 mb 0.00 in0.0 mm 0.00 in0.0 mm 0.00 in0.0 mm
12:56 PM 80.5°F26.9°C 65.2°F18.4°C 40% 2.4 mph NNW3.9 kmh NNW 2.4 mph3.9 kmh 30.06 in1017.9 mb 0.00 in0.0 mm 0.00 in0.0 mm 0.00 in0.0 mm
12:57 PM 80.6°F27.0°C 65.8°F18.8°C 41% 2.1 mph ESE3.4 kmh ESE 2.2 mph3.5 kmh 30.06 in1017.9 mb 0.00 in0.0 mm 0.00 in0.0 mm 0.00 in0.0 mm
12:59 PM 80.3°F26.8°C 66.5°F19.2°C 41% 0.4 mph SW0.6 kmh SW 0.4 mph0.6 kmh 30.05 in1017.6 mb 0.00 in0.0 mm 0.00 in0.0 mm 0.00 in0.0 mm
01:00 PM 80.4°F26.9°C 66.0°F18.9°C 41% 0.2 mph SW0.3 kmh SW 0.3 mph0.5 kmh 30.06 in1017.9 mb 0.00 in0.0 mm 0.00 in0.0 mm 0.00 in0.0 mm
01:02 PM 80.3°F26.8°C 66.5°F19.2°C 41% 1.2 mph SW1.9 kmh SW 1.2 mph1.9 kmh 30.05 in1017.6 mb 0.00 in0.0 mm 0.00 in0.0 mm 0.00 in0.0 mm
01:03 PM 80.4°F26.9°C 66.2°F19.0°C 41% 1.2 mph SW1.9 kmh SW 1.2 mph1.9 kmh 30.05 in1017.6 mb 0.00 in0.0 mm 0.00 in0.0 mm 0.00 in0.0 mm
01:05 PM 80.6°F27.0°C 67.0°F19.4°C 41% Calm Calm -- 30.05 in1017.6 mb 0.00 in0.0 mm 0.00 in0.0 mm 0.00 in0.0 mm
01:06 PM 80.6°F27.0°C 67.6°F19.8°C 41% Calm Calm -- 30.05 in1017.6 mb 0.00 in0.0 mm 0.00 in0.0 mm 0.00 in0.0 mm
01:08 PM 80.7°F27.1°C 66.2°F19.0°C 38% 0.8 mph NNW1.3 kmh NNW 0.8 mph1.3 kmh 30.05 in1017.6 mb 0.00 in0.0 mm 0.00 in0.0 mm 0.00 in0.0 mm
01:09 PM 80.8°F27.1°C 65.2°F18.4°C 38% 1.6 mph SW2.6 kmh SW 1.8 mph2.9 kmh 30.05 in1017.6 mb 0.00 in0.0 mm 0.00 in0.0 mm 0.00 in0.0 mm
01:11 PM 82.0°F27.8°C 69.2°F20.7°C 42% 6.0 mph SW9.7 kmh SW 6.1 mph9.8 kmh 30.05 in1017.6 mb 0.00 in0.0 mm 0.00 in0.0 mm 0.00 in0.0 mm
01:12 PM 82.0°F27.8°C 69.2°F20.7°C 42% 5.5 mph SSW8.9 kmh SSW 5.6 mph9.0 kmh 30.05 in1017.6 mb 0.00 in0.0 mm 0.00 in0.0 mm 0.00 in0.0 mm
01:14 PM 81.2°F27.3°C 65.5°F18.6°C 38% 0.4 mph NNW0.6 kmh NNW 0.4 mph0.6 kmh 30.05 in1017.6 mb 0.00 in0.0 mm 0.00 in0.0 mm 0.00 in0.0 mm
01:15 PM 81.1°F27.3°C 66.3°F19.1°C 38% Calm Calm -- 30.05 in1017.6 mb 0.00 in0.0 mm 0.00 in0.0 mm 0.00 in0.0 mm
01:17 PM 81.6°F27.6°C 66.9°F19.4°C 38% 2.4 mph NNW3.9 kmh NNW 2.5 mph4.0 kmh 30.05 in1017.6 mb 0.00 in0.0 mm 0.00 in0.0 mm 0.00 in0.0 mm
01:18 PM 81.6°F27.6°C 67.2°F19.6°C 38% 3.0 mph 4.8 kmh 3.1 mph5.0 kmh 30.05 in1017.6 mb 0.00 in0.0 mm 0.00 in0.0 mm 0.00 in0.0 mm
01:20 PM 82.3°F27.9°C 70.0°F21.1°C 42% 2.8 mph WSW4.5 kmh WSW 2.9 mph4.7 kmh 30.05 in1017.6 mb 0.00 in0.0 mm 0.00 in0.0 mm 0.00 in0.0 mm
01:21 PM 82.3°F27.9°C 69.2°F20.7°C 42% 5.4 mph W8.7 kmh W 5.4 mph8.7 kmh 30.05 in1017.6 mb 0.00 in0.0 mm 0.00 in0.0 mm 0.00 in0.0 mm
01:23 PM 81.4°F27.4°C 68.3°F20.2°C 40% 2.4 mph SW3.9 kmh SW 2.4 mph3.9 kmh 30.05 in1017.6 mb 0.00 in0.0 mm 0.00 in0.0 mm 0.00 in0.0 mm
01:24 PM 81.4°F27.4°C 67.8°F19.9°C 40% 2.3 mph SW3.7 kmh SW 2.4 mph3.9 kmh 30.05 in1017.6 mb 0.00 in0.0 mm 0.00 in0.0 mm 0.00 in0.0 mm
01:26 PM 81.4°F27.4°C 68.1°F20.1°C 40% 0.8 mph SSW1.3 kmh SSW 0.8 mph1.3 kmh 30.04 in1017.3 mb 0.00 in0.0 mm 0.00 in0.0 mm 0.00 in0.0 mm
01:27 PM 81.4°F27.4°C 68.4°F20.2°C 40% 0.9 mph SSW1.4 kmh SSW 0.9 mph1.4 kmh 30.04 in1017.3 mb 0.00 in0.0 mm 0.00 in0.0 mm 0.00 in0.0 mm
01:29 PM 82.2°F27.9°C 68.5°F20.3°C 40% Calm Calm -- 30.05 in1017.6 mb 0.00 in0.0 mm 0.00 in0.0 mm 0.00 in0.0 mm
01:30 PM 82.2°F27.9°C 68.6°F20.3°C 40% Calm Calm -- 30.05 in1017.6 mb 0.00 in0.0 mm 0.00 in0.0 mm 0.00 in0.0 mm
01:32 PM 80.6°F27.0°C 68.1°F20.1°C 39% Calm Calm -- 30.04 in1017.3 mb 0.00 in0.0 mm 0.00 in0.0 mm 0.00 in0.0 mm
01:33 PM 80.6°F27.0°C 67.9°F19.9°C 39% Calm Calm -- 30.04 in1017.3 mb 0.00 in0.0 mm 0.00 in0.0 mm 0.00 in0.0 mm
01:35 PM 81.5°F27.5°C 68.1°F20.1°C 39% 3.6 mph SW5.8 kmh SW 3.6 mph5.8 kmh 30.04 in1017.3 mb 0.00 in0.0 mm 0.00 in0.0 mm 0.00 in0.0 mm
01:36 PM 81.6°F27.6°C 68.4°F20.2°C 39% 4.2 mph SW6.8 kmh SW 4.2 mph6.8 kmh 30.04 in1017.3 mb 0.00 in0.0 mm 0.00 in0.0 mm 0.00 in0.0 mm
01:38 PM 80.7°F27.1°C 66.9°F19.4°C 38% 1.1 mph SW1.8 kmh SW 1.2 mph1.9 kmh 30.04 in1017.3 mb 0.00 in0.0 mm 0.00 in0.0 mm 0.00 in0.0 mm
01:39 PM 80.7°F27.1°C 66.4°F19.1°C 37% 0.9 mph SW1.4 kmh SW 1.0 mph1.6 kmh 30.04 in1017.3 mb 0.00 in0.0 mm 0.00 in0.0 mm 0.00 in0.0 mm
01:41 PM 81.8°F27.7°C 68.1°F20.1°C 39% 3.6 mph WSW5.8 kmh WSW 3.6 mph5.8 kmh 30.05 in1017.6 mb 0.00 in0.0 mm 0.00 in0.0 mm 0.00 in0.0 mm
01:42 PM 82.0°F27.8°C 68.5°F20.3°C 39% 3.6 mph WSW5.8 kmh WSW 3.6 mph5.8 kmh 30.05 in1017.6 mb 0.00 in0.0 mm 0.00 in0.0 mm 0.00 in0.0 mm
01:44 PM 82.3°F27.9°C 68.6°F20.3°C 40% 2.0 mph W3.2 kmh W 2.0 mph3.2 kmh 30.05 in1017.6 mb 0.00 in0.0 mm 0.00 in0.0 mm 0.00 in0.0 mm
01:45 PM 82.2°F27.9°C 69.0°F20.6°C 40% 2.1 mph W3.4 kmh W 2.1 mph3.4 kmh 30.04 in1017.3 mb 0.00 in0.0 mm 0.00 in0.0 mm 0.00 in0.0 mm
01:47 PM 82.1°F27.8°C 69.8°F21.0°C 40% 1.5 mph SW2.4 kmh SW 1.5 mph2.4 kmh 30.04 in1017.3 mb 0.00 in0.0 mm 0.00 in0.0 mm 0.00 in0.0 mm
01:48 PM 82.0°F27.8°C 68.6°F20.3°C 40% 1.2 mph SW1.9 kmh SW 1.4 mph2.3 kmh 30.04 in1017.3 mb 0.00 in0.0 mm 0.00 in0.0 mm 0.00 in0.0 mm
01:50 PM 81.4°F27.4°C 68.7°F20.4°C 39% 2.4 mph 3.9 kmh 2.4 mph3.9 kmh 30.04 in1017.3 mb 0.00 in0.0 mm 0.00 in0.0 mm 0.00 in0.0 mm
01:51 PM 81.4°F27.4°C 68.8°F20.4°C 39% 2.6 mph NNE4.2 kmh NNE 2.6 mph4.2 kmh 30.04 in1017.3 mb 0.00 in0.0 mm 0.00 in0.0 mm 0.00 in0.0 mm
01:53 PM 81.3°F27.4°C 69.4°F20.8°C 41% 4.8 mph W7.7 kmh W 4.9 mph7.9 kmh 30.05 in1017.6 mb 0.00 in0.0 mm 0.00 in0.0 mm 0.00 in0.0 mm
01:54 PM 81.4°F27.4°C 69.8°F21.0°C 40% 5.2 mph W8.4 kmh W 5.2 mph8.4 kmh 30.04 in1017.3 mb 0.00 in0.0 mm 0.00 in0.0 mm 0.00 in0.0 mm
01:56 PM 82.2°F27.9°C 68.7°F20.4°C 39% 4.0 mph NNW6.4 kmh NNW 4.0 mph6.4 kmh 30.05 in1017.6 mb 0.00 in0.0 mm 0.00 in0.0 mm 0.00 in0.0 mm
01:57 PM 82.2°F27.9°C 68.1°F20.1°C 39% 3.5 mph NNW5.6 kmh NNW 3.5 mph5.6 kmh 30.04 in1017.3 mb 0.00 in0.0 mm 0.00 in0.0 mm 0.00 in0.0 mm
01:59 PM 82.1°F27.8°C 69.0°F20.6°C 39% 3.6 mph NW5.8 kmh NW 3.6 mph5.8 kmh 30.04 in1017.3 mb 0.00 in0.0 mm 0.00 in0.0 mm 0.00 in0.0 mm
02:00 PM 82.1°F27.8°C 68.9°F20.5°C 39% 3.3 mph NW5.3 kmh NW 3.4 mph5.5 kmh 30.04 in1017.3 mb 0.00 in0.0 mm 0.00 in0.0 mm 0.00 in0.0 mm
02:02 PM 81.6°F27.6°C 67.2°F19.6°C 37% Calm Calm -- 30.04 in1017.3 mb 0.00 in0.0 mm 0.00 in0.0 mm 0.00 in0.0 mm
02:03 PM 81.7°F27.6°C 66.7°F19.3°C 36% Calm Calm -- 30.04 in1017.3 mb 0.00 in0.0 mm 0.00 in0.0 mm 0.00 in0.0 mm
02:05 PM 82.3°F27.9°C 69.7°F20.9°C 41% 1.9 mph W3.1 kmh W 1.9 mph3.1 kmh 30.04 in1017.3 mb 0.00 in0.0 mm 0.00 in0.0 mm 0.00 in0.0 mm
02:06 PM 82.3°F27.9°C 69.3°F20.7°C 40% 1.6 mph W2.6 kmh W 1.6 mph2.6 kmh 30.04 in1017.3 mb 0.00 in0.0 mm 0.00 in0.0 mm 0.00 in0.0 mm
02:08 PM 82.2°F27.9°C 67.8°F19.9°C 38% 0.8 mph E1.3 kmh E 0.8 mph1.3 kmh 30.04 in1017.3 mb 0.00 in0.0 mm 0.00 in0.0 mm 0.00 in0.0 mm
02:09 PM 82.1°F27.8°C 68.2°F20.1°C 38% 0.5 mph E0.8 kmh E 0.5 mph0.8 kmh 30.04 in1017.3 mb 0.00 in0.0 mm 0.00 in0.0 mm 0.00 in0.0 mm
02:11 PM 82.3°F27.9°C 68.8°F20.4°C 39% 2.4 mph SW3.9 kmh SW 2.4 mph3.9 kmh 30.04 in1017.3 mb 0.00 in0.0 mm 0.00 in0.0 mm 0.00 in0.0 mm
02:12 PM 82.3°F27.9°C 68.6°F20.3°C 39% 2.3 mph SW3.7 kmh SW 2.3 mph3.7 kmh 30.03 in1016.9 mb 0.00 in0.0 mm 0.00 in0.0 mm 0.00 in0.0 mm
02:14 PM 81.8°F27.7°C 67.5°F19.7°C 38% Calm Calm -- 30.03 in1016.9 mb 0.00 in0.0 mm 0.00 in0.0 mm 0.00 in0.0 mm
02:15 PM 82.0°F27.8°C 67.0°F19.4°C 37% Calm Calm -- 30.03 in1016.9 mb 0.00 in0.0 mm 0.00 in0.0 mm 0.00 in0.0 mm
02:17 PM 81.7°F27.6°C 68.1°F20.1°C 38% 2.4 mph NNW3.9 kmh NNW 2.5 mph4.0 kmh 30.03 in1016.9 mb 0.00 in0.0 mm 0.00 in0.0 mm 0.00 in0.0 mm
02:20 PM 82.1°F27.8°C 68.8°F20.4°C 39% 2.4 mph SW3.9 kmh SW 2.4 mph3.9 kmh 30.03 in1016.9 mb 0.00 in0.0 mm 0.00 in0.0 mm 0.00 in0.0 mm
02:21 PM 82.1°F27.8°C 69.1°F20.6°C 39% 2.5 mph SW4.0 kmh SW 2.5 mph4.0 kmh 30.03 in1016.9 mb 0.00 in0.0 mm 0.00 in0.0 mm 0.00 in0.0 mm
02:23 PM 83.0°F28.3°C 68.3°F20.2°C 38% 2.8 mph NW4.5 kmh NW 2.9 mph4.7 kmh 30.03 in1016.9 mb 0.00 in0.0 mm 0.00 in0.0 mm 0.00 in0.0 mm
02:24 PM 83.1°F28.4°C 68.0°F20.0°C 39% 3.0 mph NW4.8 kmh NW 3.0 mph4.8 kmh 30.03 in1016.9 mb 0.00 in0.0 mm 0.00 in0.0 mm 0.00 in0.0 mm
02:26 PM 82.5°F28.1°C 67.7°F19.8°C 38% 4.0 mph WSW6.4 kmh WSW 4.1 mph6.6 kmh 30.03 in1016.9 mb 0.00 in0.0 mm 0.00 in0.0 mm 0.00 in0.0 mm
02:27 PM 82.5°F28.1°C 67.9°F19.9°C 38% 4.4 mph W7.1 kmh W 4.4 mph7.1 kmh 30.03 in1016.9 mb 0.00 in0.0 mm 0.00 in0.0 mm 0.00 in0.0 mm
02:29 PM 82.9°F28.3°C 69.8°F21.0°C 40% 2.0 mph SW3.2 kmh SW 2.0 mph3.2 kmh 30.03 in1016.9 mb 0.00 in0.0 mm 0.00 in0.0 mm 0.00 in0.0 mm
02:30 PM 82.7°F28.2°C 69.8°F21.0°C 40% 1.9 mph SW3.1 kmh SW 2.0 mph3.2 kmh 30.03 in1016.9 mb 0.00 in0.0 mm 0.00 in0.0 mm 0.00 in0.0 mm
02:32 PM 82.7°F28.2°C 67.5°F19.7°C 37% Calm Calm -- 30.03 in1016.9 mb 0.00 in0.0 mm 0.00 in0.0 mm 0.00 in0.0 mm
02:33 PM 82.9°F28.3°C 66.8°F19.3°C 37% Calm Calm -- 30.03 in1016.9 mb 0.00 in0.0 mm 0.00 in0.0 mm 0.00 in0.0 mm
02:35 PM 82.9°F28.3°C 68.6°F20.3°C 38% 1.6 mph W2.6 kmh W 1.6 mph2.6 kmh 30.03 in1016.9 mb 0.00 in0.0 mm 0.00 in0.0 mm 0.00 in0.0 mm
02:36 PM 83.0°F28.3°C 67.8°F19.9°C 38% 2.3 mph W3.7 kmh W 2.3 mph3.7 kmh 30.03 in1016.9 mb 0.00 in0.0 mm 0.00 in0.0 mm 0.00 in0.0 mm
02:38 PM 83.5°F28.6°C 68.9°F20.5°C 39% 2.0 mph WSW3.2 kmh WSW 2.0 mph3.2 kmh 30.03 in1016.9 mb 0.00 in0.0 mm 0.00 in0.0 mm 0.00 in0.0 mm
02:39 PM 83.5°F28.6°C 69.2°F20.7°C 39% 2.3 mph WSW3.7 kmh WSW 2.3 mph3.7 kmh 30.03 in1016.9 mb 0.00 in0.0 mm 0.00 in0.0 mm 0.00 in0.0 mm
02:41 PM 81.8°F27.7°C 68.7°F20.4°C 39% 0.8 mph SSW1.3 kmh SSW 0.8 mph1.3 kmh 30.03 in1016.9 mb 0.00 in0.0 mm 0.00 in0.0 mm 0.00 in0.0 mm
02:42 PM 82.0°F27.8°C 69.0°F20.6°C 39% 0.7 mph SSW1.1 kmh SSW 0.7 mph1.1 kmh 30.03 in1016.9 mb 0.00 in0.0 mm 0.00 in0.0 mm 0.00 in0.0 mm
02:44 PM 83.0°F28.3°C 67.3°F19.6°C 37% 2.8 mph SW4.5 kmh SW 2.8 mph4.5 kmh 30.03 in1016.9 mb 0.00 in0.0 mm 0.00 in0.0 mm 0.00 in0.0 mm
02:45 PM 83.1°F28.4°C 67.7°F19.8°C 38% 3.5 mph W5.6 kmh W 3.5 mph5.6 kmh 30.03 in1016.9 mb 0.00 in0.0 mm 0.00 in0.0 mm 0.00 in0.0 mm
02:47 PM 83.3°F28.5°C 67.0°F19.4°C 37% 4.4 mph WSW7.1 kmh WSW 4.5 mph7.2 kmh 30.03 in1016.9 mb 0.00 in0.0 mm 0.00 in0.0 mm 0.00 in0.0 mm
02:48 PM 83.3°F28.5°C 66.9°F19.4°C 36% 3.4 mph WSW5.5 kmh WSW 3.4 mph5.5 kmh 30.03 in1016.9 mb 0.00 in0.0 mm 0.00 in0.0 mm 0.00 in0.0 mm
02:50 PM 83.0°F28.3°C 66.6°F19.2°C 36% 1.9 mph NNW3.1 kmh NNW 1.9 mph3.1 kmh 30.03 in1016.9 mb 0.00 in0.0 mm 0.00 in0.0 mm 0.00 in0.0 mm
02:51 PM 83.0°F28.3°C 67.1°F19.5°C 37% 2.3 mph SW3.7 kmh SW 2.3 mph3.7 kmh 30.02 in1016.6 mb 0.00 in0.0 mm 0.00 in0.0 mm 0.00 in0.0 mm
02:53 PM 82.5°F28.1°C 66.6°F19.2°C 37% 7.3 mph SSW11.7 kmh SSW 7.3 mph11.7 kmh 30.03 in1016.9 mb 0.00 in0.0 mm 0.00 in0.0 mm 0.00 in0.0 mm
02:54 PM 82.5°F28.1°C 67.4°F19.7°C 38% 5.6 mph SSW9.0 kmh SSW 5.7 mph9.2 kmh 30.03 in1016.9 mb 0.00 in0.0 mm 0.00 in0.0 mm 0.00 in0.0 mm
02:56 PM 84.1°F28.9°C 67.3°F19.6°C 38% 4.4 mph WSW7.1 kmh WSW 4.4 mph7.1 kmh 30.02 in1016.6 mb 0.00 in0.0 mm 0.00 in0.0 mm 0.00 in0.0 mm
02:57 PM 84.0°F28.9°C 66.8°F19.3°C 38% 3.0 mph WSW4.8 kmh WSW 3.1 mph5.0 kmh 30.02 in1016.6 mb 0.00 in0.0 mm 0.00 in0.0 mm 0.00 in0.0 mm
02:59 PM 83.6°F28.7°C 66.2°F19.0°C 37% 3.2 mph NNW5.1 kmh NNW 3.3 mph5.3 kmh 30.02 in1016.6 mb 0.00 in0.0 mm 0.00 in0.0 mm 0.00 in0.0 mm
03:00 PM 83.8°F28.8°C 66.6°F19.2°C 37% 4.1 mph 6.6 kmh 4.1 mph6.6 kmh 30.02 in1016.6 mb 0.00 in0.0 mm 0.00 in0.0 mm 0.00 in0.0 mm
03:02 PM 83.8°F28.8°C 67.2°F19.6°C 37% 3.6 mph W5.8 kmh W 3.7 mph6.0 kmh 30.02 in1016.6 mb 0.00 in0.0 mm 0.00 in0.0 mm 0.00 in0.0 mm
03:03 PM 83.6°F28.7°C 66.9°F19.4°C 37% 4.0 mph W6.4 kmh W 4.1 mph6.6 kmh 30.02 in1016.6 mb 0.00 in0.0 mm 0.00 in0.0 mm 0.00 in0.0 mm
03:05 PM 84.7°F29.3°C 68.0°F20.0°C 39% 4.9 mph W7.9 kmh W 4.9 mph7.9 kmh 30.02 in1016.6 mb 0.00 in0.0 mm 0.00 in0.0 mm 0.00 in0.0 mm
03:06 PM 84.7°F29.3°C 68.1°F20.1°C 39% 3.9 mph WNW6.3 kmh WNW 4.1 mph6.6 kmh 30.02 in1016.6 mb 0.00 in0.0 mm 0.00 in0.0 mm 0.00 in0.0 mm
03:08 PM 85.3°F29.6°C 68.8°F20.4°C 39% 4.0 mph WSW6.4 kmh WSW 4.0 mph6.4 kmh 30.02 in1016.6 mb 0.00 in0.0 mm 0.00 in0.0 mm 0.00 in0.0 mm
03:09 PM 85.2°F29.6°C 68.6°F20.3°C 39% 4.3 mph WSW6.9 kmh WSW 4.3 mph6.9 kmh 30.02 in1016.6 mb 0.00 in0.0 mm 0.00 in0.0 mm 0.00 in0.0 mm
03:14 PM 85.0°F29.4°C 67.6°F19.8°C 37% 2.4 mph SW3.9 kmh SW 2.5 mph4.0 kmh 30.02 in1016.6 mb 0.00 in0.0 mm 0.00 in0.0 mm 0.00 in0.0 mm
03:15 PM 85.2°F29.6°C 67.5°F19.7°C 37% 2.3 mph SW3.7 kmh SW 2.4 mph3.9 kmh 30.01 in1016.3 mb 0.00 in0.0 mm 0.00 in0.0 mm 0.00 in0.0 mm
03:17 PM 85.3°F29.6°C 68.6°F20.3°C 38% 0.4 mph WNW0.6 kmh WNW 0.4 mph0.6 kmh 30.01 in1016.3 mb 0.00 in0.0 mm 0.00 in0.0 mm 0.00 in0.0 mm
03:18 PM 85.3°F29.6°C 68.3°F20.2°C 39% Calm Calm -- 30.02 in1016.6 mb 0.00 in0.0 mm 0.00 in0.0 mm 0.00 in0.0 mm
03:20 PM 85.7°F29.8°C 68.3°F20.2°C 38% 2.0 mph NNW3.2 kmh NNW 2.0 mph3.2 kmh 30.01 in1016.3 mb 0.00 in0.0 mm 0.00 in0.0 mm 0.00 in0.0 mm
03:21 PM 85.7°F29.8°C 68.1°F20.1°C 38% 1.9 mph WSW3.1 kmh WSW 1.9 mph3.1 kmh 30.01 in1016.3 mb 0.00 in0.0 mm 0.00 in0.0 mm 0.00 in0.0 mm
03:23 PM 84.4°F29.1°C 67.0°F19.4°C 37% 2.8 mph SW4.5 kmh SW 2.8 mph4.5 kmh 30.01 in1016.3 mb 0.00 in0.0 mm 0.00 in0.0 mm 0.00 in0.0 mm
03:24 PM 84.7°F29.3°C 66.7°F19.3°C 37% 2.8 mph SW4.5 kmh SW 2.8 mph4.5 kmh 30.01 in1016.3 mb 0.00 in0.0 mm 0.00 in0.0 mm 0.00 in0.0 mm
03:26 PM 84.1°F28.9°C 67.1°F19.5°C 37% 3.2 mph SW5.1 kmh SW 3.2 mph5.1 kmh 30.01 in1016.3 mb 0.00 in0.0 mm 0.00 in0.0 mm 0.00 in0.0 mm
03:27 PM 84.1°F28.9°C 67.3°F19.6°C 37% 4.1 mph WSW6.6 kmh WSW 4.3 mph6.9 kmh 30.01 in1016.3 mb 0.00 in0.0 mm 0.00 in0.0 mm 0.00 in0.0 mm
03:29 PM 85.0°F29.4°C 67.4°F19.7°C 38% 3.6 mph WSW5.8 kmh WSW 3.7 mph6.0 kmh 30.01 in1016.3 mb 0.00 in0.0 mm 0.00 in0.0 mm 0.00 in0.0 mm
03:30 PM 85.1°F29.5°C 68.4°F20.2°C 39% 3.2 mph WSW5.1 kmh WSW 3.2 mph5.1 kmh 30.01 in1016.3 mb 0.00 in0.0 mm 0.00 in0.0 mm 0.00 in0.0 mm
03:32 PM 85.0°F29.4°C 67.5°F19.7°C 38% 4.8 mph SW7.7 kmh SW 4.9 mph7.9 kmh 30.01 in1016.3 mb 0.00 in0.0 mm 0.00 in0.0 mm 0.00 in0.0 mm
03:33 PM 85.1°F29.5°C 68.1°F20.1°C 38% 3.4 mph SW5.5 kmh SW 3.4 mph5.5 kmh 30.01 in1016.3 mb 0.00 in0.0 mm 0.00 in0.0 mm 0.00 in0.0 mm
03:35 PM 84.8°F29.3°C 65.6°F18.7°C 36% 3.2 mph WSW5.1 kmh WSW 3.2 mph5.1 kmh 30.01 in1016.3 mb 0.00 in0.0 mm 0.00 in0.0 mm 0.00 in0.0 mm
03:36 PM 84.7°F29.3°C 65.8°F18.8°C 36% 2.0 mph WSW3.2 kmh WSW 2.0 mph3.2 kmh 30.01 in1016.3 mb 0.00 in0.0 mm 0.00 in0.0 mm 0.00 in0.0 mm
03:38 PM 84.4°F29.1°C 67.8°F19.9°C 39% 3.6 mph SW5.8 kmh SW 3.6 mph5.8 kmh 30.01 in1016.3 mb 0.00 in0.0 mm 0.00 in0.0 mm 0.00 in0.0 mm
03:39 PM 84.3°F29.1°C 67.8°F19.9°C 40% 5.3 mph SW8.5 kmh SW 5.3 mph8.5 kmh 30.01 in1016.3 mb 0.00 in0.0 mm 0.00 in0.0 mm 0.00 in0.0 mm
03:41 PM 84.9°F29.4°C 66.1°F18.9°C 37% 1.6 mph SW2.6 kmh SW 1.6 mph2.6 kmh 30.01 in1016.3 mb 0.00 in0.0 mm 0.00 in0.0 mm 0.00 in0.0 mm
03:42 PM 84.9°F29.4°C 66.0°F18.9°C 37% 2.1 mph SW3.4 kmh SW 2.2 mph3.5 kmh 30.01 in1016.3 mb 0.00 in0.0 mm 0.00 in0.0 mm 0.00 in0.0 mm
03:47 PM 86.2°F30.1°C 67.4°F19.7°C 38% 2.3 mph NNW3.7 kmh NNW 2.3 mph3.7 kmh 30.01 in1016.3 mb 0.00 in0.0 mm 0.00 in0.0 mm 0.00 in0.0 mm
03:48 PM 86.3°F30.2°C 67.3°F19.6°C 38% 1.3 mph WSW2.1 kmh WSW 1.3 mph2.1 kmh 30.01 in1016.3 mb 0.00 in0.0 mm 0.00 in0.0 mm 0.00 in0.0 mm
03:50 PM 87.2°F30.7°C 67.5°F19.7°C 38% 4.6 mph NNW7.4 kmh NNW 4.7 mph7.6 kmh 30.01 in1016.3 mb 0.00 in0.0 mm 0.00 in0.0 mm 0.00 in0.0 mm
03:51 PM 87.4°F30.8°C 67.5°F19.7°C 38% 4.7 mph NNW7.6 kmh NNW 4.8 mph7.7 kmh 30.01 in1016.3 mb 0.00 in0.0 mm 0.00 in0.0 mm 0.00 in0.0 mm
03:53 PM 86.0°F30.0°C 66.4°F19.1°C 37% Calm Calm -- 30.01 in1016.3 mb 0.00 in0.0 mm 0.00 in0.0 mm 0.00 in0.0 mm
03:54 PM 86.0°F30.0°C 66.2°F19.0°C 36% 0.2 mph WSW0.3 kmh WSW 0.3 mph0.5 kmh 30.01 in1016.3 mb 0.00 in0.0 mm 0.00 in0.0 mm 0.00 in0.0 mm
03:56 PM 87.2°F30.7°C 67.6°F19.8°C 38% 3.2 mph NNW5.1 kmh NNW 3.3 mph5.3 kmh 30.00 in1015.9 mb 0.00 in0.0 mm 0.00 in0.0 mm 0.00 in0.0 mm
03:57 PM 87.1°F30.6°C 67.2°F19.6°C 38% 3.7 mph WNW6.0 kmh WNW 3.8 mph6.1 kmh 30.01 in1016.3 mb 0.00 in0.0 mm 0.00 in0.0 mm 0.00 in0.0 mm
03:59 PM 88.6°F31.4°C 67.0°F19.4°C 38% 2.4 mph WNW3.9 kmh WNW 2.4 mph3.9 kmh 30.01 in1016.3 mb 0.00 in0.0 mm 0.00 in0.0 mm 0.00 in0.0 mm
04:00 PM 88.6°F31.4°C 66.8°F19.3°C 37% 1.8 mph WNW2.9 kmh WNW 1.8 mph2.9 kmh 30.01 in1016.3 mb 0.00 in0.0 mm 0.00 in0.0 mm 0.00 in0.0 mm
04:02 PM 89.3°F31.8°C 67.0°F19.4°C 37% 4.4 mph WSW7.1 kmh WSW 4.4 mph7.1 kmh 30.01 in1016.3 mb 0.00 in0.0 mm 0.00 in0.0 mm 0.00 in0.0 mm
04:03 PM 88.9°F31.6°C 66.8°F19.3°C 37% 5.6 mph WSW9.0 kmh WSW 5.6 mph9.0 kmh 30.00 in1015.9 mb 0.00 in0.0 mm 0.00 in0.0 mm 0.00 in0.0 mm
04:05 PM 88.9°F31.6°C 67.8°F19.9°C 38% 2.0 mph SW3.2 kmh SW 2.0 mph3.2 kmh 30.00 in1015.9 mb 0.00 in0.0 mm 0.00 in0.0 mm 0.00 in0.0 mm
04:06 PM 89.0°F31.7°C 68.2°F20.1°C 39% 2.3 mph SW3.7 kmh SW 2.3 mph3.7 kmh 30.00 in1015.9 mb 0.00 in0.0 mm 0.00 in0.0 mm 0.00 in0.0 mm
04:08 PM 88.5°F31.4°C 66.3°F19.1°C 36% 2.4 mph W3.9 kmh W 2.4 mph3.9 kmh 30.00 in1015.9 mb 0.00 in0.0 mm 0.00 in0.0 mm 0.00 in0.0 mm
04:09 PM 88.3°F31.3°C 65.7°F18.7°C 36% 2.8 mph W4.5 kmh W 2.8 mph4.5 kmh 30.00 in1015.9 mb 0.00 in0.0 mm 0.00 in0.0 mm 0.00 in0.0 mm
04:11 PM 87.1°F30.6°C 67.4°F19.7°C 38% 3.6 mph W5.8 kmh W 3.7 mph6.0 kmh 30.00 in1015.9 mb 0.00 in0.0 mm 0.00 in0.0 mm 0.00 in0.0 mm
04:12 PM 86.9°F30.5°C 67.3°F19.6°C 38% 2.8 mph W4.5 kmh W 2.8 mph4.5 kmh 29.99 in1015.6 mb 0.00 in0.0 mm 0.00 in0.0 mm 0.00 in0.0 mm
04:14 PM 86.6°F30.3°C 67.0°F19.4°C 38% 2.8 mph W4.5 kmh W 2.9 mph4.7 kmh 30.00 in1015.9 mb 0.00 in0.0 mm 0.00 in0.0 mm 0.00 in0.0 mm
04:15 PM 86.7°F30.4°C 67.6°F19.8°C 38% 2.3 mph W3.7 kmh W 2.3 mph3.7 kmh 30.00 in1015.9 mb 0.00 in0.0 mm 0.00 in0.0 mm 0.00 in0.0 mm
04:17 PM 87.0°F30.6°C 67.3°F19.6°C 38% 0.8 mph SW1.3 kmh SW 0.8 mph1.3 kmh 30.00 in1015.9 mb 0.00 in0.0 mm 0.00 in0.0 mm 0.00 in0.0 mm
04:18 PM 87.0°F30.6°C 67.1°F19.5°C 38% 0.9 mph SW1.4 kmh SW 0.9 mph1.4 kmh 30.00 in1015.9 mb 0.00 in0.0 mm 0.00 in0.0 mm 0.00 in0.0 mm
04:20 PM 87.0°F30.6°C 65.9°F18.8°C 37% 2.3 mph W3.7 kmh W 2.3 mph3.7 kmh 30.00 in1015.9 mb 0.00 in0.0 mm 0.00 in0.0 mm 0.00 in0.0 mm
04:21 PM 87.0°F30.6°C 65.7°F18.7°C 37% 1.8 mph W2.9 kmh W 1.8 mph2.9 kmh 30.00 in1015.9 mb 0.00 in0.0 mm 0.00 in0.0 mm 0.00 in0.0 mm
04:23 PM 87.6°F30.9°C 66.7°F19.3°C 38% 3.6 mph WSW5.8 kmh WSW 3.6 mph5.8 kmh 29.99 in1015.6 mb 0.00 in0.0 mm 0.00 in0.0 mm 0.00 in0.0 mm
04:24 PM 87.2°F30.7°C 66.3°F19.1°C 37% 3.9 mph WSW6.3 kmh WSW 3.9 mph6.3 kmh 30.00 in1015.9 mb 0.00 in0.0 mm 0.00 in0.0 mm 0.00 in0.0 mm
04:26 PM 87.6°F30.9°C 67.4°F19.7°C 38% 3.2 mph WSW5.1 kmh WSW 3.2 mph5.1 kmh 29.99 in1015.6 mb 0.00 in0.0 mm 0.00 in0.0 mm 0.00 in0.0 mm
04:27 PM 87.4°F30.8°C 66.5°F19.2°C 38% 3.4 mph WSW5.5 kmh WSW 3.5 mph5.6 kmh 29.99 in1015.6 mb 0.00 in0.0 mm 0.00 in0.0 mm 0.00 in0.0 mm
04:29 PM 87.0°F30.6°C 65.7°F18.7°C 37% 2.4 mph SW3.9 kmh SW 2.4 mph3.9 kmh 29.99 in1015.6 mb 0.00 in0.0 mm 0.00 in0.0 mm 0.00 in0.0 mm
04:30 PM 87.1°F30.6°C 65.3°F18.5°C 37% 2.1 mph SW3.4 kmh SW 2.2 mph3.5 kmh 29.99 in1015.6 mb 0.00 in0.0 mm 0.00 in0.0 mm 0.00 in0.0 mm
04:32 PM 86.6°F30.3°C 64.9°F18.3°C 36% 0.4 mph SW0.6 kmh SW 0.4 mph0.6 kmh 29.99 in1015.6 mb 0.00 in0.0 mm 0.00 in0.0 mm 0.00 in0.0 mm
04:33 PM 86.5°F30.3°C 65.0°F18.3°C 36% 0.7 mph SW1.1 kmh SW 0.8 mph1.3 kmh 29.99 in1015.6 mb 0.00 in0.0 mm 0.00 in0.0 mm 0.00 in0.0 mm
04:35 PM 89.3°F31.8°C 66.3°F19.1°C 38% 2.8 mph WNW4.5 kmh WNW 2.9 mph4.7 kmh 29.99 in1015.6 mb 0.00 in0.0 mm 0.00 in0.0 mm 0.00 in0.0 mm
04:36 PM 89.5°F31.9°C 66.5°F19.2°C 38% 2.3 mph NW3.7 kmh NW 2.4 mph3.9 kmh 29.99 in1015.6 mb 0.00 in0.0 mm 0.00 in0.0 mm 0.00 in0.0 mm
04:38 PM 89.0°F31.7°C 64.6°F18.1°C 36% Calm Calm -- 29.99 in1015.6 mb 0.00 in0.0 mm 0.00 in0.0 mm 0.00 in0.0 mm
04:39 PM 88.9°F31.6°C 65.2°F18.4°C 36% Calm Calm -- 29.99 in1015.6 mb 0.00 in0.0 mm 0.00 in0.0 mm 0.00 in0.0 mm
04:41 PM 89.7°F32.1°C 66.6°F19.2°C 38% 2.0 mph W3.2 kmh W 2.0 mph3.2 kmh 29.99 in1015.6 mb 0.00 in0.0 mm 0.00 in0.0 mm 0.00 in0.0 mm
04:42 PM 89.9°F32.2°C 67.0°F19.4°C 38% 2.2 mph W3.5 kmh W 2.3 mph3.7 kmh 29.99 in1015.6 mb 0.00 in0.0 mm 0.00 in0.0 mm 0.00 in0.0 mm
04:44 PM 90.3°F32.4°C 67.4°F19.7°C 39% 3.2 mph WNW5.1 kmh WNW 3.3 mph5.3 kmh 29.99 in1015.6 mb 0.00 in0.0 mm 0.00 in0.0 mm 0.00 in0.0 mm
04:45 PM 90.3°F32.4°C 67.4°F19.7°C 39% 2.9 mph NW4.7 kmh NW 3.0 mph4.8 kmh 29.99 in1015.6 mb 0.00 in0.0 mm 0.00 in0.0 mm 0.00 in0.0 mm
04:47 PM 89.5°F31.9°C 67.3°F19.6°C 38% 0.8 mph W1.3 kmh W 0.8 mph1.3 kmh 29.99 in1015.6 mb 0.00 in0.0 mm 0.00 in0.0 mm 0.00 in0.0 mm
04:48 PM 89.5°F31.9°C 67.2°F19.6°C 38% 0.5 mph W0.8 kmh W 0.5 mph0.8 kmh 29.99 in1015.6 mb 0.00 in0.0 mm 0.00 in0.0 mm 0.00 in0.0 mm
04:50 PM 88.7°F31.5°C 66.3°F19.1°C 37% 2.4 mph WSW3.9 kmh WSW 2.4 mph3.9 kmh 29.99 in1015.6 mb 0.00 in0.0 mm 0.00 in0.0 mm 0.00 in0.0 mm
04:51 PM 88.9°F31.6°C 66.1°F18.9°C 37% 1.4 mph WSW2.3 kmh WSW 1.5 mph2.4 kmh 29.99 in1015.6 mb 0.00 in0.0 mm 0.00 in0.0 mm 0.00 in0.0 mm
04:53 PM 89.0°F31.7°C 66.4°F19.1°C 37% 1.2 mph WSW1.9 kmh WSW 1.2 mph1.9 kmh 29.99 in1015.6 mb 0.00 in0.0 mm 0.00 in0.0 mm 0.00 in0.0 mm
04:54 PM 89.2°F31.8°C 66.1°F18.9°C 37% 1.3 mph WSW2.1 kmh WSW 1.3 mph2.1 kmh 29.99 in1015.6 mb 0.00 in0.0 mm 0.00 in0.0 mm 0.00 in0.0 mm
04:56 PM 89.0°F31.7°C 65.0°F18.3°C 36% 4.1 mph NNW6.6 kmh NNW 4.1 mph6.6 kmh 29.99 in1015.6 mb 0.00 in0.0 mm 0.00 in0.0 mm 0.00 in0.0 mm
04:57 PM 89.0°F31.7°C 64.2°F17.9°C 35% 6.6 mph NW10.6 kmh NW 6.7 mph10.8 kmh 29.99 in1015.6 mb 0.00 in0.0 mm 0.00 in0.0 mm 0.00 in0.0 mm
04:59 PM 89.6°F32.0°C 66.2°F19.0°C 38% 2.4 mph SW3.9 kmh SW 2.5 mph4.0 kmh 29.99 in1015.6 mb 0.00 in0.0 mm 0.00 in0.0 mm 0.00 in0.0 mm
05:00 PM 89.3°F31.8°C 66.3°F19.1°C 37% 2.7 mph SW4.3 kmh SW 2.7 mph4.3 kmh 29.99 in1015.6 mb 0.00 in0.0 mm 0.00 in0.0 mm 0.00 in0.0 mm
05:02 PM 87.7°F30.9°C 65.4°F18.6°C 36% 2.3 mph SW3.7 kmh SW 2.3 mph3.7 kmh 29.99 in1015.6 mb 0.00 in0.0 mm 0.00 in0.0 mm 0.00 in0.0 mm
05:03 PM 87.8°F31.0°C 65.8°F18.8°C 37% 1.6 mph SW2.6 kmh SW 1.6 mph2.6 kmh 29.99 in1015.6 mb 0.00 in0.0 mm 0.00 in0.0 mm 0.00 in0.0 mm
05:11 PM 88.3°F31.3°C 64.4°F18.0°C 36% 4.4 mph SW7.1 kmh SW 4.5 mph7.2 kmh 29.99 in1015.6 mb 0.00 in0.0 mm 0.00 in0.0 mm 0.00 in0.0 mm
05:12 PM 88.1°F31.2°C 64.6°F18.1°C 36% 4.2 mph SW6.8 kmh SW 4.3 mph6.9 kmh 29.99 in1015.6 mb 0.00 in0.0 mm 0.00 in0.0 mm 0.00 in0.0 mm
05:14 PM 86.5°F30.3°C 64.3°F17.9°C 36% 2.4 mph SW3.9 kmh SW 2.4 mph3.9 kmh 29.99 in1015.6 mb 0.00 in0.0 mm 0.00 in0.0 mm 0.00 in0.0 mm
05:15 PM 86.6°F30.3°C 63.9°F17.7°C 36% 2.1 mph SW3.4 kmh SW 2.1 mph3.4 kmh 29.98 in1015.2 mb 0.00 in0.0 mm 0.00 in0.0 mm 0.00 in0.0 mm
05:17 PM 88.0°F31.1°C 65.1°F18.4°C 37% 1.2 mph SSW1.9 kmh SSW 1.2 mph1.9 kmh 29.98 in1015.2 mb 0.00 in0.0 mm 0.00 in0.0 mm 0.00 in0.0 mm
05:18 PM 87.9°F31.1°C 65.1°F18.4°C 37% 1.7 mph SSW2.7 kmh SSW 1.7 mph2.7 kmh 29.98 in1015.2 mb 0.00 in0.0 mm 0.00 in0.0 mm 0.00 in0.0 mm
05:20 PM 86.6°F30.3°C 65.5°F18.6°C 38% 3.4 mph WSW5.5 kmh WSW 3.4 mph5.5 kmh 29.98 in1015.2 mb 0.00 in0.0 mm 0.00 in0.0 mm 0.00 in0.0 mm
05:23 PM 86.2°F30.1°C 65.4°F18.6°C 38% 3.9 mph SSW6.3 kmh SSW 3.9 mph6.3 kmh 29.98 in1015.2 mb 0.00 in0.0 mm 0.00 in0.0 mm 0.00 in0.0 mm
05:24 PM 86.2°F30.1°C 65.3°F18.5°C 37% 3.6 mph SW5.8 kmh SW 3.8 mph6.1 kmh 29.99 in1015.6 mb 0.00 in0.0 mm 0.00 in0.0 mm 0.00 in0.0 mm
05:26 PM 86.1°F30.1°C 65.1°F18.4°C 37% 5.4 mph NNW8.7 kmh NNW 5.5 mph8.9 kmh 29.99 in1015.6 mb 0.00 in0.0 mm 0.00 in0.0 mm 0.00 in0.0 mm
05:27 PM 86.1°F30.1°C 64.9°F18.3°C 37% 3.8 mph NNW6.1 kmh NNW 3.8 mph6.1 kmh 29.98 in1015.2 mb 0.00 in0.0 mm 0.00 in0.0 mm 0.00 in0.0 mm
05:29 PM 85.8°F29.9°C 64.4°F18.0°C 37% 5.0 mph SW8.0 kmh SW 5.0 mph8.0 kmh 29.98 in1015.2 mb 0.00 in0.0 mm 0.00 in0.0 mm 0.00 in0.0 mm
05:30 PM 85.8°F29.9°C 64.3°F17.9°C 37% 3.6 mph SW5.8 kmh SW 3.6 mph5.8 kmh 29.98 in1015.2 mb 0.00 in0.0 mm 0.00 in0.0 mm 0.00 in0.0 mm
05:32 PM 85.2°F29.6°C 64.3°F17.9°C 37% 4.8 mph WSW7.7 kmh WSW 4.8 mph7.7 kmh 29.98 in1015.2 mb 0.00 in0.0 mm 0.00 in0.0 mm 0.00 in0.0 mm
05:33 PM 85.3°F29.6°C 64.3°F17.9°C 37% 4.9 mph W7.9 kmh W 5.0 mph8.0 kmh 29.98 in1015.2 mb 0.00 in0.0 mm 0.00 in0.0 mm 0.00 in0.0 mm
05:35 PM 85.6°F29.8°C 65.1°F18.4°C 38% 1.2 mph SW1.9 kmh SW 1.2 mph1.9 kmh 29.98 in1015.2 mb 0.00 in0.0 mm 0.00 in0.0 mm 0.00 in0.0 mm
05:36 PM 85.7°F29.8°C 64.8°F18.2°C 38% 1.3 mph SW2.1 kmh SW 1.3 mph2.1 kmh 29.99 in1015.6 mb 0.00 in0.0 mm 0.00 in0.0 mm 0.00 in0.0 mm
05:38 PM 85.1°F29.5°C 63.1°F17.3°C 36% 4.2 mph SW6.8 kmh SW 4.3 mph6.9 kmh 29.98 in1015.2 mb 0.00 in0.0 mm 0.00 in0.0 mm 0.00 in0.0 mm
05:44 PM 85.8°F29.9°C 63.6°F17.6°C 37% 1.2 mph SW1.9 kmh SW 1.2 mph1.9 kmh 29.98 in1015.2 mb 0.00 in0.0 mm 0.00 in0.0 mm 0.00 in0.0 mm
05:45 PM 85.8°F29.9°C 64.0°F17.8°C 37% 1.0 mph SW1.6 kmh SW 1.0 mph1.6 kmh 29.98 in1015.2 mb 0.00 in0.0 mm 0.00 in0.0 mm 0.00 in0.0 mm
05:47 PM 85.6°F29.8°C 63.8°F17.7°C 37% 4.4 mph SW7.1 kmh SW 4.5 mph7.2 kmh 29.98 in1015.2 mb 0.00 in0.0 mm 0.00 in0.0 mm 0.00 in0.0 mm
05:48 PM 85.6°F29.8°C 63.9°F17.7°C 37% 3.7 mph SW6.0 kmh SW 3.7 mph6.0 kmh 29.98 in1015.2 mb 0.00 in0.0 mm 0.00 in0.0 mm 0.00 in0.0 mm
05:50 PM 85.4°F29.7°C 63.1°F17.3°C 36% 4.0 mph W6.4 kmh W 4.1 mph6.6 kmh 29.97 in1014.9 mb 0.00 in0.0 mm 0.00 in0.0 mm 0.00 in0.0 mm
05:51 PM 85.6°F29.8°C 62.9°F17.2°C 36% 4.7 mph W7.6 kmh W 4.7 mph7.6 kmh 29.98 in1015.2 mb 0.00 in0.0 mm 0.00 in0.0 mm 0.00 in0.0 mm
05:53 PM 84.9°F29.4°C 62.5°F16.9°C 36% 2.0 mph SW3.2 kmh SW 2.0 mph3.2 kmh 29.97 in1014.9 mb 0.00 in0.0 mm 0.00 in0.0 mm 0.00 in0.0 mm
05:54 PM 84.9°F29.4°C 62.9°F17.2°C 36% 2.1 mph SW3.4 kmh SW 2.2 mph3.5 kmh 29.97 in1014.9 mb 0.00 in0.0 mm 0.00 in0.0 mm 0.00 in0.0 mm
05:56 PM 85.3°F29.6°C 63.5°F17.5°C 37% 2.4 mph WSW3.9 kmh WSW 2.5 mph4.0 kmh 29.98 in1015.2 mb 0.00 in0.0 mm 0.00 in0.0 mm 0.00 in0.0 mm
05:57 PM 85.4°F29.7°C 63.2°F17.3°C 37% 2.5 mph WSW4.0 kmh WSW 2.5 mph4.0 kmh 29.98 in1015.2 mb 0.00 in0.0 mm 0.00 in0.0 mm 0.00 in0.0 mm
05:59 PM 85.4°F29.7°C 63.9°F17.7°C 38% 2.4 mph SW3.9 kmh SW 2.4 mph3.9 kmh 29.97 in1014.9 mb 0.00 in0.0 mm 0.00 in0.0 mm 0.00 in0.0 mm
06:02 PM 85.0°F29.4°C 64.2°F17.9°C 38% 2.4 mph W3.9 kmh W 2.5 mph4.0 kmh 29.98 in1015.2 mb 0.00 in0.0 mm 0.00 in0.0 mm 0.00 in0.0 mm
06:03 PM 85.0°F29.4°C 64.2°F17.9°C 38% 2.3 mph W3.7 kmh W 2.3 mph3.7 kmh 29.98 in1015.2 mb 0.00 in0.0 mm 0.00 in0.0 mm 0.00 in0.0 mm
06:05 PM 85.6°F29.8°C 64.4°F18.0°C 38% 2.8 mph SW4.5 kmh SW 2.9 mph4.7 kmh 29.98 in1015.2 mb 0.00 in0.0 mm 0.00 in0.0 mm 0.00 in0.0 mm
06:06 PM 85.6°F29.8°C 64.4°F18.0°C 38% 2.5 mph SW4.0 kmh SW 2.7 mph4.3 kmh 29.98 in1015.2 mb 0.00 in0.0 mm 0.00 in0.0 mm 0.00 in0.0 mm
06:08 PM 85.7°F29.8°C 64.3°F17.9°C 39% 0.4 mph SW0.6 kmh SW 0.4 mph0.6 kmh 29.98 in1015.2 mb 0.00 in0.0 mm 0.00 in0.0 mm 0.00 in0.0 mm
06:09 PM 85.7°F29.8°C 64.8°F18.2°C 39% 0.6 mph SW1.0 kmh SW 0.7 mph1.1 kmh 29.98 in1015.2 mb 0.00 in0.0 mm 0.00 in0.0 mm 0.00 in0.0 mm
06:11 PM 85.1°F29.5°C 64.6°F18.1°C 38% 2.0 mph SW3.2 kmh SW 2.0 mph3.2 kmh 29.98 in1015.2 mb 0.00 in0.0 mm 0.00 in0.0 mm 0.00 in0.0 mm
06:12 PM 85.2°F29.6°C 64.3°F17.9°C 38% 2.1 mph SW3.4 kmh SW 2.2 mph3.5 kmh 29.98 in1015.2 mb 0.00 in0.0 mm 0.00 in0.0 mm 0.00 in0.0 mm
06:14 PM 85.7°F29.8°C 64.8°F18.2°C 39% 1.6 mph W2.6 kmh W 1.6 mph2.6 kmh 29.98 in1015.2 mb 0.00 in0.0 mm 0.00 in0.0 mm 0.00 in0.0 mm
06:15 PM 85.4°F29.7°C 64.4°F18.0°C 38% 1.6 mph W2.6 kmh W 1.6 mph2.6 kmh 29.98 in1015.2 mb 0.00 in0.0 mm 0.00 in0.0 mm 0.00 in0.0 mm
06:17 PM 85.3°F29.6°C 64.2°F17.9°C 38% 1.1 mph W1.8 kmh W 1.2 mph1.9 kmh 29.98 in1015.2 mb 0.00 in0.0 mm 0.00 in0.0 mm 0.00 in0.0 mm
06:18 PM 85.3°F29.6°C 64.3°F17.9°C 38% 0.9 mph W1.4 kmh W 0.9 mph1.4 kmh 29.98 in1015.2 mb 0.00 in0.0 mm 0.00 in0.0 mm 0.00 in0.0 mm
06:20 PM 85.4°F29.7°C 65.4°F18.6°C 40% 2.4 mph NNW3.9 kmh NNW 2.4 mph3.9 kmh 29.98 in1015.2 mb 0.00 in0.0 mm 0.00 in0.0 mm 0.00 in0.0 mm
06:21 PM 85.4°F29.7°C 65.6°F18.7°C 40% 1.9 mph W3.1 kmh W 2.0 mph3.2 kmh 29.97 in1014.9 mb 0.00 in0.0 mm 0.00 in0.0 mm 0.00 in0.0 mm
06:26 PM 84.2°F29.0°C 66.4°F19.1°C 41% 0.4 mph SW0.6 kmh SW 0.4 mph0.6 kmh 29.98 in1015.2 mb 0.00 in0.0 mm 0.00 in0.0 mm 0.00 in0.0 mm
06:27 PM 84.2°F29.0°C 65.8°F18.8°C 41% 0.9 mph SW1.4 kmh SW 0.9 mph1.4 kmh 29.98 in1015.2 mb 0.00 in0.0 mm 0.00 in0.0 mm 0.00 in0.0 mm
06:29 PM 84.0°F28.9°C 65.6°F18.7°C 40% 0.8 mph NNW1.3 kmh NNW 0.8 mph1.3 kmh 29.98 in1015.2 mb 0.00 in0.0 mm 0.00 in0.0 mm 0.00 in0.0 mm
06:32 PM 84.2°F29.0°C 65.7°F18.7°C 40% 0.4 mph W0.6 kmh W 0.4 mph0.6 kmh 29.99 in1015.6 mb 0.00 in0.0 mm 0.00 in0.0 mm 0.00 in0.0 mm
06:35 PM 83.4°F28.6°C 65.2°F18.4°C 40% 2.0 mph SW3.2 kmh SW 2.0 mph3.2 kmh 29.99 in1015.6 mb 0.00 in0.0 mm 0.00 in0.0 mm 0.00 in0.0 mm
06:36 PM 83.4°F28.6°C 65.0°F18.3°C 40% 1.6 mph SW2.6 kmh SW 1.7 mph2.7 kmh 29.98 in1015.2 mb 0.00 in0.0 mm 0.00 in0.0 mm 0.00 in0.0 mm
06:38 PM 83.3°F28.5°C 65.7°F18.7°C 40% 2.0 mph SW3.2 kmh SW 2.0 mph3.2 kmh 29.99 in1015.6 mb 0.00 in0.0 mm 0.00 in0.0 mm 0.00 in0.0 mm
06:39 PM 83.3°F28.5°C 65.5°F18.6°C 40% 2.3 mph SW3.7 kmh SW 2.3 mph3.7 kmh 29.99 in1015.6 mb 0.00 in0.0 mm 0.00 in0.0 mm 0.00 in0.0 mm
06:41 PM 83.1°F28.4°C 65.3°F18.5°C 40% 1.5 mph SW2.4 kmh SW 1.6 mph2.6 kmh 29.98 in1015.2 mb 0.00 in0.0 mm 0.00 in0.0 mm 0.00 in0.0 mm
06:42 PM 83.1°F28.4°C 65.1°F18.4°C 40% 1.2 mph SW1.9 kmh SW 1.2 mph1.9 kmh 29.98 in1015.2 mb 0.00 in0.0 mm 0.00 in0.0 mm 0.00 in0.0 mm
06:44 PM 82.7°F28.2°C 65.5°F18.6°C 41% 2.4 mph W3.9 kmh W 2.4 mph3.9 kmh 29.98 in1015.2 mb 0.00 in0.0 mm 0.00 in0.0 mm 0.00 in0.0 mm
06:45 PM 82.6°F28.1°C 65.5°F18.6°C 41% 2.7 mph W4.3 kmh W 2.9 mph4.7 kmh 29.99 in1015.6 mb 0.00 in0.0 mm 0.00 in0.0 mm 0.00 in0.0 mm
06:47 PM 81.8°F27.7°C 64.4°F18.0°C 39% 2.0 mph SW3.2 kmh SW 2.0 mph3.2 kmh 29.98 in1015.2 mb 0.00 in0.0 mm 0.00 in0.0 mm 0.00 in0.0 mm
06:48 PM 81.8°F27.7°C 64.3°F17.9°C 39% 2.0 mph SW3.2 kmh SW 2.1 mph3.4 kmh 29.98 in1015.2 mb 0.00 in0.0 mm 0.00 in0.0 mm 0.00 in0.0 mm
06:50 PM 81.3°F27.4°C 64.4°F18.0°C 39% 2.8 mph WSW4.5 kmh WSW 2.9 mph4.7 kmh 29.98 in1015.2 mb 0.00 in0.0 mm 0.00 in0.0 mm 0.00 in0.0 mm
06:51 PM 81.3°F27.4°C 64.2°F17.9°C 39% 2.1 mph WSW3.4 kmh WSW 2.1 mph3.4 kmh 29.98 in1015.2 mb 0.00 in0.0 mm 0.00 in0.0 mm 0.00 in0.0 mm
06:53 PM 81.6°F27.6°C 64.7°F18.2°C 40% 2.4 mph WSW3.9 kmh WSW 2.4 mph3.9 kmh 29.98 in1015.2 mb 0.00 in0.0 mm 0.00 in0.0 mm 0.00 in0.0 mm
06:54 PM 81.5°F27.5°C 64.9°F18.3°C 40% 1.6 mph WSW2.6 kmh WSW 1.6 mph2.6 kmh 29.98 in1015.2 mb 0.00 in0.0 mm 0.00 in0.0 mm 0.00 in0.0 mm
06:56 PM 81.4°F27.4°C 65.1°F18.4°C 41% 1.2 mph WSW1.9 kmh WSW 1.2 mph1.9 kmh 29.98 in1015.2 mb 0.00 in0.0 mm 0.00 in0.0 mm 0.00 in0.0 mm
06:57 PM 81.4°F27.4°C 64.9°F18.3°C 41% 1.4 mph WSW2.3 kmh WSW 1.4 mph2.3 kmh 29.99 in1015.6 mb 0.00 in0.0 mm 0.00 in0.0 mm 0.00 in0.0 mm
06:59 PM 80.8°F27.1°C 64.9°F18.3°C 41% 1.9 mph SW3.1 kmh SW 1.9 mph3.1 kmh 29.98 in1015.2 mb 0.00 in0.0 mm 0.00 in0.0 mm 0.00 in0.0 mm
07:00 PM 80.8°F27.1°C 64.7°F18.2°C 40% 1.3 mph SW2.1 kmh SW 1.3 mph2.1 kmh 29.98 in1015.2 mb 0.00 in0.0 mm 0.00 in0.0 mm 0.00 in0.0 mm
07:02 PM 81.2°F27.3°C 65.4°F18.6°C 41% 0.4 mph SW0.6 kmh SW 0.4 mph0.6 kmh 29.98 in1015.2 mb 0.00 in0.0 mm 0.00 in0.0 mm 0.00 in0.0 mm
07:03 PM 81.3°F27.4°C 65.4°F18.6°C 42% Calm Calm -- 29.99 in1015.6 mb 0.00 in0.0 mm 0.00 in0.0 mm 0.00 in0.0 mm
07:05 PM 80.9°F27.2°C 65.4°F18.6°C 42% 0.4 mph SW0.6 kmh SW 0.4 mph0.6 kmh 29.98 in1015.2 mb 0.00 in0.0 mm 0.00 in0.0 mm 0.00 in0.0 mm
07:06 PM 80.9°F27.2°C 65.2°F18.4°C 41% 1.0 mph SW1.6 kmh SW 1.0 mph1.6 kmh 29.99 in1015.6 mb 0.00 in0.0 mm 0.00 in0.0 mm 0.00 in0.0 mm
07:11 PM 79.6°F26.4°C 66.7°F19.3°C 44% 0.4 mph SW0.6 kmh SW 0.4 mph0.6 kmh 29.99 in1015.6 mb 0.00 in0.0 mm 0.00 in0.0 mm 0.00 in0.0 mm
07:12 PM 79.5°F26.4°C 66.6°F19.2°C 44% 0.2 mph SW0.3 kmh SW 0.3 mph0.5 kmh 29.98 in1015.2 mb 0.00 in0.0 mm 0.00 in0.0 mm 0.00 in0.0 mm
07:14 PM 79.8°F26.6°C 66.1°F18.9°C 43% Calm Calm -- 29.99 in1015.6 mb 0.00 in0.0 mm 0.00 in0.0 mm 0.00 in0.0 mm
07:15 PM 79.8°F26.6°C 66.4°F19.1°C 43% 0.2 mph SW0.3 kmh SW 0.3 mph0.5 kmh 29.98 in1015.2 mb 0.00 in0.0 mm 0.00 in0.0 mm 0.00 in0.0 mm
07:17 PM 79.4°F26.3°C 66.2°F19.0°C 44% 1.6 mph SW2.6 kmh SW 1.6 mph2.6 kmh 29.99 in1015.6 mb 0.00 in0.0 mm 0.00 in0.0 mm 0.00 in0.0 mm
07:18 PM 79.4°F26.3°C 66.0°F18.9°C 43% 1.1 mph SW1.8 kmh SW 1.2 mph1.9 kmh 29.98 in1015.2 mb 0.00 in0.0 mm 0.00 in0.0 mm 0.00 in0.0 mm
07:20 PM 78.9°F26.1°C 66.8°F19.3°C 45% Calm Calm -- 29.99 in1015.6 mb 0.00 in0.0 mm 0.00 in0.0 mm 0.00 in0.0 mm
07:21 PM 79.0°F26.1°C 66.6°F19.2°C 44% 0.3 mph SW0.5 kmh SW 0.3 mph0.5 kmh 29.99 in1015.6 mb 0.00 in0.0 mm 0.00 in0.0 mm 0.00 in0.0 mm
07:23 PM 78.0°F25.6°C 68.5°F20.3°C 48% Calm Calm -- 29.99 in1015.6 mb 0.00 in0.0 mm 0.00 in0.0 mm 0.00 in0.0 mm
07:24 PM 77.9°F25.5°C 68.9°F20.5°C 48% Calm Calm -- 29.98 in1015.2 mb 0.00 in0.0 mm 0.00 in0.0 mm 0.00 in0.0 mm
07:26 PM 77.2°F25.1°C 69.9°F21.1°C 50% Calm Calm -- 29.99 in1015.6 mb 0.00 in0.0 mm 0.00 in0.0 mm 0.00 in0.0 mm
07:27 PM 77.2°F25.1°C 69.4°F20.8°C 50% Calm Calm -- 29.99 in1015.6 mb 0.00 in0.0 mm 0.00 in0.0 mm 0.00 in0.0 mm
07:29 PM 76.2°F24.6°C 69.9°F21.1°C 51% Calm Calm -- 29.99 in1015.6 mb 0.00 in0.0 mm 0.00 in0.0 mm 0.00 in0.0 mm
07:32 PM 75.3°F24.1°C 69.0°F20.6°C 50% Calm Calm -- 29.99 in1015.6 mb 0.00 in0.0 mm 0.00 in0.0 mm 0.00 in0.0 mm
07:33 PM 75.3°F24.1°C 69.2°F20.7°C 50% Calm Calm -- 29.98 in1015.2 mb 0.00 in0.0 mm 0.00 in0.0 mm 0.00 in0.0 mm
07:35 PM 74.6°F23.7°C 68.7°F20.4°C 50% Calm Calm -- 29.99 in1015.6 mb 0.00 in0.0 mm 0.00 in0.0 mm 0.00 in0.0 mm
07:36 PM 74.6°F23.7°C 68.9°F20.5°C 50% Calm Calm -- 29.99 in1015.6 mb 0.00 in0.0 mm 0.00 in0.0 mm 0.00 in0.0 mm
07:41 PM 73.5°F23.1°C 68.2°F20.1°C 50% Calm Calm -- 29.98 in1015.2 mb 0.00 in0.0 mm 0.00 in0.0 mm 0.00 in0.0 mm
07:42 PM 73.6°F23.1°C 68.4°F20.2°C 50% Calm Calm -- 29.99 in1015.6 mb 0.00 in0.0 mm 0.00 in0.0 mm 0.00 in0.0 mm
07:44 PM 73.2°F22.9°C 67.5°F19.7°C 50% Calm Calm -- 29.99 in1015.6 mb 0.00 in0.0 mm 0.00 in0.0 mm 0.00 in0.0 mm
07:45 PM 73.2°F22.9°C 67.6°F19.8°C 50% Calm Calm -- 29.99 in1015.6 mb 0.00 in0.0 mm 0.00 in0.0 mm 0.00 in0.0 mm
07:47 PM 71.8°F22.1°C 67.0°F19.4°C 49% Calm Calm -- 29.99 in1015.6 mb 0.00 in0.0 mm 0.00 in0.0 mm 0.00 in0.0 mm
07:48 PM 71.8°F22.1°C 67.0°F19.4°C 49% Calm Calm -- 29.99 in1015.6 mb 0.00 in0.0 mm 0.00 in0.0 mm 0.00 in0.0 mm
07:50 PM 72.4°F22.4°C 67.3°F19.6°C 50% Calm Calm -- 29.99 in1015.6 mb 0.00 in0.0 mm 0.00 in0.0 mm 0.00 in0.0 mm
07:51 PM 72.3°F22.4°C 67.3°F19.6°C 50% Calm Calm -- 29.99 in1015.6 mb 0.00 in0.0 mm 0.00 in0.0 mm 0.00 in0.0 mm
07:53 PM 70.9°F21.6°C 68.1°F20.1°C 52% Calm Calm -- 29.99 in1015.6 mb 0.00 in0.0 mm 0.00 in0.0 mm 0.00 in0.0 mm
07:54 PM 70.9°F21.6°C 67.7°F19.8°C 52% Calm Calm -- 29.99 in1015.6 mb 0.00 in0.0 mm 0.00 in0.0 mm 0.00 in0.0 mm
07:59 PM 69.7°F20.9°C 68.0°F20.0°C 54% 1.2 mph SW1.9 kmh SW 1.2 mph1.9 kmh 29.99 in1015.6 mb 0.00 in0.0 mm 0.00 in0.0 mm 0.00 in0.0 mm
08:00 PM 69.7°F20.9°C 67.6°F19.8°C 54% 0.9 mph SW1.4 kmh SW 0.9 mph1.4 kmh 29.99 in1015.6 mb 0.00 in0.0 mm 0.00 in0.0 mm 0.00 in0.0 mm
08:02 PM 68.9°F20.5°C 68.4°F20.2°C 56% 1.2 mph SW1.9 kmh SW 1.2 mph1.9 kmh 29.99 in1015.6 mb 0.00 in0.0 mm 0.00 in0.0 mm 0.00 in0.0 mm
08:03 PM 68.9°F20.5°C 67.8°F19.9°C 55% 1.6 mph SW2.6 kmh SW 1.6 mph2.6 kmh 29.99 in1015.6 mb 0.00 in0.0 mm 0.00 in0.0 mm 0.00 in0.0 mm
08:05 PM 69.4°F20.8°C 67.8°F19.9°C 55% Calm Calm -- 29.99 in1015.6 mb 0.00 in0.0 mm 0.00 in0.0 mm 0.00 in0.0 mm
08:06 PM 69.2°F20.7°C 67.6°F19.8°C 55% Calm Calm -- 29.99 in1015.6 mb 0.00 in0.0 mm 0.00 in0.0 mm 0.00 in0.0 mm
08:08 PM 69.2°F20.7°C 68.0°F20.0°C 56% Calm Calm -- 29.99 in1015.6 mb 0.00 in0.0 mm 0.00 in0.0 mm 0.00 in0.0 mm
08:09 PM 69.4°F20.8°C 68.0°F20.0°C 56% Calm Calm -- 29.99 in1015.6 mb 0.00 in0.0 mm 0.00 in0.0 mm 0.00 in0.0 mm
08:11 PM 68.9°F20.5°C 67.0°F19.4°C 55% Calm Calm -- 29.99 in1015.6 mb 0.00 in0.0 mm 0.00 in0.0 mm 0.00 in0.0 mm
08:12 PM 68.7°F20.4°C 67.3°F19.6°C 55% Calm Calm -- 29.99 in1015.6 mb 0.00 in0.0 mm 0.00 in0.0 mm 0.00 in0.0 mm
08:14 PM 67.9°F19.9°C 67.0°F19.4°C 55% Calm Calm -- 29.99 in1015.6 mb 0.00 in0.0 mm 0.00 in0.0 mm 0.00 in0.0 mm
08:17 PM 68.3°F20.2°C 66.8°F19.3°C 56% Calm Calm -- 29.99 in1015.6 mb 0.00 in0.0 mm 0.00 in0.0 mm 0.00 in0.0 mm
08:18 PM 68.3°F20.2°C 66.8°F19.3°C 56% Calm Calm -- 29.99 in1015.6 mb 0.00 in0.0 mm 0.00 in0.0 mm 0.00 in0.0 mm
08:20 PM 67.4°F19.7°C 66.9°F19.4°C 57% Calm Calm -- 29.99 in1015.6 mb 0.00 in0.0 mm 0.00 in0.0 mm 0.00 in0.0 mm
08:21 PM 67.3°F19.6°C 67.3°F19.6°C 57% Calm Calm -- 29.99 in1015.6 mb 0.00 in0.0 mm 0.00 in0.0 mm 0.00 in0.0 mm
08:23 PM 67.0°F19.4°C 67.0°F19.4°C 56% Calm Calm -- 29.99 in1015.6 mb 0.00 in0.0 mm 0.00 in0.0 mm 0.00 in0.0 mm
08:26 PM 67.1°F19.5°C 66.1°F18.9°C 56% Calm Calm -- 29.99 in1015.6 mb 0.00 in0.0 mm 0.00 in0.0 mm 0.00 in0.0 mm
08:27 PM 67.1°F19.5°C 66.7°F19.3°C 56% Calm Calm -- 29.99 in1015.6 mb 0.00 in0.0 mm 0.00 in0.0 mm 0.00 in0.0 mm
08:29 PM 66.7°F19.3°C 66.4°F19.1°C 56% Calm Calm -- 29.99 in1015.6 mb 0.00 in0.0 mm 0.00 in0.0 mm 0.00 in0.0 mm
08:30 PM 66.8°F19.3°C 65.7°F18.7°C 56% Calm Calm -- 29.99 in1015.6 mb 0.00 in0.0 mm 0.00 in0.0 mm 0.00 in0.0 mm
08:32 PM 66.3°F19.1°C 66.8°F19.3°C 58% Calm Calm -- 29.99 in1015.6 mb 0.00 in0.0 mm 0.00 in0.0 mm 0.00 in0.0 mm
08:33 PM 66.3°F19.1°C 66.4°F19.1°C 57% Calm Calm -- 29.99 in1015.6 mb 0.00 in0.0 mm 0.00 in0.0 mm 0.00 in0.0 mm
08:35 PM 66.2°F19.0°C 66.8°F19.3°C 58% Calm Calm -- 29.99 in1015.6 mb 0.00 in0.0 mm 0.00 in0.0 mm 0.00 in0.0 mm
08:36 PM 66.2°F19.0°C 66.4°F19.1°C 58% Calm Calm -- 29.99 in1015.6 mb 0.00 in0.0 mm 0.00 in0.0 mm 0.00 in0.0 mm
08:38 PM 66.1°F18.9°C 66.4°F19.1°C 58% Calm Calm -- 29.99 in1015.6 mb 0.00 in0.0 mm 0.00 in0.0 mm 0.00 in0.0 mm
08:39 PM 66.1°F18.9°C 66.1°F18.9°C 58% Calm Calm -- 29.99 in1015.6 mb 0.00 in0.0 mm 0.00 in0.0 mm 0.00 in0.0 mm
08:41 PM 65.2°F18.4°C 66.4°F19.1°C 58% Calm Calm -- 29.99 in1015.6 mb 0.00 in0.0 mm 0.00 in0.0 mm 0.00 in0.0 mm
08:42 PM 65.1°F18.4°C 65.6°F18.7°C 58% Calm Calm -- 29.99 in1015.6 mb 0.00 in0.0 mm 0.00 in0.0 mm 0.00 in0.0 mm
08:44 PM 64.4°F18.0°C 65.4°F18.6°C 58% Calm Calm -- 29.99 in1015.6 mb 0.00 in0.0 mm 0.00 in0.0 mm 0.00 in0.0 mm
08:45 PM 64.4°F18.0°C 65.8°F18.8°C 58% Calm Calm -- 29.99 in1015.6 mb 0.00 in0.0 mm 0.00 in0.0 mm 0.00 in0.0 mm
08:47 PM 64.6°F18.1°C 66.2°F19.0°C 59% Calm Calm -- 30.00 in1015.9 mb 0.00 in0.0 mm 0.00 in0.0 mm 0.00 in0.0 mm
08:48 PM 64.6°F18.1°C 65.5°F18.6°C 59% Calm Calm -- 30.00 in1015.9 mb 0.00 in0.0 mm 0.00 in0.0 mm 0.00 in0.0 mm
08:50 PM 63.8°F17.7°C 64.8°F18.2°C 57% Calm Calm -- 30.00 in1015.9 mb 0.00 in0.0 mm 0.00 in0.0 mm 0.00 in0.0 mm
08:51 PM 63.8°F17.7°C 64.9°F18.3°C 58% Calm Calm -- 29.99 in1015.6 mb 0.00 in0.0 mm 0.00 in0.0 mm 0.00 in0.0 mm
08:53 PM 64.1°F17.8°C 64.8°F18.2°C 60% Calm Calm -- 30.00 in1015.9 mb 0.00 in0.0 mm 0.00 in0.0 mm 0.00 in0.0 mm
08:54 PM 64.1°F17.8°C 65.6°F18.7°C 60% Calm Calm -- 30.00 in1015.9 mb 0.00 in0.0 mm 0.00 in0.0 mm 0.00 in0.0 mm
08:56 PM 63.5°F17.5°C 65.2°F18.4°C 61% Calm Calm -- 30.00 in1015.9 mb 0.00 in0.0 mm 0.00 in0.0 mm 0.00 in0.0 mm
08:57 PM 63.4°F17.4°C 64.8°F18.2°C 60% Calm Calm -- 30.00 in1015.9 mb 0.00 in0.0 mm 0.00 in0.0 mm 0.00 in0.0 mm
08:59 PM 63.6°F17.6°C 65.1°F18.4°C 61% Calm Calm -- 30.00 in1015.9 mb 0.00 in0.0 mm 0.00 in0.0 mm 0.00 in0.0 mm
09:00 PM 63.7°F17.6°C 64.9°F18.3°C 60% Calm Calm -- 30.00 in1015.9 mb 0.00 in0.0 mm 0.00 in0.0 mm 0.00 in0.0 mm
09:02 PM 64.1°F17.8°C 65.4°F18.6°C 61% Calm Calm -- 30.00 in1015.9 mb 0.00 in0.0 mm 0.00 in0.0 mm 0.00 in0.0 mm
09:03 PM 64.1°F17.8°C 65.1°F18.4°C 61% Calm Calm -- 30.00 in1015.9 mb 0.00 in0.0 mm 0.00 in0.0 mm 0.00 in0.0 mm
09:05 PM 63.1°F17.3°C 63.9°F17.7°C 59% Calm Calm -- 30.00 in1015.9 mb 0.00 in0.0 mm 0.00 in0.0 mm 0.00 in0.0 mm
09:06 PM 62.9°F17.2°C 64.4°F18.0°C 60% Calm Calm -- 30.00 in1015.9 mb 0.00 in0.0 mm 0.00 in0.0 mm 0.00 in0.0 mm
09:08 PM 62.9°F17.2°C 64.0°F17.8°C 60% Calm Calm -- 30.00 in1015.9 mb 0.00 in0.0 mm 0.00 in0.0 mm 0.00 in0.0 mm
09:09 PM 62.9°F17.2°C 65.0°F18.3°C 60% Calm Calm -- 30.00 in1015.9 mb 0.00 in0.0 mm 0.00 in0.0 mm 0.00 in0.0 mm
09:11 PM 63.4°F17.4°C 64.4°F18.0°C 61% Calm Calm -- 30.00 in1015.9 mb 0.00 in0.0 mm 0.00 in0.0 mm 0.00 in0.0 mm
09:12 PM 63.4°F17.4°C 64.2°F17.9°C 61% Calm Calm -- 30.00 in1015.9 mb 0.00 in0.0 mm 0.00 in0.0 mm 0.00 in0.0 mm
09:14 PM 61.8°F16.6°C 63.8°F17.7°C 60% Calm Calm -- 30.00 in1015.9 mb 0.00 in0.0 mm 0.00 in0.0 mm 0.00 in0.0 mm
09:15 PM 61.9°F16.6°C 63.8°F17.7°C 61% Calm Calm -- 30.00 in1015.9 mb 0.00 in0.0 mm 0.00 in0.0 mm 0.00 in0.0 mm
09:17 PM 61.5°F16.4°C 64.7°F18.2°C 61% Calm Calm -- 30.00 in1015.9 mb 0.00 in0.0 mm 0.00 in0.0 mm 0.00 in0.0 mm
09:18 PM 61.5°F16.4°C 64.7°F18.2°C 61% Calm Calm -- 30.00 in1015.9 mb 0.00 in0.0 mm 0.00 in0.0 mm 0.00 in0.0 mm
09:20 PM 61.5°F16.4°C 64.3°F17.9°C 61% Calm Calm -- 30.00 in1015.9 mb 0.00 in0.0 mm 0.00 in0.0 mm 0.00 in0.0 mm
09:21 PM 61.5°F16.4°C 64.4°F18.0°C 61% Calm Calm -- 30.00 in1015.9 mb 0.00 in0.0 mm 0.00 in0.0 mm 0.00 in0.0 mm
09:23 PM 62.0°F16.7°C 63.6°F17.6°C 62% Calm Calm -- 30.00 in1015.9 mb 0.00 in0.0 mm 0.00 in0.0 mm 0.00 in0.0 mm
09:24 PM 62.0°F16.7°C 63.7°F17.6°C 62% Calm Calm -- 30.00 in1015.9 mb 0.00 in0.0 mm 0.00 in0.0 mm 0.00 in0.0 mm
09:26 PM 61.8°F16.6°C 63.6°F17.6°C 62% Calm Calm -- 30.00 in1015.9 mb 0.00 in0.0 mm 0.00 in0.0 mm 0.00 in0.0 mm
09:27 PM 61.8°F16.6°C 63.8°F17.7°C 62% Calm Calm -- 30.00 in1015.9 mb 0.00 in0.0 mm 0.00 in0.0 mm 0.00 in0.0 mm
09:29 PM 61.7°F16.5°C 64.3°F17.9°C 63% Calm Calm -- 30.00 in1015.9 mb 0.00 in0.0 mm 0.00 in0.0 mm 0.00 in0.0 mm
09:30 PM 61.7°F16.5°C 63.5°F17.5°C 62% Calm Calm -- 30.00 in1015.9 mb 0.00 in0.0 mm 0.00 in0.0 mm 0.00 in0.0 mm
09:32 PM 61.6°F16.4°C 63.1°F17.3°C 62% Calm Calm -- 30.00 in1015.9 mb 0.00 in0.0 mm 0.00 in0.0 mm 0.00 in0.0 mm
09:33 PM 61.6°F16.4°C 64.0°F17.8°C 62% Calm Calm -- 30.00 in1015.9 mb 0.00 in0.0 mm 0.00 in0.0 mm 0.00 in0.0 mm
09:35 PM 61.0°F16.1°C 62.8°F17.1°C 62% Calm Calm -- 30.00 in1015.9 mb 0.00 in0.0 mm 0.00 in0.0 mm 0.00 in0.0 mm
09:36 PM 61.0°F16.1°C 62.9°F17.2°C 62% Calm Calm -- 30.00 in1015.9 mb 0.00 in0.0 mm 0.00 in0.0 mm 0.00 in0.0 mm
09:38 PM 60.9°F16.1°C 63.1°F17.3°C 63% Calm Calm -- 30.00 in1015.9 mb 0.00 in0.0 mm 0.00 in0.0 mm 0.00 in0.0 mm
09:39 PM 60.8°F16.0°C 63.2°F17.3°C 63% Calm Calm -- 30.00 in1015.9 mb 0.00 in0.0 mm 0.00 in0.0 mm 0.00 in0.0 mm
09:41 PM 60.6°F15.9°C 62.6°F17.0°C 62% Calm Calm -- 30.00 in1015.9 mb 0.00 in0.0 mm 0.00 in0.0 mm 0.00 in0.0 mm
09:42 PM 60.7°F15.9°C 62.9°F17.2°C 62% Calm Calm -- 30.01 in1016.3 mb 0.00 in0.0 mm 0.00 in0.0 mm 0.00 in0.0 mm
09:44 PM 60.2°F15.7°C 62.6°F17.0°C 63% Calm Calm -- 30.00 in1015.9 mb 0.00 in0.0 mm 0.00 in0.0 mm 0.00 in0.0 mm
09:45 PM 60.2°F15.7°C 63.6°F17.6°C 63% Calm Calm -- 30.00 in1015.9 mb 0.00 in0.0 mm 0.00 in0.0 mm 0.00 in0.0 mm
09:47 PM 60.4°F15.8°C 62.7°F17.1°C 63% Calm Calm -- 30.00 in1015.9 mb 0.00 in0.0 mm 0.00 in0.0 mm 0.00 in0.0 mm
09:48 PM 60.2°F15.7°C 62.7°F17.1°C 64% Calm Calm -- 30.00 in1015.9 mb 0.00 in0.0 mm 0.00 in0.0 mm 0.00 in0.0 mm
09:50 PM 60.0°F15.6°C 62.9°F17.2°C 63% Calm Calm -- 30.00 in1015.9 mb 0.00 in0.0 mm 0.00 in0.0 mm 0.00 in0.0 mm
09:51 PM 60.0°F15.6°C 62.6°F17.0°C 63% Calm Calm -- 30.00 in1015.9 mb 0.00 in0.0 mm 0.00 in0.0 mm 0.00 in0.0 mm
09:53 PM 60.1°F15.6°C 62.1°F16.7°C 64% Calm Calm -- 30.00 in1015.9 mb 0.00 in0.0 mm 0.00 in0.0 mm 0.00 in0.0 mm
09:54 PM 60.2°F15.7°C 62.8°F17.1°C 64% Calm Calm -- 30.00 in1015.9 mb 0.00 in0.0 mm 0.00 in0.0 mm 0.00 in0.0 mm
09:56 PM 60.1°F15.6°C 62.4°F16.9°C 64% Calm Calm -- 30.00 in1015.9 mb 0.00 in0.0 mm 0.00 in0.0 mm 0.00 in0.0 mm
09:57 PM 60.1°F15.6°C 62.2°F16.8°C 64% Calm Calm -- 30.00 in1015.9 mb 0.00 in0.0 mm 0.00 in0.0 mm 0.00 in0.0 mm
09:59 PM 59.8°F15.4°C 62.3°F16.8°C 64% Calm Calm -- 30.00 in1015.9 mb 0.00 in0.0 mm 0.00 in0.0 mm 0.00 in0.0 mm
10:00 PM 59.8°F15.4°C 62.5°F16.9°C 64% Calm Calm -- 30.00 in1015.9 mb 0.00 in0.0 mm 0.00 in0.0 mm 0.00 in0.0 mm
10:02 PM 59.7°F15.4°C 62.1°F16.7°C 64% Calm Calm -- 30.00 in1015.9 mb 0.00 in0.0 mm 0.00 in0.0 mm 0.00 in0.0 mm
10:03 PM 59.7°F15.4°C 62.8°F17.1°C 64% Calm Calm -- 30.00 in1015.9 mb 0.00 in0.0 mm 0.00 in0.0 mm 0.00 in0.0 mm
10:05 PM 59.7°F15.4°C 62.1°F16.7°C 64% Calm Calm -- 30.00 in1015.9 mb 0.00 in0.0 mm 0.00 in0.0 mm 0.00 in0.0 mm
10:06 PM 59.7°F15.4°C 62.4°F16.9°C 64% Calm Calm -- 30.00 in1015.9 mb 0.00 in0.0 mm 0.00 in0.0 mm 0.00 in0.0 mm
10:08 PM 59.7°F15.4°C 62.2°F16.8°C 64% Calm Calm -- 30.00 in1015.9 mb 0.00 in0.0 mm 0.00 in0.0 mm 0.00 in0.0 mm
10:09 PM 59.7°F15.4°C 62.4°F16.9°C 64% Calm Calm -- 30.00 in1015.9 mb 0.00 in0.0 mm 0.00 in0.0 mm 0.00 in0.0 mm
10:11 PM 59.7°F15.4°C 62.2°F16.8°C 65% Calm Calm -- 30.00 in1015.9 mb 0.00 in0.0 mm 0.00 in0.0 mm 0.00 in0.0 mm
10:12 PM 59.8°F15.4°C 61.7°F16.5°C 65% Calm Calm -- 30.00 in1015.9 mb 0.00 in0.0 mm 0.00 in0.0 mm 0.00 in0.0 mm
10:14 PM 59.5°F15.3°C 61.7°F16.5°C 64% Calm Calm -- 30.00 in1015.9 mb 0.00 in0.0 mm 0.00 in0.0 mm 0.00 in0.0 mm
10:15 PM 59.5°F15.3°C 61.9°F16.6°C 65% Calm Calm -- 30.00 in1015.9 mb 0.00 in0.0 mm 0.00 in0.0 mm 0.00 in0.0 mm
10:17 PM 59.5°F15.3°C 62.4°F16.9°C 65% Calm Calm -- 30.00 in1015.9 mb 0.00 in0.0 mm 0.00 in0.0 mm 0.00 in0.0 mm
10:18 PM 59.5°F15.3°C 61.3°F16.3°C 65% Calm Calm -- 30.00 in1015.9 mb 0.00 in0.0 mm 0.00 in0.0 mm 0.00 in0.0 mm
10:20 PM 59.0°F15.0°C 61.8°F16.6°C 65% Calm Calm -- 30.00 in1015.9 mb 0.00 in0.0 mm 0.00 in0.0 mm 0.00 in0.0 mm
10:21 PM 59.0°F15.0°C 62.4°F16.9°C 65% Calm Calm -- 30.00 in1015.9 mb 0.00 in0.0 mm 0.00 in0.0 mm 0.00 in0.0 mm
10:23 PM 59.5°F15.3°C 61.7°F16.5°C 66% Calm Calm -- 30.00 in1015.9 mb 0.00 in0.0 mm 0.00 in0.0 mm 0.00 in0.0 mm
10:24 PM 59.3°F15.2°C 62.2°F16.8°C 66% Calm Calm -- 30.00 in1015.9 mb 0.00 in0.0 mm 0.00 in0.0 mm 0.00 in0.0 mm
10:26 PM 58.8°F14.9°C 61.3°F16.3°C 66% Calm Calm -- 30.00 in1015.9 mb 0.00 in0.0 mm 0.00 in0.0 mm 0.00 in0.0 mm
10:27 PM 58.8°F14.9°C 61.1°F16.2°C 65% Calm Calm -- 30.01 in1016.3 mb 0.00 in0.0 mm 0.00 in0.0 mm 0.00 in0.0 mm
10:29 PM 58.6°F14.8°C 61.1°F16.2°C 66% Calm Calm -- 30.01 in1016.3 mb 0.00 in0.0 mm 0.00 in0.0 mm 0.00 in0.0 mm
10:30 PM 58.6°F14.8°C 61.1°F16.2°C 66% Calm Calm -- 30.01 in1016.3 mb 0.00 in0.0 mm 0.00 in0.0 mm 0.00 in0.0 mm
10:32 PM 58.7°F14.8°C 61.4°F16.3°C 66% Calm Calm -- 30.00 in1015.9 mb 0.00 in0.0 mm 0.00 in0.0 mm 0.00 in0.0 mm
10:33 PM 58.7°F14.8°C 61.2°F16.2°C 66% Calm Calm -- 30.00 in1015.9 mb 0.00 in0.0 mm 0.00 in0.0 mm 0.00 in0.0 mm
10:35 PM 58.7°F14.8°C 61.5°F16.4°C 67% Calm Calm -- 30.01 in1016.3 mb 0.00 in0.0 mm 0.00 in0.0 mm 0.00 in0.0 mm
10:36 PM 58.7°F14.8°C 61.1°F16.2°C 67% Calm Calm -- 30.01 in1016.3 mb 0.00 in0.0 mm 0.00 in0.0 mm 0.00 in0.0 mm
10:38 PM 57.9°F14.4°C 61.1°F16.2°C 66% Calm Calm -- 30.01 in1016.3 mb 0.00 in0.0 mm 0.00 in0.0 mm 0.00 in0.0 mm
10:39 PM 58.0°F14.4°C 61.1°F16.2°C 66% Calm Calm -- 30.01 in1016.3 mb 0.00 in0.0 mm 0.00 in0.0 mm 0.00 in0.0 mm
10:41 PM 58.4°F14.7°C 61.4°F16.3°C 67% Calm Calm -- 30.01 in1016.3 mb 0.00 in0.0 mm 0.00 in0.0 mm 0.00 in0.0 mm
10:42 PM 58.3°F14.6°C 61.0°F16.1°C 67% Calm Calm -- 30.01 in1016.3 mb 0.00 in0.0 mm 0.00 in0.0 mm 0.00 in0.0 mm
10:44 PM 58.3°F14.6°C 60.7°F15.9°C 67% Calm Calm -- 30.01 in1016.3 mb 0.00 in0.0 mm 0.00 in0.0 mm 0.00 in0.0 mm
10:47 PM 58.6°F14.8°C 61.2°F16.2°C 67% Calm Calm -- 30.01 in1016.3 mb 0.00 in0.0 mm 0.00 in0.0 mm 0.00 in0.0 mm
10:48 PM 58.6°F14.8°C 60.7°F15.9°C 66% Calm Calm -- 30.01 in1016.3 mb 0.00 in0.0 mm 0.00 in0.0 mm 0.00 in0.0 mm
10:50 PM 58.7°F14.8°C 60.9°F16.1°C 67% Calm Calm -- 30.01 in1016.3 mb 0.00 in0.0 mm 0.00 in0.0 mm 0.00 in0.0 mm
10:51 PM 58.6°F14.8°C 61.1°F16.2°C 67% Calm Calm -- 30.01 in1016.3 mb 0.00 in0.0 mm 0.00 in0.0 mm 0.00 in0.0 mm
10:53 PM 58.2°F14.6°C 60.5°F15.8°C 67% Calm Calm -- 30.01 in1016.3 mb 0.00 in0.0 mm 0.00 in0.0 mm 0.00 in0.0 mm
10:54 PM 58.1°F14.5°C 60.6°F15.9°C 67% Calm Calm -- 30.01 in1016.3 mb 0.00 in0.0 mm 0.00 in0.0 mm 0.00 in0.0 mm
10:56 PM 57.2°F14.0°C 60.5°F15.8°C 67% Calm Calm -- 30.01 in1016.3 mb 0.00 in0.0 mm 0.00 in0.0 mm 0.00 in0.0 mm
10:57 PM 57.2°F14.0°C 60.0°F15.6°C 66% Calm Calm -- 30.01 in1016.3 mb 0.00 in0.0 mm 0.00 in0.0 mm 0.00 in0.0 mm
10:59 PM 57.5°F14.2°C 60.6°F15.9°C 68% Calm Calm -- 30.00 in1015.9 mb 0.00 in0.0 mm 0.00 in0.0 mm 0.00 in0.0 mm
11:00 PM 57.5°F14.2°C 61.0°F16.1°C 68% Calm Calm -- 30.00 in1015.9 mb 0.00 in0.0 mm 0.00 in0.0 mm 0.00 in0.0 mm
11:02 PM 57.3°F14.1°C 60.5°F15.8°C 68% Calm Calm -- 30.00 in1015.9 mb 0.00 in0.0 mm 0.00 in0.0 mm 0.00 in0.0 mm
11:03 PM 57.3°F14.1°C 60.2°F15.7°C 67% Calm Calm -- 30.00 in1015.9 mb 0.00 in0.0 mm 0.00 in0.0 mm 0.00 in0.0 mm
11:05 PM 57.9°F14.4°C 60.2°F15.7°C 67% Calm Calm -- 30.00 in1015.9 mb 0.00 in0.0 mm 0.00 in0.0 mm 0.00 in0.0 mm
11:06 PM 57.9°F14.4°C 59.9°F15.5°C 67% Calm Calm -- 30.00 in1015.9 mb 0.00 in0.0 mm 0.00 in0.0 mm 0.00 in0.0 mm
11:08 PM 57.5°F14.2°C 59.8°F15.4°C 67% Calm Calm -- 30.00 in1015.9 mb 0.00 in0.0 mm 0.00 in0.0 mm 0.00 in0.0 mm
11:09 PM 57.5°F14.2°C 60.1°F15.6°C 68% Calm Calm -- 30.00 in1015.9 mb 0.00 in0.0 mm 0.00 in0.0 mm 0.00 in0.0 mm
11:11 PM 57.8°F14.3°C 60.3°F15.7°C 68% Calm Calm -- 30.01 in1016.3 mb 0.00 in0.0 mm 0.00 in0.0 mm 0.00 in0.0 mm
11:12 PM 57.8°F14.3°C 60.4°F15.8°C 68% Calm Calm -- 30.00 in1015.9 mb 0.00 in0.0 mm 0.00 in0.0 mm 0.00 in0.0 mm
11:14 PM 57.3°F14.1°C 60.0°F15.6°C 68% Calm Calm -- 30.00 in1015.9 mb 0.00 in0.0 mm 0.00 in0.0 mm 0.00 in0.0 mm
11:15 PM 57.4°F14.1°C 60.6°F15.9°C 69% Calm Calm -- 30.00 in1015.9 mb 0.00 in0.0 mm 0.00 in0.0 mm 0.00 in0.0 mm
11:17 PM 57.1°F13.9°C 59.8°F15.4°C 68% Calm Calm -- 30.00 in1015.9 mb 0.00 in0.0 mm 0.00 in0.0 mm 0.00 in0.0 mm
11:18 PM 57.1°F13.9°C 60.0°F15.6°C 68% Calm Calm -- 30.00 in1015.9 mb 0.00 in0.0 mm 0.00 in0.0 mm 0.00 in0.0 mm
11:20 PM 57.3°F14.1°C 59.8°F15.4°C 68% Calm Calm -- 30.00 in1015.9 mb 0.00 in0.0 mm 0.00 in0.0 mm 0.00 in0.0 mm
11:21 PM 57.3°F14.1°C 59.5°F15.3°C 68% Calm Calm -- 30.00 in1015.9 mb 0.00 in0.0 mm 0.00 in0.0 mm 0.00 in0.0 mm
11:23 PM 57.2°F14.0°C 59.9°F15.5°C 68% Calm Calm -- 30.00 in1015.9 mb 0.00 in0.0 mm 0.00 in0.0 mm 0.00 in0.0 mm
11:24 PM 57.2°F14.0°C 59.5°F15.3°C 69% Calm Calm -- 30.00 in1015.9 mb 0.00 in0.0 mm 0.00 in0.0 mm 0.00 in0.0 mm
11:26 PM 57.1°F13.9°C 59.4°F15.2°C 68% Calm Calm -- 30.00 in1015.9 mb 0.00 in0.0 mm 0.00 in0.0 mm 0.00 in0.0 mm
11:27 PM 57.2°F14.0°C 59.8°F15.4°C 68% Calm Calm -- 30.00 in1015.9 mb 0.00 in0.0 mm 0.00 in0.0 mm 0.00 in0.0 mm
11:29 PM 57.1°F13.9°C 59.6°F15.3°C 69% Calm Calm -- 30.00 in1015.9 mb 0.00 in0.0 mm 0.00 in0.0 mm 0.00 in0.0 mm
11:30 PM 57.1°F13.9°C 59.6°F15.3°C 69% Calm Calm -- 30.00 in1015.9 mb 0.00 in0.0 mm 0.00 in0.0 mm 0.00 in0.0 mm
11:32 PM 56.8°F13.8°C 59.9°F15.5°C 69% Calm Calm -- 30.00 in1015.9 mb 0.00 in0.0 mm 0.00 in0.0 mm 0.00 in0.0 mm
11:33 PM 56.9°F13.8°C 59.8°F15.4°C 69% Calm Calm -- 30.00 in1015.9 mb 0.00 in0.0 mm 0.00 in0.0 mm 0.00 in0.0 mm
11:35 PM 57.1°F13.9°C 59.5°F15.3°C 69% Calm Calm -- 30.00 in1015.9 mb 0.00 in0.0 mm 0.00 in0.0 mm 0.00 in0.0 mm
11:36 PM 57.1°F13.9°C 59.7°F15.4°C 69% Calm Calm -- 30.00 in1015.9 mb 0.00 in0.0 mm 0.00 in0.0 mm 0.00 in0.0 mm
11:38 PM 56.5°F13.6°C 59.2°F15.1°C 69% Calm Calm -- 30.00 in1015.9 mb 0.00 in0.0 mm 0.00 in0.0 mm 0.00 in0.0 mm
11:39 PM 56.5°F13.6°C 59.4°F15.2°C 69% Calm Calm -- 30.00 in1015.9 mb 0.00 in0.0 mm 0.00 in0.0 mm 0.00 in0.0 mm
11:41 PM 56.5°F13.6°C 59.7°F15.4°C 70% Calm Calm -- 30.00 in1015.9 mb 0.00 in0.0 mm 0.00 in0.0 mm 0.00 in0.0 mm
11:42 PM 56.4°F13.6°C 59.2°F15.1°C 69% Calm Calm -- 30.00 in1015.9 mb 0.00 in0.0 mm 0.00 in0.0 mm 0.00 in0.0 mm
11:44 PM 56.2°F13.4°C 59.1°F15.1°C 69% Calm Calm -- 30.00 in1015.9 mb 0.00 in0.0 mm 0.00 in0.0 mm 0.00 in0.0 mm
11:47 PM 56.2°F13.4°C 59.0°F15.0°C 69% Calm Calm -- 30.00 in1015.9 mb 0.00 in0.0 mm 0.00 in0.0 mm 0.00 in0.0 mm
11:48 PM 56.3°F13.5°C 58.9°F14.9°C 69% Calm Calm -- 30.00 in1015.9 mb 0.00 in0.0 mm 0.00 in0.0 mm 0.00 in0.0 mm
11:50 PM 56.2°F13.4°C 58.8°F14.9°C 70% Calm Calm -- 30.00 in1015.9 mb 0.00 in0.0 mm 0.00 in0.0 mm 0.00 in0.0 mm
11:51 PM 56.2°F13.4°C 58.5°F14.7°C 69% Calm Calm -- 30.00 in1015.9 mb 0.00 in0.0 mm 0.00 in0.0 mm 0.00 in0.0 mm
11:53 PM 56.5°F13.6°C 58.7°F14.8°C 69% Calm Calm -- 30.00 in1015.9 mb 0.00 in0.0 mm 0.00 in0.0 mm 0.00 in0.0 mm
11:54 PM 56.5°F13.6°C 59.0°F15.0°C 70% Calm Calm -- 30.01 in1016.3 mb 0.00 in0.0 mm 0.00 in0.0 mm 0.00 in0.0 mm
11:56 PM 55.9°F13.3°C 58.6°F14.8°C 70% Calm Calm -- 30.00 in1015.9 mb 0.00 in0.0 mm 0.00 in0.0 mm 0.00 in0.0 mm
11:57 PM 55.9°F13.3°C 58.6°F14.8°C 69% Calm Calm -- 30.01 in1016.3 mb 0.00 in0.0 mm 0.00 in0.0 mm 0.00 in0.0 mm
11:59 PM 56.1°F13.4°C 59.0°F15.0°C 71% Calm Calm -- 30.01 in1016.3 mb 0.00 in0.0 mm 0.00 in0.0 mm 0.00 in0.0 mm